<?xml version='1.0' encoding='UTF-8'?><gpx version="1.1" creator="JPX - https://github.com/jenetics/jpx" xmlns="http://www.topografix.com/GPX/1/1"><trk><trkseg><trkpt lat="45.4090349" lon="10.5398634"><ele>133.0</ele><time>2026-04-27T14:37:37.17Z</time></trkpt><trkpt lat="45.4090375" lon="10.5397215"><ele>133.0</ele><time>2026-04-27T14:37:40.172Z</time></trkpt><trkpt lat="45.4090747" lon="10.5393"><ele>133.0</ele><time>2026-04-27T14:37:56.052Z</time></trkpt><trkpt lat="45.4090564" lon="10.5391369"><ele>132.0</ele><time>2026-04-27T14:38:03.709Z</time></trkpt><trkpt lat="45.409015" lon="10.539044"><ele>131.0</ele><time>2026-04-27T14:38:11.395Z</time></trkpt><trkpt lat="45.4088467" lon="10.5393324"><ele>130.0</ele><time>2026-04-27T14:38:28.179Z</time></trkpt><trkpt lat="45.408884" lon="10.5394208"><ele>129.0</ele><time>2026-04-27T14:38:31.177Z</time></trkpt><trkpt lat="45.4088435" lon="10.5392685"><ele>129.0</ele><time>2026-04-27T14:38:37.178Z</time></trkpt><trkpt lat="45.4088583" lon="10.5391467"><ele>129.0</ele><time>2026-04-27T14:39:36.173Z</time></trkpt><trkpt lat="45.4088683" lon="10.539035"><ele>129.0</ele><time>2026-04-27T14:39:40.174Z</time></trkpt><trkpt lat="45.4088067" lon="10.5389283"><ele>129.0</ele><time>2026-04-27T14:39:42.178Z</time></trkpt><trkpt lat="45.4087833" lon="10.5387783"><ele>129.0</ele><time>2026-04-27T14:39:44.181Z</time></trkpt><trkpt lat="45.4087817" lon="10.5386117"><ele>127.0</ele><time>2026-04-27T14:39:46.179Z</time></trkpt><trkpt lat="45.4087817" lon="10.5384633"><ele>125.0</ele><time>2026-04-27T14:39:48.18Z</time></trkpt><trkpt lat="45.408775" lon="10.5383233"><ele>123.0</ele><time>2026-04-27T14:39:50.175Z</time></trkpt><trkpt lat="45.4087683" lon="10.5381833"><ele>121.0</ele><time>2026-04-27T14:39:52.178Z</time></trkpt><trkpt lat="45.4087567" lon="10.5380517"><ele>119.0</ele><time>2026-04-27T14:39:54.175Z</time></trkpt><trkpt lat="45.4087567" lon="10.53794"><ele>118.49999999999999</ele><time>2026-04-27T14:39:56.178Z</time></trkpt><trkpt lat="45.4087633" lon="10.5378417"><ele>118.0</ele><time>2026-04-27T14:39:58.177Z</time></trkpt><trkpt lat="45.4087667" lon="10.5377367"><ele>117.5</ele><time>2026-04-27T14:40:00.181Z</time></trkpt><trkpt lat="45.4087683" lon="10.5376133"><ele>117.0</ele><time>2026-04-27T14:40:02.18Z</time></trkpt><trkpt lat="45.40878" lon="10.53749"><ele>116.49999999999999</ele><time>2026-04-27T14:40:04.18Z</time></trkpt><trkpt lat="45.40879" lon="10.5373583"><ele>116.0</ele><time>2026-04-27T14:40:06.18Z</time></trkpt><trkpt lat="45.40873" lon="10.5372833"><ele>116.0</ele><time>2026-04-27T14:40:08.179Z</time></trkpt><trkpt lat="45.4086417" lon="10.5373"><ele>116.0</ele><time>2026-04-27T14:40:10.174Z</time></trkpt><trkpt lat="45.40855" lon="10.5373467"><ele>116.0</ele><time>2026-04-27T14:40:12.175Z</time></trkpt><trkpt lat="45.4084517" lon="10.5374033"><ele>116.0</ele><time>2026-04-27T14:40:14.174Z</time></trkpt><trkpt lat="45.4083533" lon="10.5374483"><ele>116.0</ele><time>2026-04-27T14:40:16.174Z</time></trkpt><trkpt lat="45.4082583" lon="10.5374983"><ele>115.99999999999999</ele><time>2026-04-27T14:40:18.176Z</time></trkpt><trkpt lat="45.4081683" lon="10.5375467"><ele>116.0</ele><time>2026-04-27T14:40:20.182Z</time></trkpt><trkpt lat="45.4080817" lon="10.537595"><ele>116.0</ele><time>2026-04-27T14:40:22.179Z</time></trkpt><trkpt lat="45.4079983" lon="10.5376367"><ele>116.0</ele><time>2026-04-27T14:40:24.177Z</time></trkpt><trkpt lat="45.4079183" lon="10.5376767"><ele>115.99999999999999</ele><time>2026-04-27T14:40:26.171Z</time></trkpt><trkpt lat="45.4078383" lon="10.5377117"><ele>116.0</ele><time>2026-04-27T14:40:28.182Z</time></trkpt><trkpt lat="45.407765" lon="10.5377467"><ele>115.66666666666666</ele><time>2026-04-27T14:40:30.183Z</time></trkpt><trkpt lat="45.4076933" lon="10.5377917"><ele>115.33333333333333</ele><time>2026-04-27T14:40:32.168Z</time></trkpt><trkpt lat="45.4076133" lon="10.5378167"><ele>115.0</ele><time>2026-04-27T14:40:34.179Z</time></trkpt><trkpt lat="45.407545" lon="10.5377933"><ele>114.66666666666666</ele><time>2026-04-27T14:40:36.178Z</time></trkpt><trkpt lat="45.40751" lon="10.53766"><ele>114.33333333333333</ele><time>2026-04-27T14:40:38.182Z</time></trkpt><trkpt lat="45.407475" lon="10.53753"><ele>114.0</ele><time>2026-04-27T14:40:40.172Z</time></trkpt><trkpt lat="45.4074417" lon="10.5374033"><ele>114.0</ele><time>2026-04-27T14:40:42.175Z</time></trkpt><trkpt lat="45.40741" lon="10.5372733"><ele>114.0</ele><time>2026-04-27T14:40:44.182Z</time></trkpt><trkpt lat="45.407375" lon="10.5371517"><ele>114.0</ele><time>2026-04-27T14:40:46.176Z</time></trkpt><trkpt lat="45.40734" lon="10.5370267"><ele>114.0</ele><time>2026-04-27T14:40:48.177Z</time></trkpt><trkpt lat="45.4073033" lon="10.5369033"><ele>114.0</ele><time>2026-04-27T14:40:50.177Z</time></trkpt><trkpt lat="45.40727" lon="10.536775"><ele>113.80000000000001</ele><time>2026-04-27T14:40:52.175Z</time></trkpt><trkpt lat="45.4072267" lon="10.5366383"><ele>113.60000000000001</ele><time>2026-04-27T14:40:54.172Z</time></trkpt><trkpt lat="45.4071817" lon="10.536505"><ele>113.4</ele><time>2026-04-27T14:40:56.174Z</time></trkpt><trkpt lat="45.4071417" lon="10.5363767"><ele>113.2</ele><time>2026-04-27T14:40:58.176Z</time></trkpt><trkpt lat="45.4070967" lon="10.5362467"><ele>113.0</ele><time>2026-04-27T14:41:00.174Z</time></trkpt><trkpt lat="45.40705" lon="10.5361033"><ele>112.4</ele><time>2026-04-27T14:41:02.173Z</time></trkpt><trkpt lat="45.407015" lon="10.535965"><ele>111.80000000000001</ele><time>2026-04-27T14:41:04.179Z</time></trkpt><trkpt lat="45.40698" lon="10.5358417"><ele>111.2</ele><time>2026-04-27T14:41:06.174Z</time></trkpt><trkpt lat="45.40695" lon="10.53571"><ele>110.6</ele><time>2026-04-27T14:41:08.177Z</time></trkpt><trkpt lat="45.4069183" lon="10.5355917"><ele>110.0</ele><time>2026-04-27T14:41:10.175Z</time></trkpt><trkpt lat="45.40689" lon="10.5354733"><ele>109.99999999999999</ele><time>2026-04-27T14:41:12.172Z</time></trkpt><trkpt lat="45.4068617" lon="10.5353583"><ele>110.0</ele><time>2026-04-27T14:41:14.178Z</time></trkpt><trkpt lat="45.4068283" lon="10.5352367"><ele>110.0</ele><time>2026-04-27T14:41:16.175Z</time></trkpt><trkpt lat="45.4067983" lon="10.535115"><ele>110.0</ele><time>2026-04-27T14:41:18.179Z</time></trkpt><trkpt lat="45.4067683" lon="10.5350083"><ele>109.99999999999999</ele><time>2026-04-27T14:41:20.176Z</time></trkpt><trkpt lat="45.406735" lon="10.53493"><ele>110.0</ele><time>2026-04-27T14:41:22.172Z</time></trkpt><trkpt lat="45.406665" lon="10.5348983"><ele>109.99999999999999</ele><time>2026-04-27T14:41:25.178Z</time></trkpt><trkpt lat="45.4065917" lon="10.53498"><ele>110.0</ele><time>2026-04-27T14:41:28.176Z</time></trkpt><trkpt lat="45.40654" lon="10.5350483"><ele>110.0</ele><time>2026-04-27T14:41:30.166Z</time></trkpt><trkpt lat="45.4064817" lon="10.5351217"><ele>110.0</ele><time>2026-04-27T14:41:32.178Z</time></trkpt><trkpt lat="45.406425" lon="10.5351833"><ele>109.99999999999999</ele><time>2026-04-27T14:41:34.174Z</time></trkpt><trkpt lat="45.4063633" lon="10.535245"><ele>110.0</ele><time>2026-04-27T14:41:36.178Z</time></trkpt><trkpt lat="45.4062933" lon="10.5352917"><ele>110.4</ele><time>2026-04-27T14:41:38.181Z</time></trkpt><trkpt lat="45.4062083" lon="10.535285"><ele>110.8</ele><time>2026-04-27T14:41:40.181Z</time></trkpt><trkpt lat="45.406125" lon="10.5352383"><ele>111.19999999999999</ele><time>2026-04-27T14:41:42.179Z</time></trkpt><trkpt lat="45.4060417" lon="10.5351867"><ele>111.6</ele><time>2026-04-27T14:41:44.176Z</time></trkpt><trkpt lat="45.4059583" lon="10.5351267"><ele>112.0</ele><time>2026-04-27T14:41:46.173Z</time></trkpt><trkpt lat="45.4058767" lon="10.5350633"><ele>112.00000000000001</ele><time>2026-04-27T14:41:48.18Z</time></trkpt><trkpt lat="45.405795" lon="10.53501"><ele>112.0</ele><time>2026-04-27T14:41:50.172Z</time></trkpt><trkpt lat="45.4057133" lon="10.534975"><ele>112.0</ele><time>2026-04-27T14:41:52.172Z</time></trkpt><trkpt lat="45.4056283" lon="10.534975"><ele>112.0</ele><time>2026-04-27T14:41:54.176Z</time></trkpt><trkpt lat="45.40555" lon="10.5349683"><ele>112.00000000000001</ele><time>2026-04-27T14:41:56.175Z</time></trkpt><trkpt lat="45.4054683" lon="10.5349367"><ele>112.0</ele><time>2026-04-27T14:41:58.173Z</time></trkpt><trkpt lat="45.405385" lon="10.5349033"><ele>112.16666666666667</ele><time>2026-04-27T14:42:00.175Z</time></trkpt><trkpt lat="45.4053067" lon="10.53487"><ele>112.33333333333334</ele><time>2026-04-27T14:42:02.172Z</time></trkpt><trkpt lat="45.4052233" lon="10.5348283"><ele>112.5</ele><time>2026-04-27T14:42:04.168Z</time></trkpt><trkpt lat="45.40514" lon="10.5347883"><ele>112.66666666666666</ele><time>2026-04-27T14:42:06.175Z</time></trkpt><trkpt lat="45.4050633" lon="10.534745"><ele>112.83333333333333</ele><time>2026-04-27T14:42:08.202Z</time></trkpt><trkpt lat="45.40499" lon="10.53471"><ele>113.0</ele><time>2026-04-27T14:42:10.174Z</time></trkpt><trkpt lat="45.4049167" lon="10.5346667"><ele>112.99999999999999</ele><time>2026-04-27T14:42:12.177Z</time></trkpt><trkpt lat="45.40484" lon="10.5346367"><ele>113.0</ele><time>2026-04-27T14:42:14.171Z</time></trkpt><trkpt lat="45.404765" lon="10.5346233"><ele>113.0</ele><time>2026-04-27T14:42:16.178Z</time></trkpt><trkpt lat="45.40469" lon="10.53459"><ele>113.0</ele><time>2026-04-27T14:42:18.175Z</time></trkpt><trkpt lat="45.404615" lon="10.5345683"><ele>112.99999999999999</ele><time>2026-04-27T14:42:20.181Z</time></trkpt><trkpt lat="45.4045317" lon="10.53454"><ele>113.0</ele><time>2026-04-27T14:42:22.175Z</time></trkpt><trkpt lat="45.4044517" lon="10.5345083"><ele>113.83333333333333</ele><time>2026-04-27T14:42:24.173Z</time></trkpt><trkpt lat="45.4043667" lon="10.534475"><ele>114.66666666666666</ele><time>2026-04-27T14:42:26.179Z</time></trkpt><trkpt lat="45.4042783" lon="10.53444"><ele>115.5</ele><time>2026-04-27T14:42:28.172Z</time></trkpt><trkpt lat="45.4041967" lon="10.5344033"><ele>116.33333333333334</ele><time>2026-04-27T14:42:30.18Z</time></trkpt><trkpt lat="45.40412" lon="10.53436"><ele>117.16666666666667</ele><time>2026-04-27T14:42:32.174Z</time></trkpt><trkpt lat="45.404045" lon="10.5343167"><ele>118.0</ele><time>2026-04-27T14:42:34.177Z</time></trkpt><trkpt lat="45.40396" lon="10.5342683"><ele>118.00000000000001</ele><time>2026-04-27T14:42:36.178Z</time></trkpt><trkpt lat="45.4038833" lon="10.534235"><ele>118.0</ele><time>2026-04-27T14:42:38.185Z</time></trkpt><trkpt lat="45.4038067" lon="10.53421"><ele>118.0</ele><time>2026-04-27T14:42:40.173Z</time></trkpt><trkpt lat="45.40373" lon="10.5341733"><ele>118.0</ele><time>2026-04-27T14:42:42.188Z</time></trkpt><trkpt lat="45.4036583" lon="10.5341417"><ele>118.00000000000001</ele><time>2026-04-27T14:42:44.179Z</time></trkpt><trkpt lat="45.4035867" lon="10.5341033"><ele>118.0</ele><time>2026-04-27T14:42:46.182Z</time></trkpt><trkpt lat="45.4035217" lon="10.5340833"><ele>118.50000000000001</ele><time>2026-04-27T14:42:48.18Z</time></trkpt><trkpt lat="45.4034783" lon="10.53418"><ele>119.0</ele><time>2026-04-27T14:42:52.177Z</time></trkpt><trkpt lat="45.40346" lon="10.5343017"><ele>119.5</ele><time>2026-04-27T14:42:55.178Z</time></trkpt><trkpt lat="45.4034267" lon="10.5344217"><ele>120.0</ele><time>2026-04-27T14:42:58.174Z</time></trkpt><trkpt lat="45.4034033" lon="10.5345067"><ele>120.50000000000001</ele><time>2026-04-27T14:43:00.175Z</time></trkpt><trkpt lat="45.4033683" lon="10.5346333"><ele>121.0</ele><time>2026-04-27T14:43:03.169Z</time></trkpt><trkpt lat="45.4033383" lon="10.5347217"><ele>121.00000000000001</ele><time>2026-04-27T14:43:05.178Z</time></trkpt><trkpt lat="45.40331" lon="10.5348183"><ele>121.0</ele><time>2026-04-27T14:43:07.172Z</time></trkpt><trkpt lat="45.4032867" lon="10.5349033"><ele>121.0</ele><time>2026-04-27T14:43:09.179Z</time></trkpt><trkpt lat="45.40324" lon="10.5350033"><ele>121.0</ele><time>2026-04-27T14:43:12.173Z</time></trkpt><trkpt lat="45.4031417" lon="10.53499"><ele>121.00000000000001</ele><time>2026-04-27T14:43:15.177Z</time></trkpt><trkpt lat="45.4030583" lon="10.5349717"><ele>121.0</ele><time>2026-04-27T14:43:17.171Z</time></trkpt><trkpt lat="45.4029567" lon="10.53495"><ele>120.50000000000001</ele><time>2026-04-27T14:43:19.176Z</time></trkpt><trkpt lat="45.4028417" lon="10.53492"><ele>120.0</ele><time>2026-04-27T14:43:21.174Z</time></trkpt><trkpt lat="45.4027783" lon="10.534885"><ele>119.5</ele><time>2026-04-27T14:43:22.189Z</time></trkpt><trkpt lat="45.4027183" lon="10.5348517"><ele>119.0</ele><time>2026-04-27T14:43:23.175Z</time></trkpt><trkpt lat="45.402615" lon="10.5348317"><ele>118.50000000000001</ele><time>2026-04-27T14:43:25.171Z</time></trkpt><trkpt lat="45.4025483" lon="10.5348833"><ele>118.0</ele><time>2026-04-27T14:43:27.169Z</time></trkpt><trkpt lat="45.4025183" lon="10.5349933"><ele>118.0</ele><time>2026-04-27T14:43:30.17Z</time></trkpt><trkpt lat="45.4025083" lon="10.5350867"><ele>118.0</ele><time>2026-04-27T14:43:32.177Z</time></trkpt><trkpt lat="45.4024967" lon="10.535175"><ele>118.0</ele><time>2026-04-27T14:43:34.171Z</time></trkpt><trkpt lat="45.40249" lon="10.5352667"><ele>118.0</ele><time>2026-04-27T14:43:36.17Z</time></trkpt><trkpt lat="45.40248" lon="10.5353667"><ele>118.0</ele><time>2026-04-27T14:43:38.171Z</time></trkpt><trkpt lat="45.4024717" lon="10.535475"><ele>118.0</ele><time>2026-04-27T14:43:40.173Z</time></trkpt><trkpt lat="45.4024617" lon="10.5355733"><ele>118.0</ele><time>2026-04-27T14:43:42.183Z</time></trkpt><trkpt lat="45.4024517" lon="10.5356683"><ele>118.16666666666667</ele><time>2026-04-27T14:43:44.174Z</time></trkpt><trkpt lat="45.4024467" lon="10.53576"><ele>118.33333333333334</ele><time>2026-04-27T14:43:46.183Z</time></trkpt><trkpt lat="45.4024283" lon="10.5358833"><ele>118.5</ele><time>2026-04-27T14:43:49.175Z</time></trkpt><trkpt lat="45.4024067" lon="10.5360117"><ele>118.66666666666666</ele><time>2026-04-27T14:43:52.178Z</time></trkpt><trkpt lat="45.4023917" lon="10.5361417"><ele>118.83333333333333</ele><time>2026-04-27T14:43:55.18Z</time></trkpt><trkpt lat="45.4023817" lon="10.53624"><ele>119.0</ele><time>2026-04-27T14:43:57.172Z</time></trkpt><trkpt lat="45.4023733" lon="10.53634"><ele>118.99999999999999</ele><time>2026-04-27T14:43:59.173Z</time></trkpt><trkpt lat="45.4023667" lon="10.536435"><ele>119.0</ele><time>2026-04-27T14:44:01.178Z</time></trkpt><trkpt lat="45.4023667" lon="10.5365283"><ele>119.0</ele><time>2026-04-27T14:44:03.176Z</time></trkpt><trkpt lat="45.402355" lon="10.5366533"><ele>119.0</ele><time>2026-04-27T14:44:05.18Z</time></trkpt><trkpt lat="45.4023467" lon="10.5367717"><ele>118.99999999999999</ele><time>2026-04-27T14:44:07.172Z</time></trkpt><trkpt lat="45.40229" lon="10.536845"><ele>119.0</ele><time>2026-04-27T14:44:10.171Z</time></trkpt><trkpt lat="45.4022267" lon="10.5368"><ele>118.0</ele><time>2026-04-27T14:44:12.179Z</time></trkpt><trkpt lat="45.40213" lon="10.536805"><ele>117.0</ele><time>2026-04-27T14:44:14.179Z</time></trkpt><trkpt lat="45.4020083" lon="10.5368183"><ele>116.0</ele><time>2026-04-27T14:44:16.179Z</time></trkpt><trkpt lat="45.4018833" lon="10.53683"><ele>115.0</ele><time>2026-04-27T14:44:18.174Z</time></trkpt><trkpt lat="45.4017617" lon="10.5368467"><ele>115.0</ele><time>2026-04-27T14:44:20.18Z</time></trkpt><trkpt lat="45.4016433" lon="10.5368567"><ele>115.0</ele><time>2026-04-27T14:44:22.172Z</time></trkpt><trkpt lat="45.4015317" lon="10.5368683"><ele>115.0</ele><time>2026-04-27T14:44:24.176Z</time></trkpt><trkpt lat="45.40143" lon="10.536885"><ele>115.0</ele><time>2026-04-27T14:44:26.179Z</time></trkpt><trkpt lat="45.4013417" lon="10.5368967"><ele>115.0</ele><time>2026-04-27T14:44:28.175Z</time></trkpt><trkpt lat="45.4012533" lon="10.5369017"><ele>115.66666666666667</ele><time>2026-04-27T14:44:30.18Z</time></trkpt><trkpt lat="45.4011783" lon="10.5369083"><ele>116.33333333333334</ele><time>2026-04-27T14:44:32.174Z</time></trkpt><trkpt lat="45.4010967" lon="10.53691"><ele>117.0</ele><time>2026-04-27T14:44:34.177Z</time></trkpt><trkpt lat="45.4010117" lon="10.5369167"><ele>117.66666666666666</ele><time>2026-04-27T14:44:36.173Z</time></trkpt><trkpt lat="45.4009267" lon="10.5369217"><ele>118.33333333333333</ele><time>2026-04-27T14:44:38.169Z</time></trkpt><trkpt lat="45.40084" lon="10.5369217"><ele>119.0</ele><time>2026-04-27T14:44:40.185Z</time></trkpt><trkpt lat="45.400755" lon="10.53693"><ele>118.99999999999999</ele><time>2026-04-27T14:44:42.175Z</time></trkpt><trkpt lat="45.400665" lon="10.5369383"><ele>119.0</ele><time>2026-04-27T14:44:44.183Z</time></trkpt><trkpt lat="45.40058" lon="10.5369433"><ele>119.0</ele><time>2026-04-27T14:44:46.176Z</time></trkpt><trkpt lat="45.4005083" lon="10.5369517"><ele>119.0</ele><time>2026-04-27T14:44:48.181Z</time></trkpt><trkpt lat="45.4004383" lon="10.5369717"><ele>118.99999999999999</ele><time>2026-04-27T14:44:50.172Z</time></trkpt><trkpt lat="45.4003683" lon="10.5369917"><ele>119.0</ele><time>2026-04-27T14:44:52.176Z</time></trkpt><trkpt lat="45.4002767" lon="10.5370083"><ele>119.16666666666666</ele><time>2026-04-27T14:44:55.174Z</time></trkpt><trkpt lat="45.4002017" lon="10.5370183"><ele>119.33333333333333</ele><time>2026-04-27T14:44:57.17Z</time></trkpt><trkpt lat="45.4001233" lon="10.537035"><ele>119.5</ele><time>2026-04-27T14:44:59.172Z</time></trkpt><trkpt lat="45.4000483" lon="10.5370533"><ele>119.66666666666666</ele><time>2026-04-27T14:45:01.183Z</time></trkpt><trkpt lat="45.3999667" lon="10.5370767"><ele>119.83333333333333</ele><time>2026-04-27T14:45:03.178Z</time></trkpt><trkpt lat="45.3998783" lon="10.5371067"><ele>120.0</ele><time>2026-04-27T14:45:05.177Z</time></trkpt><trkpt lat="45.3997917" lon="10.53713"><ele>120.0</ele><time>2026-04-27T14:45:07.178Z</time></trkpt><trkpt lat="45.3997067" lon="10.5371483"><ele>120.0</ele><time>2026-04-27T14:45:09.171Z</time></trkpt><trkpt lat="45.39963" lon="10.5371617"><ele>120.0</ele><time>2026-04-27T14:45:11.173Z</time></trkpt><trkpt lat="45.399565" lon="10.53717"><ele>120.0</ele><time>2026-04-27T14:45:13.176Z</time></trkpt><trkpt lat="45.3994733" lon="10.5371567"><ele>120.0</ele><time>2026-04-27T14:45:16.178Z</time></trkpt><trkpt lat="45.399425" lon="10.5370883"><ele>120.0</ele><time>2026-04-27T14:45:18.169Z</time></trkpt><trkpt lat="45.3994083" lon="10.5369983"><ele>121.14285714285714</ele><time>2026-04-27T14:45:20.173Z</time></trkpt><trkpt lat="45.3994233" lon="10.5369017"><ele>122.28571428571428</ele><time>2026-04-27T14:45:22.185Z</time></trkpt><trkpt lat="45.3994367" lon="10.5368067"><ele>123.42857142857142</ele><time>2026-04-27T14:45:24.172Z</time></trkpt><trkpt lat="45.3994433" lon="10.53671"><ele>124.57142857142857</ele><time>2026-04-27T14:45:26.174Z</time></trkpt><trkpt lat="45.399455" lon="10.536615"><ele>125.7142857142857</ele><time>2026-04-27T14:45:28.175Z</time></trkpt><trkpt lat="45.3994617" lon="10.5365083"><ele>126.85714285714285</ele><time>2026-04-27T14:45:30.174Z</time></trkpt><trkpt lat="45.3994733" lon="10.5364033"><ele>128.0</ele><time>2026-04-27T14:45:32.171Z</time></trkpt><trkpt lat="45.3994833" lon="10.5362917"><ele>128.5</ele><time>2026-04-27T14:45:34.166Z</time></trkpt><trkpt lat="45.3994833" lon="10.536175"><ele>129.0</ele><time>2026-04-27T14:45:36.174Z</time></trkpt><trkpt lat="45.39948" lon="10.536055"><ele>129.5</ele><time>2026-04-27T14:45:38.179Z</time></trkpt><trkpt lat="45.3994833" lon="10.5359283"><ele>130.0</ele><time>2026-04-27T14:45:40.173Z</time></trkpt><trkpt lat="45.3994967" lon="10.5358033"><ele>130.5</ele><time>2026-04-27T14:45:42.173Z</time></trkpt><trkpt lat="45.39951" lon="10.5356817"><ele>131.0</ele><time>2026-04-27T14:45:44.175Z</time></trkpt><trkpt lat="45.3995167" lon="10.5355633"><ele>131.0</ele><time>2026-04-27T14:45:46.182Z</time></trkpt><trkpt lat="45.3995167" lon="10.5354633"><ele>131.0</ele><time>2026-04-27T14:45:48.174Z</time></trkpt><trkpt lat="45.399505" lon="10.5353683"><ele>131.0</ele><time>2026-04-27T14:45:50.179Z</time></trkpt><trkpt lat="45.3994967" lon="10.535265"><ele>131.0</ele><time>2026-04-27T14:45:52.176Z</time></trkpt><trkpt lat="45.3994767" lon="10.5351533"><ele>131.0</ele><time>2026-04-27T14:45:54.176Z</time></trkpt><trkpt lat="45.39946" lon="10.535035"><ele>131.0</ele><time>2026-04-27T14:45:56.171Z</time></trkpt><trkpt lat="45.399435" lon="10.534925"><ele>131.0</ele><time>2026-04-27T14:45:58.179Z</time></trkpt><trkpt lat="45.3994017" lon="10.534825"><ele>131.0</ele><time>2026-04-27T14:46:00.177Z</time></trkpt><trkpt lat="45.399365" lon="10.534725"><ele>131.0</ele><time>2026-04-27T14:46:02.176Z</time></trkpt><trkpt lat="45.3993267" lon="10.5346133"><ele>131.0</ele><time>2026-04-27T14:46:04.173Z</time></trkpt><trkpt lat="45.399275" lon="10.5345133"><ele>131.0</ele><time>2026-04-27T14:46:06.172Z</time></trkpt><trkpt lat="45.39921" lon="10.5344083"><ele>131.0</ele><time>2026-04-27T14:46:08.176Z</time></trkpt><trkpt lat="45.3991317" lon="10.5343"><ele>131.0</ele><time>2026-04-27T14:46:10.174Z</time></trkpt><trkpt lat="45.3990433" lon="10.5342167"><ele>131.0</ele><time>2026-04-27T14:46:12.17Z</time></trkpt><trkpt lat="45.3989517" lon="10.5341367"><ele>131.0</ele><time>2026-04-27T14:46:14.184Z</time></trkpt><trkpt lat="45.3988717" lon="10.5340267"><ele>131.0</ele><time>2026-04-27T14:46:16.173Z</time></trkpt><trkpt lat="45.3988" lon="10.5339067"><ele>131.0</ele><time>2026-04-27T14:46:18.178Z</time></trkpt><trkpt lat="45.398735" lon="10.5337733"><ele>130.4</ele><time>2026-04-27T14:46:20.179Z</time></trkpt><trkpt lat="45.39869" lon="10.53364"><ele>129.8</ele><time>2026-04-27T14:46:22.176Z</time></trkpt><trkpt lat="45.3986583" lon="10.5335067"><ele>129.20000000000002</ele><time>2026-04-27T14:46:24.18Z</time></trkpt><trkpt lat="45.3986333" lon="10.5333883"><ele>128.6</ele><time>2026-04-27T14:46:26.178Z</time></trkpt><trkpt lat="45.3986133" lon="10.5332883"><ele>128.0</ele><time>2026-04-27T14:46:28.179Z</time></trkpt><trkpt lat="45.3985733" lon="10.533175"><ele>127.99999999999999</ele><time>2026-04-27T14:46:31.184Z</time></trkpt><trkpt lat="45.3984967" lon="10.5331283"><ele>128.0</ele><time>2026-04-27T14:46:34.176Z</time></trkpt><trkpt lat="45.398455" lon="10.533235"><ele>128.0</ele><time>2026-04-27T14:46:37.173Z</time></trkpt><trkpt lat="45.3984383" lon="10.5333317"><ele>128.0</ele><time>2026-04-27T14:46:39.176Z</time></trkpt><trkpt lat="45.3984233" lon="10.533425"><ele>127.99999999999999</ele><time>2026-04-27T14:46:41.179Z</time></trkpt><trkpt lat="45.3984117" lon="10.533525"><ele>128.0</ele><time>2026-04-27T14:46:43.173Z</time></trkpt><trkpt lat="45.3983967" lon="10.5336283"><ele>128.5</ele><time>2026-04-27T14:46:45.169Z</time></trkpt><trkpt lat="45.3983767" lon="10.5337567"><ele>129.0</ele><time>2026-04-27T14:46:48.168Z</time></trkpt><trkpt lat="45.3983667" lon="10.533875"><ele>129.5</ele><time>2026-04-27T14:46:51.177Z</time></trkpt><trkpt lat="45.3983467" lon="10.533995"><ele>130.0</ele><time>2026-04-27T14:46:54.168Z</time></trkpt><trkpt lat="45.39834" lon="10.5341067"><ele>130.5</ele><time>2026-04-27T14:46:57.179Z</time></trkpt><trkpt lat="45.3983183" lon="10.534225"><ele>131.0</ele><time>2026-04-27T14:47:00.178Z</time></trkpt><trkpt lat="45.3983" lon="10.5343267"><ele>131.0</ele><time>2026-04-27T14:47:02.173Z</time></trkpt><trkpt lat="45.3982783" lon="10.5344117"><ele>131.0</ele><time>2026-04-27T14:47:04.179Z</time></trkpt><trkpt lat="45.398255" lon="10.534525"><ele>131.0</ele><time>2026-04-27T14:47:07.175Z</time></trkpt><trkpt lat="45.3982417" lon="10.5346167"><ele>131.0</ele><time>2026-04-27T14:47:09.167Z</time></trkpt><trkpt lat="45.3982183" lon="10.53472"><ele>131.0</ele><time>2026-04-27T14:47:11.18Z</time></trkpt><trkpt lat="45.3981917" lon="10.5348383"><ele>131.0</ele><time>2026-04-27T14:47:14.178Z</time></trkpt><trkpt lat="45.3981667" lon="10.5349567"><ele>131.66666666666666</ele><time>2026-04-27T14:47:17.18Z</time></trkpt><trkpt lat="45.398155" lon="10.53508"><ele>132.33333333333331</ele><time>2026-04-27T14:47:20.184Z</time></trkpt><trkpt lat="45.39814" lon="10.5351767"><ele>133.0</ele><time>2026-04-27T14:47:22.177Z</time></trkpt><trkpt lat="45.3981117" lon="10.535315"><ele>133.66666666666666</ele><time>2026-04-27T14:47:25.178Z</time></trkpt><trkpt lat="45.39809" lon="10.5354183"><ele>134.33333333333334</ele><time>2026-04-27T14:47:27.176Z</time></trkpt><trkpt lat="45.39807" lon="10.535525"><ele>135.0</ele><time>2026-04-27T14:47:29.174Z</time></trkpt><trkpt lat="45.39805" lon="10.5356517"><ele>135.2</ele><time>2026-04-27T14:47:32.18Z</time></trkpt><trkpt lat="45.3980067" lon="10.5357283"><ele>135.4</ele><time>2026-04-27T14:47:34.178Z</time></trkpt><trkpt lat="45.3979517" lon="10.535815"><ele>135.6</ele><time>2026-04-27T14:47:36.176Z</time></trkpt><trkpt lat="45.3978783" lon="10.5359317"><ele>135.8</ele><time>2026-04-27T14:47:38.179Z</time></trkpt><trkpt lat="45.3978" lon="10.5360583"><ele>136.0</ele><time>2026-04-27T14:47:40.177Z</time></trkpt><trkpt lat="45.3977233" lon="10.5361917"><ele>136.8</ele><time>2026-04-27T14:47:42.18Z</time></trkpt><trkpt lat="45.3976567" lon="10.5363"><ele>137.6</ele><time>2026-04-27T14:47:44.18Z</time></trkpt><trkpt lat="45.3975867" lon="10.536395"><ele>138.4</ele><time>2026-04-27T14:47:46.172Z</time></trkpt><trkpt lat="45.397525" lon="10.5365317"><ele>139.2</ele><time>2026-04-27T14:47:48.179Z</time></trkpt><trkpt lat="45.3974517" lon="10.53661"><ele>140.0</ele><time>2026-04-27T14:47:50.182Z</time></trkpt><trkpt lat="45.3973583" lon="10.5366833"><ele>140.0</ele><time>2026-04-27T14:47:52.172Z</time></trkpt><trkpt lat="45.39724" lon="10.5367633"><ele>140.0</ele><time>2026-04-27T14:47:54.178Z</time></trkpt><trkpt lat="45.3971567" lon="10.5368083"><ele>140.0</ele><time>2026-04-27T14:47:55.173Z</time></trkpt><trkpt lat="45.39708" lon="10.5368467"><ele>140.0</ele><time>2026-04-27T14:47:56.175Z</time></trkpt><trkpt lat="45.3970083" lon="10.5368817"><ele>140.0</ele><time>2026-04-27T14:47:57.178Z</time></trkpt><trkpt lat="45.3969317" lon="10.5369233"><ele>138.5</ele><time>2026-04-27T14:47:58.172Z</time></trkpt><trkpt lat="45.3968483" lon="10.5369633"><ele>137.0</ele><time>2026-04-27T14:47:59.174Z</time></trkpt><trkpt lat="45.396765" lon="10.537005"><ele>135.5</ele><time>2026-04-27T14:48:00.174Z</time></trkpt><trkpt lat="45.3966833" lon="10.5370367"><ele>134.0</ele><time>2026-04-27T14:48:01.174Z</time></trkpt><trkpt lat="45.3966067" lon="10.5370633"><ele>132.5</ele><time>2026-04-27T14:48:02.175Z</time></trkpt><trkpt lat="45.3965217" lon="10.537085"><ele>131.0</ele><time>2026-04-27T14:48:03.176Z</time></trkpt><trkpt lat="45.39644" lon="10.5370917"><ele>131.0</ele><time>2026-04-27T14:48:04.174Z</time></trkpt><trkpt lat="45.3963683" lon="10.5370717"><ele>131.0</ele><time>2026-04-27T14:48:05.175Z</time></trkpt><trkpt lat="45.3962967" lon="10.5370417"><ele>131.0</ele><time>2026-04-27T14:48:06.178Z</time></trkpt><trkpt lat="45.3962333" lon="10.537"><ele>131.0</ele><time>2026-04-27T14:48:07.18Z</time></trkpt><trkpt lat="45.3961683" lon="10.5369517"><ele>131.0</ele><time>2026-04-27T14:48:08.184Z</time></trkpt><trkpt lat="45.3961067" lon="10.5369033"><ele>131.0</ele><time>2026-04-27T14:48:09.173Z</time></trkpt><trkpt lat="45.3960433" lon="10.5368533"><ele>131.0</ele><time>2026-04-27T14:48:10.178Z</time></trkpt><trkpt lat="45.395975" lon="10.5367983"><ele>130.85714285714286</ele><time>2026-04-27T14:48:11.172Z</time></trkpt><trkpt lat="45.39591" lon="10.5367417"><ele>130.71428571428572</ele><time>2026-04-27T14:48:12.18Z</time></trkpt><trkpt lat="45.3958433" lon="10.5366883"><ele>130.57142857142858</ele><time>2026-04-27T14:48:13.178Z</time></trkpt><trkpt lat="45.3957783" lon="10.5366333"><ele>130.42857142857144</ele><time>2026-04-27T14:48:14.173Z</time></trkpt><trkpt lat="45.3957133" lon="10.5365817"><ele>130.28571428571428</ele><time>2026-04-27T14:48:15.172Z</time></trkpt><trkpt lat="45.3956533" lon="10.536535"><ele>130.14285714285717</ele><time>2026-04-27T14:48:16.175Z</time></trkpt><trkpt lat="45.395595" lon="10.5364833"><ele>130.0</ele><time>2026-04-27T14:48:17.177Z</time></trkpt><trkpt lat="45.39554" lon="10.5364283"><ele>130.6</ele><time>2026-04-27T14:48:18.178Z</time></trkpt><trkpt lat="45.3954433" lon="10.5363367"><ele>131.2</ele><time>2026-04-27T14:48:20.18Z</time></trkpt><trkpt lat="45.39535" lon="10.5363117"><ele>131.8</ele><time>2026-04-27T14:48:22.177Z</time></trkpt><trkpt lat="45.3952417" lon="10.53635"><ele>132.4</ele><time>2026-04-27T14:48:24.176Z</time></trkpt><trkpt lat="45.3951383" lon="10.5364083"><ele>133.0</ele><time>2026-04-27T14:48:26.179Z</time></trkpt><trkpt lat="45.39504" lon="10.5364617"><ele>133.0</ele><time>2026-04-27T14:48:28.177Z</time></trkpt><trkpt lat="45.3949483" lon="10.5365267"><ele>133.0</ele><time>2026-04-27T14:48:30.178Z</time></trkpt><trkpt lat="45.3948533" lon="10.5365867"><ele>133.0</ele><time>2026-04-27T14:48:32.176Z</time></trkpt><trkpt lat="45.3947667" lon="10.53665"><ele>133.0</ele><time>2026-04-27T14:48:34.179Z</time></trkpt><trkpt lat="45.394675" lon="10.536705"><ele>133.0</ele><time>2026-04-27T14:48:36.173Z</time></trkpt><trkpt lat="45.3945783" lon="10.5367583"><ele>132.8</ele><time>2026-04-27T14:48:38.188Z</time></trkpt><trkpt lat="45.39449" lon="10.5368083"><ele>132.60000000000002</ele><time>2026-04-27T14:48:40.176Z</time></trkpt><trkpt lat="45.3944033" lon="10.5368567"><ele>132.39999999999998</ele><time>2026-04-27T14:48:42.178Z</time></trkpt><trkpt lat="45.3943133" lon="10.5369167"><ele>132.2</ele><time>2026-04-27T14:48:44.191Z</time></trkpt><trkpt lat="45.3942217" lon="10.53698"><ele>132.0</ele><time>2026-04-27T14:48:46.18Z</time></trkpt><trkpt lat="45.3941333" lon="10.5370533"><ele>132.2</ele><time>2026-04-27T14:48:48.173Z</time></trkpt><trkpt lat="45.3940483" lon="10.5371367"><ele>132.39999999999998</ele><time>2026-04-27T14:48:50.179Z</time></trkpt><trkpt lat="45.3939667" lon="10.53723"><ele>132.60000000000002</ele><time>2026-04-27T14:48:52.168Z</time></trkpt><trkpt lat="45.3938833" lon="10.53733"><ele>132.8</ele><time>2026-04-27T14:48:54.163Z</time></trkpt><trkpt lat="45.3937933" lon="10.5374333"><ele>133.0</ele><time>2026-04-27T14:48:56.168Z</time></trkpt><trkpt lat="45.3936967" lon="10.53754"><ele>133.0</ele><time>2026-04-27T14:48:58.168Z</time></trkpt><trkpt lat="45.393645" lon="10.5375917"><ele>133.0</ele><time>2026-04-27T14:48:59.168Z</time></trkpt><trkpt lat="45.3935517" lon="10.53769"><ele>133.0</ele><time>2026-04-27T14:49:01.17Z</time></trkpt><trkpt lat="45.3934533" lon="10.5377933"><ele>133.0</ele><time>2026-04-27T14:49:03.176Z</time></trkpt><trkpt lat="45.3933633" lon="10.5379"><ele>133.0</ele><time>2026-04-27T14:49:05.181Z</time></trkpt><trkpt lat="45.3932783" lon="10.5380033"><ele>133.20000000000002</ele><time>2026-04-27T14:49:07.171Z</time></trkpt><trkpt lat="45.3931917" lon="10.5381083"><ele>133.4</ele><time>2026-04-27T14:49:09.178Z</time></trkpt><trkpt lat="45.3931183" lon="10.53822"><ele>133.60000000000002</ele><time>2026-04-27T14:49:11.182Z</time></trkpt><trkpt lat="45.3930517" lon="10.53832"><ele>133.8</ele><time>2026-04-27T14:49:13.174Z</time></trkpt><trkpt lat="45.392985" lon="10.53843"><ele>134.0</ele><time>2026-04-27T14:49:15.171Z</time></trkpt><trkpt lat="45.392905" lon="10.5385017"><ele>134.16666666666666</ele><time>2026-04-27T14:49:17.182Z</time></trkpt><trkpt lat="45.3928333" lon="10.5385317"><ele>134.33333333333331</ele><time>2026-04-27T14:49:19.172Z</time></trkpt><trkpt lat="45.3927517" lon="10.5385417"><ele>134.5</ele><time>2026-04-27T14:49:21.166Z</time></trkpt><trkpt lat="45.392665" lon="10.5385417"><ele>134.66666666666666</ele><time>2026-04-27T14:49:23.174Z</time></trkpt><trkpt lat="45.3925717" lon="10.53855"><ele>134.83333333333334</ele><time>2026-04-27T14:49:25.177Z</time></trkpt><trkpt lat="45.3924783" lon="10.5385517"><ele>135.0</ele><time>2026-04-27T14:49:27.171Z</time></trkpt><trkpt lat="45.3923967" lon="10.5385383"><ele>135.0</ele><time>2026-04-27T14:49:29.174Z</time></trkpt><trkpt lat="45.3923217" lon="10.5385183"><ele>135.0</ele><time>2026-04-27T14:49:30.173Z</time></trkpt><trkpt lat="45.3922517" lon="10.5385167"><ele>135.0</ele><time>2026-04-27T14:49:32.171Z</time></trkpt><trkpt lat="45.39217" lon="10.5384967"><ele>135.0</ele><time>2026-04-27T14:49:34.189Z</time></trkpt><trkpt lat="45.3920783" lon="10.5384833"><ele>135.0</ele><time>2026-04-27T14:49:36.177Z</time></trkpt><trkpt lat="45.391985" lon="10.538445"><ele>135.0</ele><time>2026-04-27T14:49:38.177Z</time></trkpt><trkpt lat="45.3918833" lon="10.5383983"><ele>134.4</ele><time>2026-04-27T14:49:40.171Z</time></trkpt><trkpt lat="45.3917783" lon="10.5383367"><ele>133.8</ele><time>2026-04-27T14:49:42.177Z</time></trkpt><trkpt lat="45.3916767" lon="10.53825"><ele>133.2</ele><time>2026-04-27T14:49:44.176Z</time></trkpt><trkpt lat="45.3915817" lon="10.538175"><ele>132.6</ele><time>2026-04-27T14:49:46.183Z</time></trkpt><trkpt lat="45.3914967" lon="10.5381017"><ele>132.0</ele><time>2026-04-27T14:49:48.188Z</time></trkpt><trkpt lat="45.3914167" lon="10.5380283"><ele>132.0</ele><time>2026-04-27T14:49:50.178Z</time></trkpt><trkpt lat="45.3913233" lon="10.5379633"><ele>132.0</ele><time>2026-04-27T14:49:52.185Z</time></trkpt><trkpt lat="45.39123" lon="10.5379217"><ele>132.0</ele><time>2026-04-27T14:49:54.18Z</time></trkpt><trkpt lat="45.3911183" lon="10.537875"><ele>132.0</ele><time>2026-04-27T14:49:56.173Z</time></trkpt><trkpt lat="45.3910583" lon="10.5378383"><ele>132.0</ele><time>2026-04-27T14:49:57.171Z</time></trkpt><trkpt lat="45.3909983" lon="10.537805"><ele>132.0</ele><time>2026-04-27T14:49:58.174Z</time></trkpt><trkpt lat="45.3909383" lon="10.5377667"><ele>131.66666666666666</ele><time>2026-04-27T14:49:59.171Z</time></trkpt><trkpt lat="45.3908367" lon="10.5376717"><ele>131.33333333333334</ele><time>2026-04-27T14:50:01.179Z</time></trkpt><trkpt lat="45.390785" lon="10.5376067"><ele>131.0</ele><time>2026-04-27T14:50:02.179Z</time></trkpt><trkpt lat="45.3907383" lon="10.5375383"><ele>130.66666666666669</ele><time>2026-04-27T14:50:03.179Z</time></trkpt><trkpt lat="45.3906867" lon="10.5374533"><ele>130.33333333333334</ele><time>2026-04-27T14:50:04.176Z</time></trkpt><trkpt lat="45.3906367" lon="10.53737"><ele>130.0</ele><time>2026-04-27T14:50:05.167Z</time></trkpt><trkpt lat="45.3905867" lon="10.5372783"><ele>130.0</ele><time>2026-04-27T14:50:06.19Z</time></trkpt><trkpt lat="45.3905383" lon="10.5371933"><ele>130.0</ele><time>2026-04-27T14:50:07.183Z</time></trkpt><trkpt lat="45.3904883" lon="10.5371317"><ele>130.0</ele><time>2026-04-27T14:50:08.177Z</time></trkpt><trkpt lat="45.3904367" lon="10.53708"><ele>130.0</ele><time>2026-04-27T14:50:09.174Z</time></trkpt><trkpt lat="45.39032" lon="10.5370483"><ele>130.0</ele><time>2026-04-27T14:50:11.182Z</time></trkpt><trkpt lat="45.3902367" lon="10.5371033"><ele>130.0</ele><time>2026-04-27T14:50:13.186Z</time></trkpt><trkpt lat="45.3901633" lon="10.5371583"><ele>130.8</ele><time>2026-04-27T14:50:15.173Z</time></trkpt><trkpt lat="45.39008" lon="10.5371933"><ele>131.6</ele><time>2026-04-27T14:50:18.184Z</time></trkpt><trkpt lat="45.3899983" lon="10.53715"><ele>132.4</ele><time>2026-04-27T14:50:21.177Z</time></trkpt><trkpt lat="45.3899217" lon="10.5371533"><ele>133.2</ele><time>2026-04-27T14:50:24.17Z</time></trkpt><trkpt lat="45.38984" lon="10.53725"><ele>134.0</ele><time>2026-04-27T14:50:27.166Z</time></trkpt><trkpt lat="45.3897617" lon="10.53733"><ele>134.0</ele><time>2026-04-27T14:50:29.174Z</time></trkpt><trkpt lat="45.3896683" lon="10.537445"><ele>134.0</ele><time>2026-04-27T14:50:31.17Z</time></trkpt><trkpt lat="45.3895817" lon="10.5375317"><ele>134.0</ele><time>2026-04-27T14:50:33.18Z</time></trkpt><trkpt lat="45.3894967" lon="10.5376133"><ele>134.0</ele><time>2026-04-27T14:50:35.18Z</time></trkpt><trkpt lat="45.3894117" lon="10.5376683"><ele>134.0</ele><time>2026-04-27T14:50:37.173Z</time></trkpt><trkpt lat="45.3893367" lon="10.5377567"><ele>134.0</ele><time>2026-04-27T14:50:39.179Z</time></trkpt><trkpt lat="45.3892883" lon="10.5378483"><ele>134.0</ele><time>2026-04-27T14:50:41.173Z</time></trkpt><trkpt lat="45.3892517" lon="10.5379667"><ele>134.0</ele><time>2026-04-27T14:50:43.18Z</time></trkpt><trkpt lat="45.3892033" lon="10.5380833"><ele>134.0</ele><time>2026-04-27T14:50:45.174Z</time></trkpt><trkpt lat="45.3891467" lon="10.5381917"><ele>134.0</ele><time>2026-04-27T14:50:47.188Z</time></trkpt><trkpt lat="45.3890933" lon="10.53831"><ele>135.16666666666666</ele><time>2026-04-27T14:50:49.169Z</time></trkpt><trkpt lat="45.3890417" lon="10.5384383"><ele>136.33333333333331</ele><time>2026-04-27T14:50:51.178Z</time></trkpt><trkpt lat="45.389025" lon="10.538535"><ele>137.5</ele><time>2026-04-27T14:50:52.175Z</time></trkpt><trkpt lat="45.38897" lon="10.5386217"><ele>138.66666666666666</ele><time>2026-04-27T14:50:54.19Z</time></trkpt><trkpt lat="45.388955" lon="10.5387417"><ele>139.83333333333334</ele><time>2026-04-27T14:50:56.172Z</time></trkpt><trkpt lat="45.388945" lon="10.5388533"><ele>141.0</ele><time>2026-04-27T14:50:58.173Z</time></trkpt><trkpt lat="45.388955" lon="10.538975"><ele>141.28571428571428</ele><time>2026-04-27T14:51:00.172Z</time></trkpt><trkpt lat="45.38897" lon="10.539075"><ele>141.57142857142856</ele><time>2026-04-27T14:51:02.18Z</time></trkpt><trkpt lat="45.38898" lon="10.5391817"><ele>141.85714285714283</ele><time>2026-04-27T14:51:04.176Z</time></trkpt><trkpt lat="45.3889933" lon="10.539275"><ele>142.14285714285714</ele><time>2026-04-27T14:51:06.175Z</time></trkpt><trkpt lat="45.3890017" lon="10.5393683"><ele>142.42857142857142</ele><time>2026-04-27T14:51:08.169Z</time></trkpt><trkpt lat="45.389005" lon="10.5394667"><ele>142.7142857142857</ele><time>2026-04-27T14:51:10.175Z</time></trkpt><trkpt lat="45.38901" lon="10.539565"><ele>143.0</ele><time>2026-04-27T14:51:12.169Z</time></trkpt><trkpt lat="45.3890233" lon="10.5396617"><ele>143.66666666666666</ele><time>2026-04-27T14:51:14.178Z</time></trkpt><trkpt lat="45.389045" lon="10.5397583"><ele>144.33333333333331</ele><time>2026-04-27T14:51:16.176Z</time></trkpt><trkpt lat="45.3890767" lon="10.5398517"><ele>145.0</ele><time>2026-04-27T14:51:18.18Z</time></trkpt><trkpt lat="45.3890967" lon="10.5399433"><ele>145.66666666666666</ele><time>2026-04-27T14:51:20.179Z</time></trkpt><trkpt lat="45.3891267" lon="10.540055"><ele>146.33333333333334</ele><time>2026-04-27T14:51:23.178Z</time></trkpt><trkpt lat="45.389155" lon="10.5401817"><ele>147.0</ele><time>2026-04-27T14:51:26.176Z</time></trkpt><trkpt lat="45.389165" lon="10.5402767"><ele>147.14285714285714</ele><time>2026-04-27T14:51:28.172Z</time></trkpt><trkpt lat="45.3891633" lon="10.5403833"><ele>147.28571428571428</ele><time>2026-04-27T14:51:31.182Z</time></trkpt><trkpt lat="45.38914" lon="10.5404917"><ele>147.42857142857144</ele><time>2026-04-27T14:51:35.184Z</time></trkpt><trkpt lat="45.3891183" lon="10.5405767"><ele>147.57142857142856</ele><time>2026-04-27T14:51:38.176Z</time></trkpt><trkpt lat="45.38909" lon="10.54068"><ele>147.71428571428572</ele><time>2026-04-27T14:51:40.176Z</time></trkpt><trkpt lat="45.3890683" lon="10.5407767"><ele>147.85714285714286</ele><time>2026-04-27T14:51:42.177Z</time></trkpt><trkpt lat="45.3890467" lon="10.5408833"><ele>148.0</ele><time>2026-04-27T14:51:44.166Z</time></trkpt><trkpt lat="45.38903" lon="10.5409867"><ele>148.0</ele><time>2026-04-27T14:51:46.172Z</time></trkpt><trkpt lat="45.3890083" lon="10.5411133"><ele>148.0</ele><time>2026-04-27T14:51:48.191Z</time></trkpt><trkpt lat="45.38899" lon="10.5412433"><ele>148.0</ele><time>2026-04-27T14:51:50.171Z</time></trkpt><trkpt lat="45.3889783" lon="10.5413467"><ele>148.0</ele><time>2026-04-27T14:51:52.171Z</time></trkpt><trkpt lat="45.38897" lon="10.54146"><ele>148.0</ele><time>2026-04-27T14:51:55.176Z</time></trkpt><trkpt lat="45.3889583" lon="10.54158"><ele>148.0</ele><time>2026-04-27T14:51:58.165Z</time></trkpt><trkpt lat="45.3889417" lon="10.5416917"><ele>147.85714285714286</ele><time>2026-04-27T14:52:01.169Z</time></trkpt><trkpt lat="45.3889367" lon="10.5418083"><ele>147.71428571428572</ele><time>2026-04-27T14:52:04.186Z</time></trkpt><trkpt lat="45.3889433" lon="10.541905"><ele>147.57142857142856</ele><time>2026-04-27T14:52:08.18Z</time></trkpt><trkpt lat="45.38892" lon="10.5420267"><ele>147.42857142857144</ele><time>2026-04-27T14:52:12.179Z</time></trkpt><trkpt lat="45.388885" lon="10.5421233"><ele>147.28571428571428</ele><time>2026-04-27T14:52:15.178Z</time></trkpt><trkpt lat="45.388855" lon="10.5422033"><ele>147.14285714285714</ele><time>2026-04-27T14:52:17.174Z</time></trkpt><trkpt lat="45.38882" lon="10.5422867"><ele>147.0</ele><time>2026-04-27T14:52:19.173Z</time></trkpt><trkpt lat="45.3887467" lon="10.5423667"><ele>147.14285714285714</ele><time>2026-04-27T14:52:22.171Z</time></trkpt><trkpt lat="45.3886967" lon="10.54246"><ele>147.28571428571428</ele><time>2026-04-27T14:52:24.182Z</time></trkpt><trkpt lat="45.38865" lon="10.5425267"><ele>147.42857142857144</ele><time>2026-04-27T14:52:26.182Z</time></trkpt><trkpt lat="45.3885883" lon="10.542595"><ele>147.57142857142856</ele><time>2026-04-27T14:52:29.176Z</time></trkpt><trkpt lat="45.3885533" lon="10.5426717"><ele>147.71428571428572</ele><time>2026-04-27T14:52:32.178Z</time></trkpt><trkpt lat="45.3885117" lon="10.5427517"><ele>147.85714285714286</ele><time>2026-04-27T14:52:35.174Z</time></trkpt><trkpt lat="45.3884583" lon="10.5428517"><ele>148.0</ele><time>2026-04-27T14:52:38.171Z</time></trkpt><trkpt lat="45.38842" lon="10.5429267"><ele>148.0</ele><time>2026-04-27T14:52:40.172Z</time></trkpt><trkpt lat="45.388365" lon="10.542995"><ele>148.0</ele><time>2026-04-27T14:52:43.182Z</time></trkpt><trkpt lat="45.388315" lon="10.5430567"><ele>148.0</ele><time>2026-04-27T14:52:46.172Z</time></trkpt><trkpt lat="45.38826" lon="10.5431117"><ele>148.0</ele><time>2026-04-27T14:52:48.18Z</time></trkpt><trkpt lat="45.3881883" lon="10.5431683"><ele>148.0</ele><time>2026-04-27T14:52:50.178Z</time></trkpt><trkpt lat="45.3881033" lon="10.5432233"><ele>148.0</ele><time>2026-04-27T14:52:52.179Z</time></trkpt><trkpt lat="45.3880217" lon="10.54338"><ele>146.33333333333334</ele><time>2026-04-27T14:52:54.194Z</time></trkpt><trkpt lat="45.3879533" lon="10.5434383"><ele>144.66666666666669</ele><time>2026-04-27T14:52:56.184Z</time></trkpt><trkpt lat="45.3878717" lon="10.54352"><ele>143.0</ele><time>2026-04-27T14:52:58.174Z</time></trkpt><trkpt lat="45.38782" lon="10.5435717"><ele>141.33333333333334</ele><time>2026-04-27T14:52:59.173Z</time></trkpt><trkpt lat="45.3877617" lon="10.54363"><ele>139.66666666666666</ele><time>2026-04-27T14:53:00.18Z</time></trkpt><trkpt lat="45.3876683" lon="10.5437033"><ele>138.0</ele><time>2026-04-27T14:53:02.172Z</time></trkpt><trkpt lat="45.3875533" lon="10.5438217"><ele>136.5</ele><time>2026-04-27T14:53:04.179Z</time></trkpt><trkpt lat="45.3874883" lon="10.5439"><ele>135.0</ele><time>2026-04-27T14:53:05.176Z</time></trkpt><trkpt lat="45.3874283" lon="10.5439733"><ele>133.5</ele><time>2026-04-27T14:53:06.175Z</time></trkpt><trkpt lat="45.38737" lon="10.5440417"><ele>132.0</ele><time>2026-04-27T14:53:07.175Z</time></trkpt><trkpt lat="45.387305" lon="10.544115"><ele>130.5</ele><time>2026-04-27T14:53:08.184Z</time></trkpt><trkpt lat="45.3872333" lon="10.544175"><ele>129.0</ele><time>2026-04-27T14:53:09.175Z</time></trkpt><trkpt lat="45.38716" lon="10.5442283"><ele>128.33333333333334</ele><time>2026-04-27T14:53:10.174Z</time></trkpt><trkpt lat="45.3870883" lon="10.54428"><ele>127.66666666666666</ele><time>2026-04-27T14:53:11.18Z</time></trkpt><trkpt lat="45.3870233" lon="10.5443283"><ele>127.0</ele><time>2026-04-27T14:53:12.179Z</time></trkpt><trkpt lat="45.386945" lon="10.544405"><ele>126.33333333333333</ele><time>2026-04-27T14:53:13.175Z</time></trkpt><trkpt lat="45.3868883" lon="10.5444517"><ele>125.66666666666666</ele><time>2026-04-27T14:53:14.179Z</time></trkpt><trkpt lat="45.38678" lon="10.5445267"><ele>125.0</ele><time>2026-04-27T14:53:16.177Z</time></trkpt><trkpt lat="45.3866467" lon="10.544585"><ele>124.49999999999999</ele><time>2026-04-27T14:53:18.173Z</time></trkpt><trkpt lat="45.3865783" lon="10.54463"><ele>124.0</ele><time>2026-04-27T14:53:19.175Z</time></trkpt><trkpt lat="45.38652" lon="10.54467"><ele>123.5</ele><time>2026-04-27T14:53:20.182Z</time></trkpt><trkpt lat="45.3864283" lon="10.5447717"><ele>123.0</ele><time>2026-04-27T14:53:22.173Z</time></trkpt><trkpt lat="45.3863517" lon="10.544765"><ele>122.49999999999999</ele><time>2026-04-27T14:53:25.173Z</time></trkpt><trkpt lat="45.3862983" lon="10.5447017"><ele>122.0</ele><time>2026-04-27T14:53:27.18Z</time></trkpt><trkpt lat="45.3862333" lon="10.5446267"><ele>121.19999999999999</ele><time>2026-04-27T14:53:29.181Z</time></trkpt><trkpt lat="45.38617" lon="10.5445317"><ele>120.39999999999999</ele><time>2026-04-27T14:53:31.191Z</time></trkpt><trkpt lat="45.386115" lon="10.5444083"><ele>119.60000000000001</ele><time>2026-04-27T14:53:33.174Z</time></trkpt><trkpt lat="45.3860917" lon="10.54426"><ele>118.80000000000001</ele><time>2026-04-27T14:53:35.171Z</time></trkpt><trkpt lat="45.386105" lon="10.5441133"><ele>118.0</ele><time>2026-04-27T14:53:37.181Z</time></trkpt><trkpt lat="45.3861367" lon="10.5439633"><ele>118.0</ele><time>2026-04-27T14:53:39.183Z</time></trkpt><trkpt lat="45.3861783" lon="10.5438333"><ele>118.00000000000001</ele><time>2026-04-27T14:53:41.184Z</time></trkpt><trkpt lat="45.38623" lon="10.5437017"><ele>118.00000000000001</ele><time>2026-04-27T14:53:43.177Z</time></trkpt><trkpt lat="45.3862783" lon="10.5435717"><ele>118.0</ele><time>2026-04-27T14:53:45.172Z</time></trkpt><trkpt lat="45.3863183" lon="10.543435"><ele>118.0</ele><time>2026-04-27T14:53:47.186Z</time></trkpt><trkpt lat="45.3863567" lon="10.5432967"><ele>118.80000000000001</ele><time>2026-04-27T14:53:49.173Z</time></trkpt><trkpt lat="45.3863967" lon="10.54316"><ele>119.60000000000001</ele><time>2026-04-27T14:53:51.179Z</time></trkpt><trkpt lat="45.3864317" lon="10.54302"><ele>120.39999999999999</ele><time>2026-04-27T14:53:53.186Z</time></trkpt><trkpt lat="45.3864633" lon="10.5428767"><ele>121.19999999999999</ele><time>2026-04-27T14:53:55.178Z</time></trkpt><trkpt lat="45.3864967" lon="10.542745"><ele>122.0</ele><time>2026-04-27T14:53:57.174Z</time></trkpt><trkpt lat="45.386525" lon="10.54261"><ele>122.0</ele><time>2026-04-27T14:53:59.174Z</time></trkpt><trkpt lat="45.3865533" lon="10.54248"><ele>121.99999999999999</ele><time>2026-04-27T14:54:01.179Z</time></trkpt><trkpt lat="45.386575" lon="10.54234"><ele>121.99999999999999</ele><time>2026-04-27T14:54:03.177Z</time></trkpt><trkpt lat="45.3865767" lon="10.5421983"><ele>122.0</ele><time>2026-04-27T14:54:05.18Z</time></trkpt><trkpt lat="45.3865583" lon="10.54206"><ele>122.0</ele><time>2026-04-27T14:54:07.18Z</time></trkpt><trkpt lat="45.38655" lon="10.5419267"><ele>122.16666666666666</ele><time>2026-04-27T14:54:09.179Z</time></trkpt><trkpt lat="45.38657" lon="10.5418133"><ele>122.33333333333333</ele><time>2026-04-27T14:54:11.172Z</time></trkpt><trkpt lat="45.3865817" lon="10.541705"><ele>122.5</ele><time>2026-04-27T14:54:13.177Z</time></trkpt><trkpt lat="45.386545" lon="10.54159"><ele>122.66666666666666</ele><time>2026-04-27T14:54:16.173Z</time></trkpt><trkpt lat="45.38648" lon="10.5415283"><ele>122.83333333333333</ele><time>2026-04-27T14:54:18.169Z</time></trkpt><trkpt lat="45.3864033" lon="10.5414683"><ele>123.0</ele><time>2026-04-27T14:54:20.178Z</time></trkpt><trkpt lat="45.3863233" lon="10.541405"><ele>122.2</ele><time>2026-04-27T14:54:22.169Z</time></trkpt><trkpt lat="45.386245" lon="10.541335"><ele>121.4</ele><time>2026-04-27T14:54:24.168Z</time></trkpt><trkpt lat="45.3861583" lon="10.5412517"><ele>120.60000000000001</ele><time>2026-04-27T14:54:26.176Z</time></trkpt><trkpt lat="45.3860767" lon="10.54118"><ele>119.80000000000001</ele><time>2026-04-27T14:54:28.168Z</time></trkpt><trkpt lat="45.385995" lon="10.5411233"><ele>119.0</ele><time>2026-04-27T14:54:30.179Z</time></trkpt><trkpt lat="45.3858917" lon="10.54103"><ele>119.0</ele><time>2026-04-27T14:54:32.173Z</time></trkpt><trkpt lat="45.3857867" lon="10.540955"><ele>119.0</ele><time>2026-04-27T14:54:34.171Z</time></trkpt><trkpt lat="45.3857" lon="10.5408867"><ele>119.0</ele><time>2026-04-27T14:54:36.182Z</time></trkpt><trkpt lat="45.3855967" lon="10.5408083"><ele>119.0</ele><time>2026-04-27T14:54:38.177Z</time></trkpt><trkpt lat="45.385525" lon="10.54074"><ele>119.0</ele><time>2026-04-27T14:54:40.173Z</time></trkpt><trkpt lat="45.3854717" lon="10.5406717"><ele>118.80000000000001</ele><time>2026-04-27T14:54:42.178Z</time></trkpt><trkpt lat="45.385415" lon="10.5406217"><ele>118.60000000000001</ele><time>2026-04-27T14:54:44.174Z</time></trkpt><trkpt lat="45.3853017" lon="10.540575"><ele>118.4</ele><time>2026-04-27T14:54:46.185Z</time></trkpt><trkpt lat="45.3852017" lon="10.5405167"><ele>118.2</ele><time>2026-04-27T14:54:48.176Z</time></trkpt><trkpt lat="45.385105" lon="10.5404567"><ele>118.0</ele><time>2026-04-27T14:54:50.177Z</time></trkpt><trkpt lat="45.38501" lon="10.5403833"><ele>118.60000000000001</ele><time>2026-04-27T14:54:52.17Z</time></trkpt><trkpt lat="45.384915" lon="10.54033"><ele>119.20000000000002</ele><time>2026-04-27T14:54:54.178Z</time></trkpt><trkpt lat="45.3848483" lon="10.5403"><ele>119.8</ele><time>2026-04-27T14:54:55.17Z</time></trkpt><trkpt lat="45.38476" lon="10.540215"><ele>120.4</ele><time>2026-04-27T14:54:57.179Z</time></trkpt><trkpt lat="45.38465" lon="10.5401433"><ele>121.0</ele><time>2026-04-27T14:54:59.179Z</time></trkpt><trkpt lat="45.3845567" lon="10.5400933"><ele>121.4</ele><time>2026-04-27T14:55:01.175Z</time></trkpt><trkpt lat="45.3844617" lon="10.5400767"><ele>121.8</ele><time>2026-04-27T14:55:03.17Z</time></trkpt><trkpt lat="45.3843483" lon="10.5400967"><ele>122.20000000000002</ele><time>2026-04-27T14:55:05.171Z</time></trkpt><trkpt lat="45.3842483" lon="10.5401633"><ele>122.60000000000001</ele><time>2026-04-27T14:55:07.171Z</time></trkpt><trkpt lat="45.3841817" lon="10.5402533"><ele>123.0</ele><time>2026-04-27T14:55:09.174Z</time></trkpt><trkpt lat="45.384135" lon="10.540325"><ele>122.25</ele><time>2026-04-27T14:55:10.171Z</time></trkpt><trkpt lat="45.3840533" lon="10.5404533"><ele>121.5</ele><time>2026-04-27T14:55:12.179Z</time></trkpt><trkpt lat="45.3839667" lon="10.54057"><ele>120.75</ele><time>2026-04-27T14:55:14.181Z</time></trkpt><trkpt lat="45.3838733" lon="10.5406767"><ele>120.0</ele><time>2026-04-27T14:55:16.183Z</time></trkpt><trkpt lat="45.383785" lon="10.5407667"><ele>120.0</ele><time>2026-04-27T14:55:18.177Z</time></trkpt><trkpt lat="45.383695" lon="10.540845"><ele>120.0</ele><time>2026-04-27T14:55:20.178Z</time></trkpt><trkpt lat="45.3836067" lon="10.5409133"><ele>120.0</ele><time>2026-04-27T14:55:22.174Z</time></trkpt><trkpt lat="45.3835033" lon="10.540975"><ele>120.0</ele><time>2026-04-27T14:55:24.179Z</time></trkpt><trkpt lat="45.383445" lon="10.5410333"><ele>120.0</ele><time>2026-04-27T14:55:25.18Z</time></trkpt><trkpt lat="45.383335" lon="10.541065"><ele>120.0</ele><time>2026-04-27T14:55:27.179Z</time></trkpt><trkpt lat="45.3832733" lon="10.5410417"><ele>120.0</ele><time>2026-04-27T14:55:29.174Z</time></trkpt><trkpt lat="45.383215" lon="10.540935"><ele>120.0</ele><time>2026-04-27T14:55:32.177Z</time></trkpt><trkpt lat="45.38317" lon="10.540835"><ele>120.0</ele><time>2026-04-27T14:55:34.177Z</time></trkpt><trkpt lat="45.383115" lon="10.5407733"><ele>120.0</ele><time>2026-04-27T14:55:36.179Z</time></trkpt><trkpt lat="45.3830567" lon="10.5407383"><ele>120.0</ele><time>2026-04-27T14:55:38.179Z</time></trkpt><trkpt lat="45.3829783" lon="10.540705"><ele>120.71428571428572</ele><time>2026-04-27T14:55:41.173Z</time></trkpt><trkpt lat="45.3829083" lon="10.5406933"><ele>121.42857142857142</ele><time>2026-04-27T14:55:43.177Z</time></trkpt><trkpt lat="45.382845" lon="10.5406733"><ele>122.14285714285714</ele><time>2026-04-27T14:55:45.18Z</time></trkpt><trkpt lat="45.3827867" lon="10.54063"><ele>122.85714285714286</ele><time>2026-04-27T14:55:47.171Z</time></trkpt><trkpt lat="45.3827033" lon="10.5405983"><ele>123.57142857142858</ele><time>2026-04-27T14:55:50.171Z</time></trkpt><trkpt lat="45.3826383" lon="10.540585"><ele>124.28571428571428</ele><time>2026-04-27T14:55:52.182Z</time></trkpt><trkpt lat="45.3825717" lon="10.5405417"><ele>125.0</ele><time>2026-04-27T14:55:54.175Z</time></trkpt><trkpt lat="45.3825133" lon="10.5405"><ele>124.99999999999999</ele><time>2026-04-27T14:55:56.177Z</time></trkpt><trkpt lat="45.3824167" lon="10.540445"><ele>125.0</ele><time>2026-04-27T14:55:59.168Z</time></trkpt><trkpt lat="45.3823283" lon="10.5404133"><ele>125.0</ele><time>2026-04-27T14:56:01.17Z</time></trkpt><trkpt lat="45.3822583" lon="10.5403883"><ele>125.0</ele><time>2026-04-27T14:56:03.171Z</time></trkpt><trkpt lat="45.382195" lon="10.5404017"><ele>124.99999999999999</ele><time>2026-04-27T14:56:05.174Z</time></trkpt><trkpt lat="45.38211" lon="10.540425"><ele>125.0</ele><time>2026-04-27T14:56:08.179Z</time></trkpt><trkpt lat="45.3820217" lon="10.540445"><ele>126.99999999999999</ele><time>2026-04-27T14:56:11.17Z</time></trkpt><trkpt lat="45.38193" lon="10.5404933"><ele>129.0</ele><time>2026-04-27T14:56:14.18Z</time></trkpt><trkpt lat="45.3818817" lon="10.5405617"><ele>131.0</ele><time>2026-04-27T14:56:16.176Z</time></trkpt><trkpt lat="45.3818133" lon="10.540645"><ele>133.0</ele><time>2026-04-27T14:56:19.175Z</time></trkpt><trkpt lat="45.3817617" lon="10.5407067"><ele>135.0</ele><time>2026-04-27T14:56:21.174Z</time></trkpt><trkpt lat="45.3816983" lon="10.540755"><ele>137.0</ele><time>2026-04-27T14:56:23.168Z</time></trkpt><trkpt lat="45.3816233" lon="10.5408083"><ele>137.0</ele><time>2026-04-27T14:56:26.178Z</time></trkpt><trkpt lat="45.3815417" lon="10.5408067"><ele>137.0</ele><time>2026-04-27T14:56:29.171Z</time></trkpt><trkpt lat="45.381455" lon="10.5408583"><ele>137.0</ele><time>2026-04-27T14:56:32.17Z</time></trkpt><trkpt lat="45.3813783" lon="10.5409217"><ele>137.0</ele><time>2026-04-27T14:56:34.173Z</time></trkpt><trkpt lat="45.3813133" lon="10.5409567"><ele>137.0</ele><time>2026-04-27T14:56:36.172Z</time></trkpt><trkpt lat="45.3812483" lon="10.5409983"><ele>137.0</ele><time>2026-04-27T14:56:38.182Z</time></trkpt><trkpt lat="45.381175" lon="10.5410517"><ele>137.16666666666666</ele><time>2026-04-27T14:56:40.177Z</time></trkpt><trkpt lat="45.38111" lon="10.5410667"><ele>137.33333333333331</ele><time>2026-04-27T14:56:42.171Z</time></trkpt><trkpt lat="45.38102" lon="10.541075"><ele>137.5</ele><time>2026-04-27T14:56:45.179Z</time></trkpt><trkpt lat="45.3809267" lon="10.541095"><ele>137.66666666666666</ele><time>2026-04-27T14:56:48.171Z</time></trkpt><trkpt lat="45.3808633" lon="10.5410967"><ele>137.83333333333334</ele><time>2026-04-27T14:56:50.168Z</time></trkpt><trkpt lat="45.3807883" lon="10.5410817"><ele>138.0</ele><time>2026-04-27T14:56:52.169Z</time></trkpt><trkpt lat="45.3807217" lon="10.5410417"><ele>138.0</ele><time>2026-04-27T14:56:54.18Z</time></trkpt><trkpt lat="45.3806783" lon="10.5409717"><ele>138.0</ele><time>2026-04-27T14:56:56.178Z</time></trkpt><trkpt lat="45.3806867" lon="10.5408517"><ele>138.0</ele><time>2026-04-27T14:56:59.163Z</time></trkpt><trkpt lat="45.38072" lon="10.5407633"><ele>138.0</ele><time>2026-04-27T14:57:02.171Z</time></trkpt><trkpt lat="45.3807733" lon="10.5406917"><ele>138.0</ele><time>2026-04-27T14:57:06.175Z</time></trkpt><trkpt lat="45.3808217" lon="10.54058"><ele>138.0</ele><time>2026-04-27T14:57:09.167Z</time></trkpt><trkpt lat="45.3809" lon="10.54053"><ele>138.0</ele><time>2026-04-27T14:57:24.174Z</time></trkpt><trkpt lat="45.38089" lon="10.5404133"><ele>138.0</ele><time>2026-04-27T14:57:28.173Z</time></trkpt><trkpt lat="45.38085" lon="10.5403"><ele>138.0</ele><time>2026-04-27T14:57:30.169Z</time></trkpt><trkpt lat="45.380825" lon="10.5401967"><ele>138.0</ele><time>2026-04-27T14:57:32.182Z</time></trkpt><trkpt lat="45.3808183" lon="10.5400717"><ele>138.0</ele><time>2026-04-27T14:57:34.173Z</time></trkpt><trkpt lat="45.3808383" lon="10.53995"><ele>138.0</ele><time>2026-04-27T14:57:37.179Z</time></trkpt><trkpt lat="45.3808683" lon="10.5398283"><ele>138.0</ele><time>2026-04-27T14:57:40.171Z</time></trkpt><trkpt lat="45.3809067" lon="10.5397467"><ele>138.0</ele><time>2026-04-27T14:57:42.179Z</time></trkpt><trkpt lat="45.38093" lon="10.5396533"><ele>138.0</ele><time>2026-04-27T14:57:44.179Z</time></trkpt><trkpt lat="45.3809367" lon="10.5395483"><ele>138.0</ele><time>2026-04-27T14:57:46.171Z</time></trkpt><trkpt lat="45.3809317" lon="10.5394467"><ele>138.0</ele><time>2026-04-27T14:57:48.169Z</time></trkpt><trkpt lat="45.3809333" lon="10.5393383"><ele>138.0</ele><time>2026-04-27T14:57:50.173Z</time></trkpt><trkpt lat="45.3809517" lon="10.5392233"><ele>138.0</ele><time>2026-04-27T14:57:52.179Z</time></trkpt><trkpt lat="45.380935" lon="10.5391233"><ele>138.6</ele><time>2026-04-27T14:57:54.179Z</time></trkpt><trkpt lat="45.3809183" lon="10.5390267"><ele>139.20000000000002</ele><time>2026-04-27T14:57:56.179Z</time></trkpt><trkpt lat="45.3809033" lon="10.53889"><ele>139.8</ele><time>2026-04-27T14:57:59.17Z</time></trkpt><trkpt lat="45.3809017" lon="10.53875"><ele>140.4</ele><time>2026-04-27T14:58:01.171Z</time></trkpt><trkpt lat="45.3808967" lon="10.5386117"><ele>141.0</ele><time>2026-04-27T14:58:03.173Z</time></trkpt><trkpt lat="45.38089" lon="10.5384767"><ele>141.16666666666666</ele><time>2026-04-27T14:58:05.171Z</time></trkpt><trkpt lat="45.3808883" lon="10.538335"><ele>141.33333333333334</ele><time>2026-04-27T14:58:07.173Z</time></trkpt><trkpt lat="45.3808917" lon="10.5382233"><ele>141.5</ele><time>2026-04-27T14:58:09.174Z</time></trkpt><trkpt lat="45.3808883" lon="10.5381167"><ele>141.66666666666669</ele><time>2026-04-27T14:58:11.169Z</time></trkpt><trkpt lat="45.3808717" lon="10.5380167"><ele>141.83333333333334</ele><time>2026-04-27T14:58:13.179Z</time></trkpt><trkpt lat="45.3808467" lon="10.53792"><ele>142.0</ele><time>2026-04-27T14:58:15.171Z</time></trkpt><trkpt lat="45.38082" lon="10.5378083"><ele>142.4</ele><time>2026-04-27T14:58:17.174Z</time></trkpt><trkpt lat="45.380805" lon="10.5376483"><ele>142.79999999999998</ele><time>2026-04-27T14:58:19.17Z</time></trkpt><trkpt lat="45.3808017" lon="10.5375033"><ele>143.2</ele><time>2026-04-27T14:58:21.172Z</time></trkpt><trkpt lat="45.3808083" lon="10.5373567"><ele>143.6</ele><time>2026-04-27T14:58:23.17Z</time></trkpt><trkpt lat="45.3808267" lon="10.537215"><ele>144.0</ele><time>2026-04-27T14:58:25.174Z</time></trkpt><trkpt lat="45.3808683" lon="10.537085"><ele>144.66666666666666</ele><time>2026-04-27T14:58:27.171Z</time></trkpt><trkpt lat="45.3809067" lon="10.5369467"><ele>145.33333333333334</ele><time>2026-04-27T14:58:29.174Z</time></trkpt><trkpt lat="45.3809433" lon="10.5368233"><ele>146.0</ele><time>2026-04-27T14:58:31.174Z</time></trkpt><trkpt lat="45.3809783" lon="10.5367167"><ele>146.66666666666669</ele><time>2026-04-27T14:58:33.172Z</time></trkpt><trkpt lat="45.380995" lon="10.5366167"><ele>147.33333333333334</ele><time>2026-04-27T14:58:35.172Z</time></trkpt><trkpt lat="45.38101" lon="10.5365183"><ele>148.0</ele><time>2026-04-27T14:58:37.172Z</time></trkpt><trkpt lat="45.3810267" lon="10.53639"><ele>148.0</ele><time>2026-04-27T14:58:40.168Z</time></trkpt><trkpt lat="45.3810333" lon="10.536265"><ele>148.0</ele><time>2026-04-27T14:58:43.169Z</time></trkpt><trkpt lat="45.3810633" lon="10.53615"><ele>148.0</ele><time>2026-04-27T14:58:46.172Z</time></trkpt><trkpt lat="45.381085" lon="10.536045"><ele>148.0</ele><time>2026-04-27T14:58:49.182Z</time></trkpt><trkpt lat="45.3811" lon="10.5359467"><ele>148.0</ele><time>2026-04-27T14:58:52.173Z</time></trkpt><trkpt lat="45.3810517" lon="10.5358633"><ele>148.0</ele><time>2026-04-27T14:58:55.182Z</time></trkpt><trkpt lat="45.3809967" lon="10.53577"><ele>149.16666666666669</ele><time>2026-04-27T14:58:58.17Z</time></trkpt><trkpt lat="45.380935" lon="10.5356883"><ele>150.33333333333334</ele><time>2026-04-27T14:59:01.183Z</time></trkpt><trkpt lat="45.3808667" lon="10.5356217"><ele>151.5</ele><time>2026-04-27T14:59:04.177Z</time></trkpt><trkpt lat="45.3807833" lon="10.5355533"><ele>152.66666666666666</ele><time>2026-04-27T14:59:07.174Z</time></trkpt><trkpt lat="45.38071" lon="10.53551"><ele>153.83333333333331</ele><time>2026-04-27T14:59:10.176Z</time></trkpt><trkpt lat="45.3806367" lon="10.5355167"><ele>155.0</ele><time>2026-04-27T14:59:14.178Z</time></trkpt><trkpt lat="45.38058" lon="10.5355617"><ele>155.0</ele><time>2026-04-27T14:59:17.17Z</time></trkpt><trkpt lat="45.3805317" lon="10.535635"><ele>155.0</ele><time>2026-04-27T14:59:20.176Z</time></trkpt><trkpt lat="45.38045" lon="10.5356983"><ele>155.0</ele><time>2026-04-27T14:59:23.174Z</time></trkpt><trkpt lat="45.380385" lon="10.5357783"><ele>155.0</ele><time>2026-04-27T14:59:26.18Z</time></trkpt><trkpt lat="45.3803533" lon="10.5358783"><ele>155.0</ele><time>2026-04-27T14:59:29.172Z</time></trkpt><trkpt lat="45.3803167" lon="10.5359767"><ele>155.0</ele><time>2026-04-27T14:59:32.171Z</time></trkpt><trkpt lat="45.3802817" lon="10.536085"><ele>156.71428571428572</ele><time>2026-04-27T14:59:35.173Z</time></trkpt><trkpt lat="45.3802483" lon="10.536165"><ele>158.42857142857142</ele><time>2026-04-27T14:59:38.176Z</time></trkpt><trkpt lat="45.3802133" lon="10.5360683"><ele>160.14285714285714</ele><time>2026-04-27T14:59:48.171Z</time></trkpt><trkpt lat="45.3802033" lon="10.535975"><ele>161.85714285714286</ele><time>2026-04-27T14:59:52.166Z</time></trkpt><trkpt lat="45.3802167" lon="10.53587"><ele>163.57142857142858</ele><time>2026-04-27T14:59:55.171Z</time></trkpt><trkpt lat="45.3802367" lon="10.53578"><ele>165.28571428571428</ele><time>2026-04-27T14:59:58.167Z</time></trkpt><trkpt lat="45.38021" lon="10.5356683"><ele>167.0</ele><time>2026-04-27T15:00:01.17Z</time></trkpt><trkpt lat="45.3801917" lon="10.5355617"><ele>167.0</ele><time>2026-04-27T15:00:04.173Z</time></trkpt><trkpt lat="45.3801933" lon="10.5354517"><ele>167.0</ele><time>2026-04-27T15:00:07.175Z</time></trkpt><trkpt lat="45.3802067" lon="10.5353533"><ele>167.0</ele><time>2026-04-27T15:00:10.165Z</time></trkpt><trkpt lat="45.3802483" lon="10.5351467"><ele>167.0</ele><time>2026-04-27T15:00:18.175Z</time></trkpt><trkpt lat="45.38033" lon="10.5350583"><ele>167.0</ele><time>2026-04-27T15:00:23.17Z</time></trkpt><trkpt lat="45.3803633" lon="10.5349467"><ele>168.5</ele><time>2026-04-27T15:00:26.172Z</time></trkpt><trkpt lat="45.3803783" lon="10.53485"><ele>170.0</ele><time>2026-04-27T15:00:28.165Z</time></trkpt><trkpt lat="45.3803983" lon="10.5347533"><ele>171.5</ele><time>2026-04-27T15:00:30.178Z</time></trkpt><trkpt lat="45.3804233" lon="10.5346617"><ele>173.0</ele><time>2026-04-27T15:00:32.176Z</time></trkpt><trkpt lat="45.3804333" lon="10.53455"><ele>174.5</ele><time>2026-04-27T15:00:34.174Z</time></trkpt><trkpt lat="45.3804417" lon="10.5344017"><ele>176.0</ele><time>2026-04-27T15:00:36.175Z</time></trkpt><trkpt lat="45.38047" lon="10.53427"><ele>176.66666666666666</ele><time>2026-04-27T15:00:38.175Z</time></trkpt><trkpt lat="45.38049" lon="10.5341683"><ele>177.33333333333331</ele><time>2026-04-27T15:00:40.175Z</time></trkpt><trkpt lat="45.3804833" lon="10.5340433"><ele>178.0</ele><time>2026-04-27T15:00:43.174Z</time></trkpt><trkpt lat="45.3804717" lon="10.5339433"><ele>178.66666666666666</ele><time>2026-04-27T15:00:45.178Z</time></trkpt><trkpt lat="45.3804783" lon="10.5338233"><ele>179.33333333333334</ele><time>2026-04-27T15:00:48.17Z</time></trkpt><trkpt lat="45.38047" lon="10.5337167"><ele>180.0</ele><time>2026-04-27T15:00:51.172Z</time></trkpt><trkpt lat="45.3804183" lon="10.5336533"><ele>180.0</ele><time>2026-04-27T15:00:57.179Z</time></trkpt><trkpt lat="45.3803767" lon="10.5335583"><ele>180.0</ele><time>2026-04-27T15:01:01.171Z</time></trkpt><trkpt lat="45.3803517" lon="10.533455"><ele>180.0</ele><time>2026-04-27T15:01:04.17Z</time></trkpt><trkpt lat="45.380375" lon="10.5333233"><ele>180.0</ele><time>2026-04-27T15:01:08.182Z</time></trkpt><trkpt lat="45.380375" lon="10.53322"><ele>180.0</ele><time>2026-04-27T15:01:11.171Z</time></trkpt><trkpt lat="45.38043" lon="10.5331367"><ele>180.0</ele><time>2026-04-27T15:01:14.181Z</time></trkpt><trkpt lat="45.3804867" lon="10.5330283"><ele>177.33333333333334</ele><time>2026-04-27T15:01:16.17Z</time></trkpt><trkpt lat="45.3805233" lon="10.532935"><ele>174.66666666666666</ele><time>2026-04-27T15:01:18.171Z</time></trkpt><trkpt lat="45.38057" lon="10.5328433"><ele>172.0</ele><time>2026-04-27T15:01:20.171Z</time></trkpt><trkpt lat="45.380645" lon="10.5327617"><ele>169.33333333333331</ele><time>2026-04-27T15:01:22.173Z</time></trkpt><trkpt lat="45.3807317" lon="10.5326933"><ele>166.66666666666666</ele><time>2026-04-27T15:01:24.185Z</time></trkpt><trkpt lat="45.3807733" lon="10.532605"><ele>164.0</ele><time>2026-04-27T15:01:27.173Z</time></trkpt><trkpt lat="45.3808017" lon="10.5325233"><ele>164.0</ele><time>2026-04-27T15:01:31.18Z</time></trkpt><trkpt lat="45.3808383" lon="10.5324117"><ele>164.0</ele><time>2026-04-27T15:01:34.178Z</time></trkpt><trkpt lat="45.3808533" lon="10.5323217"><ele>164.0</ele><time>2026-04-27T15:01:36.17Z</time></trkpt><trkpt lat="45.3808767" lon="10.5321483"><ele>164.0</ele><time>2026-04-27T15:01:38.177Z</time></trkpt><trkpt lat="45.3809033" lon="10.5319733"><ele>164.0</ele><time>2026-04-27T15:01:40.172Z</time></trkpt><trkpt lat="45.380935" lon="10.5318517"><ele>164.2</ele><time>2026-04-27T15:01:42.173Z</time></trkpt><trkpt lat="45.3809817" lon="10.53171"><ele>164.39999999999998</ele><time>2026-04-27T15:01:44.181Z</time></trkpt><trkpt lat="45.3810433" lon="10.5316183"><ele>164.6</ele><time>2026-04-27T15:01:46.168Z</time></trkpt><trkpt lat="45.38107" lon="10.53152"><ele>164.8</ele><time>2026-04-27T15:01:48.178Z</time></trkpt><trkpt lat="45.381085" lon="10.531385"><ele>165.0</ele><time>2026-04-27T15:01:50.176Z</time></trkpt><trkpt lat="45.381065" lon="10.5312633"><ele>164.0</ele><time>2026-04-27T15:01:52.166Z</time></trkpt><trkpt lat="45.3810417" lon="10.5311133"><ele>163.0</ele><time>2026-04-27T15:01:54.171Z</time></trkpt><trkpt lat="45.38104" lon="10.5309783"><ele>162.0</ele><time>2026-04-27T15:01:56.172Z</time></trkpt><trkpt lat="45.381025" lon="10.5308767"><ele>161.0</ele><time>2026-04-27T15:01:58.172Z</time></trkpt><trkpt lat="45.380975" lon="10.5307933"><ele>160.0</ele><time>2026-04-27T15:02:00.182Z</time></trkpt><trkpt lat="45.3809467" lon="10.53071"><ele>159.0</ele><time>2026-04-27T15:02:02.178Z</time></trkpt><trkpt lat="45.3809183" lon="10.5305983"><ele>159.0</ele><time>2026-04-27T15:02:05.169Z</time></trkpt><trkpt lat="45.380875" lon="10.5305217"><ele>159.0</ele><time>2026-04-27T15:02:08.179Z</time></trkpt><trkpt lat="45.380825" lon="10.5303617"><ele>159.0</ele><time>2026-04-27T15:02:10.167Z</time></trkpt><trkpt lat="45.3807967" lon="10.530205"><ele>159.0</ele><time>2026-04-27T15:02:12.17Z</time></trkpt><trkpt lat="45.38078" lon="10.53009"><ele>159.0</ele><time>2026-04-27T15:02:13.174Z</time></trkpt><trkpt lat="45.3807717" lon="10.529955"><ele>157.25</ele><time>2026-04-27T15:02:15.171Z</time></trkpt><trkpt lat="45.3807417" lon="10.5298033"><ele>155.5</ele><time>2026-04-27T15:02:17.169Z</time></trkpt><trkpt lat="45.38072" lon="10.5296617"><ele>153.75</ele><time>2026-04-27T15:02:19.17Z</time></trkpt><trkpt lat="45.3807267" lon="10.5294933"><ele>152.0</ele><time>2026-04-27T15:02:21.178Z</time></trkpt><trkpt lat="45.3807017" lon="10.52932"><ele>151.83333333333331</ele><time>2026-04-27T15:02:23.174Z</time></trkpt><trkpt lat="45.3806667" lon="10.529185"><ele>151.66666666666666</ele><time>2026-04-27T15:02:25.176Z</time></trkpt><trkpt lat="45.380625" lon="10.5291083"><ele>151.5</ele><time>2026-04-27T15:02:26.178Z</time></trkpt><trkpt lat="45.3805867" lon="10.5290367"><ele>151.33333333333334</ele><time>2026-04-27T15:02:27.178Z</time></trkpt><trkpt lat="45.3805483" lon="10.5288833"><ele>151.16666666666669</ele><time>2026-04-27T15:02:29.171Z</time></trkpt><trkpt lat="45.3805" lon="10.52876"><ele>151.0</ele><time>2026-04-27T15:02:31.172Z</time></trkpt><trkpt lat="45.38045" lon="10.5286517"><ele>148.8</ele><time>2026-04-27T15:02:33.176Z</time></trkpt><trkpt lat="45.3804" lon="10.528555"><ele>146.6</ele><time>2026-04-27T15:02:36.179Z</time></trkpt><trkpt lat="45.3803267" lon="10.5284867"><ele>144.4</ele><time>2026-04-27T15:02:39.169Z</time></trkpt><trkpt lat="45.3802517" lon="10.5284517"><ele>142.2</ele><time>2026-04-27T15:02:42.174Z</time></trkpt><trkpt lat="45.3801633" lon="10.5284367"><ele>140.0</ele><time>2026-04-27T15:02:46.175Z</time></trkpt><trkpt lat="45.3800683" lon="10.5283583"><ele>140.0</ele><time>2026-04-27T15:02:49.17Z</time></trkpt><trkpt lat="45.3800167" lon="10.52826"><ele>140.0</ele><time>2026-04-27T15:02:51.176Z</time></trkpt><trkpt lat="45.3799417" lon="10.5281267"><ele>140.0</ele><time>2026-04-27T15:02:53.175Z</time></trkpt><trkpt lat="45.3798717" lon="10.52796"><ele>140.0</ele><time>2026-04-27T15:02:55.172Z</time></trkpt><trkpt lat="45.3798267" lon="10.5278483"><ele>140.0</ele><time>2026-04-27T15:02:56.169Z</time></trkpt><trkpt lat="45.3797767" lon="10.5277283"><ele>137.5</ele><time>2026-04-27T15:02:57.167Z</time></trkpt><trkpt lat="45.37972" lon="10.5276"><ele>135.0</ele><time>2026-04-27T15:02:58.168Z</time></trkpt><trkpt lat="45.379635" lon="10.5274533"><ele>132.5</ele><time>2026-04-27T15:02:59.174Z</time></trkpt><trkpt lat="45.379555" lon="10.5273083"><ele>130.0</ele><time>2026-04-27T15:03:00.177Z</time></trkpt><trkpt lat="45.3795017" lon="10.527155"><ele>128.6</ele><time>2026-04-27T15:03:01.179Z</time></trkpt><trkpt lat="45.3794367" lon="10.5270217"><ele>127.2</ele><time>2026-04-27T15:03:02.181Z</time></trkpt><trkpt lat="45.3793783" lon="10.5269033"><ele>125.80000000000001</ele><time>2026-04-27T15:03:03.171Z</time></trkpt><trkpt lat="45.379315" lon="10.52677"><ele>124.4</ele><time>2026-04-27T15:03:04.173Z</time></trkpt><trkpt lat="45.37926" lon="10.5266633"><ele>123.0</ele><time>2026-04-27T15:03:05.181Z</time></trkpt><trkpt lat="45.379225" lon="10.52658"><ele>123.0</ele><time>2026-04-27T15:03:06.186Z</time></trkpt><trkpt lat="45.37919" lon="10.526465"><ele>123.0</ele><time>2026-04-27T15:03:08.18Z</time></trkpt><trkpt lat="45.3791767" lon="10.5263533"><ele>123.0</ele><time>2026-04-27T15:03:12.174Z</time></trkpt><trkpt lat="45.3791283" lon="10.5262667"><ele>123.0</ele><time>2026-04-27T15:03:15.173Z</time></trkpt><trkpt lat="45.3790917" lon="10.5261783"><ele>123.0</ele><time>2026-04-27T15:03:17.171Z</time></trkpt><trkpt lat="45.3790533" lon="10.5260983"><ele>123.0</ele><time>2026-04-27T15:03:19.169Z</time></trkpt><trkpt lat="45.3790117" lon="10.5260267"><ele>122.83333333333333</ele><time>2026-04-27T15:03:21.168Z</time></trkpt><trkpt lat="45.3789683" lon="10.5259433"><ele>122.66666666666666</ele><time>2026-04-27T15:03:23.171Z</time></trkpt><trkpt lat="45.3789267" lon="10.5258517"><ele>122.5</ele><time>2026-04-27T15:03:25.178Z</time></trkpt><trkpt lat="45.3788967" lon="10.52576"><ele>122.33333333333333</ele><time>2026-04-27T15:03:27.176Z</time></trkpt><trkpt lat="45.3788683" lon="10.5256567"><ele>122.16666666666666</ele><time>2026-04-27T15:03:29.171Z</time></trkpt><trkpt lat="45.378845" lon="10.52555"><ele>122.0</ele><time>2026-04-27T15:03:31.171Z</time></trkpt><trkpt lat="45.37884" lon="10.5254283"><ele>121.99999999999999</ele><time>2026-04-27T15:03:33.18Z</time></trkpt><trkpt lat="45.378845" lon="10.5253017"><ele>122.0</ele><time>2026-04-27T15:03:35.17Z</time></trkpt><trkpt lat="45.3788483" lon="10.5251767"><ele>122.0</ele><time>2026-04-27T15:03:37.177Z</time></trkpt><trkpt lat="45.3788567" lon="10.52506"><ele>122.0</ele><time>2026-04-27T15:03:39.177Z</time></trkpt><trkpt lat="45.3788633" lon="10.5249333"><ele>121.99999999999999</ele><time>2026-04-27T15:03:41.178Z</time></trkpt><trkpt lat="45.3788717" lon="10.5248233"><ele>122.0</ele><time>2026-04-27T15:03:43.174Z</time></trkpt><trkpt lat="45.378855" lon="10.5247117"><ele>122.49999999999999</ele><time>2026-04-27T15:03:45.178Z</time></trkpt><trkpt lat="45.378805" lon="10.524575"><ele>123.0</ele><time>2026-04-27T15:03:47.166Z</time></trkpt><trkpt lat="45.37877" lon="10.5244467"><ele>123.5</ele><time>2026-04-27T15:03:49.166Z</time></trkpt><trkpt lat="45.378755" lon="10.5243267"><ele>124.0</ele><time>2026-04-27T15:03:51.176Z</time></trkpt><trkpt lat="45.3787567" lon="10.5242183"><ele>124.49999999999999</ele><time>2026-04-27T15:03:53.17Z</time></trkpt><trkpt lat="45.378785" lon="10.5241083"><ele>125.0</ele><time>2026-04-27T15:03:55.172Z</time></trkpt><trkpt lat="45.3788317" lon="10.5239867"><ele>124.4</ele><time>2026-04-27T15:03:57.173Z</time></trkpt><trkpt lat="45.3788767" lon="10.523855"><ele>123.8</ele><time>2026-04-27T15:03:59.176Z</time></trkpt><trkpt lat="45.37891" lon="10.5237417"><ele>123.19999999999999</ele><time>2026-04-27T15:04:01.171Z</time></trkpt><trkpt lat="45.3789317" lon="10.5236217"><ele>122.6</ele><time>2026-04-27T15:04:03.177Z</time></trkpt><trkpt lat="45.3789533" lon="10.5235017"><ele>122.0</ele><time>2026-04-27T15:04:05.175Z</time></trkpt><trkpt lat="45.3789717" lon="10.5233517"><ele>122.0</ele><time>2026-04-27T15:04:07.173Z</time></trkpt><trkpt lat="45.37904" lon="10.523225"><ele>121.99999999999999</ele><time>2026-04-27T15:04:09.179Z</time></trkpt><trkpt lat="45.3791117" lon="10.523075"><ele>121.99999999999999</ele><time>2026-04-27T15:04:11.174Z</time></trkpt><trkpt lat="45.379145" lon="10.5229967"><ele>122.0</ele><time>2026-04-27T15:04:12.174Z</time></trkpt><trkpt lat="45.3792017" lon="10.5228817"><ele>122.0</ele><time>2026-04-27T15:04:14.177Z</time></trkpt><trkpt lat="45.3792683" lon="10.5228233"><ele>122.16666666666666</ele><time>2026-04-27T15:04:16.176Z</time></trkpt><trkpt lat="45.3793267" lon="10.52278"><ele>122.33333333333333</ele><time>2026-04-27T15:04:18.177Z</time></trkpt><trkpt lat="45.3793917" lon="10.5227333"><ele>122.5</ele><time>2026-04-27T15:04:20.178Z</time></trkpt><trkpt lat="45.3794833" lon="10.522685"><ele>122.66666666666666</ele><time>2026-04-27T15:04:22.177Z</time></trkpt><trkpt lat="45.3795417" lon="10.5226217"><ele>122.83333333333333</ele><time>2026-04-27T15:04:24.176Z</time></trkpt><trkpt lat="45.3795983" lon="10.52252"><ele>123.0</ele><time>2026-04-27T15:04:26.177Z</time></trkpt><trkpt lat="45.3796667" lon="10.5224217"><ele>122.60000000000001</ele><time>2026-04-27T15:04:28.172Z</time></trkpt><trkpt lat="45.3797233" lon="10.522345"><ele>122.20000000000002</ele><time>2026-04-27T15:04:30.172Z</time></trkpt><trkpt lat="45.37978" lon="10.5222583"><ele>121.8</ele><time>2026-04-27T15:04:32.181Z</time></trkpt><trkpt lat="45.379875" lon="10.522185"><ele>121.4</ele><time>2026-04-27T15:04:34.175Z</time></trkpt><trkpt lat="45.3799733" lon="10.5221317"><ele>121.0</ele><time>2026-04-27T15:04:36.178Z</time></trkpt><trkpt lat="45.3800783" lon="10.5220783"><ele>121.6</ele><time>2026-04-27T15:04:38.178Z</time></trkpt><trkpt lat="45.3801883" lon="10.5220083"><ele>122.19999999999999</ele><time>2026-04-27T15:04:40.173Z</time></trkpt><trkpt lat="45.380285" lon="10.5219117"><ele>122.80000000000001</ele><time>2026-04-27T15:04:42.17Z</time></trkpt><trkpt lat="45.38034" lon="10.521865"><ele>123.4</ele><time>2026-04-27T15:04:43.175Z</time></trkpt><trkpt lat="45.3803983" lon="10.521815"><ele>124.0</ele><time>2026-04-27T15:04:44.175Z</time></trkpt><trkpt lat="45.3804867" lon="10.5217233"><ele>123.6</ele><time>2026-04-27T15:04:46.175Z</time></trkpt><trkpt lat="45.38057" lon="10.5216317"><ele>123.2</ele><time>2026-04-27T15:04:48.171Z</time></trkpt><trkpt lat="45.38064" lon="10.5215433"><ele>122.79999999999998</ele><time>2026-04-27T15:04:50.178Z</time></trkpt><trkpt lat="45.380715" lon="10.521455"><ele>122.39999999999999</ele><time>2026-04-27T15:04:52.183Z</time></trkpt><trkpt lat="45.380785" lon="10.521385"><ele>122.0</ele><time>2026-04-27T15:04:54.176Z</time></trkpt><trkpt lat="45.38085" lon="10.5213"><ele>123.66666666666666</ele><time>2026-04-27T15:04:56.176Z</time></trkpt><trkpt lat="45.3808883" lon="10.5212183"><ele>125.33333333333333</ele><time>2026-04-27T15:04:58.175Z</time></trkpt><trkpt lat="45.3808767" lon="10.521115"><ele>127.0</ele><time>2026-04-27T15:05:01.179Z</time></trkpt><trkpt lat="45.3808583" lon="10.5210133"><ele>128.66666666666666</ele><time>2026-04-27T15:05:05.169Z</time></trkpt><trkpt lat="45.3807767" lon="10.5209217"><ele>130.33333333333334</ele><time>2026-04-27T15:05:08.17Z</time></trkpt><trkpt lat="45.38069" lon="10.5208467"><ele>132.0</ele><time>2026-04-27T15:05:10.168Z</time></trkpt><trkpt lat="45.3805967" lon="10.520795"><ele>132.0</ele><time>2026-04-27T15:05:12.17Z</time></trkpt><trkpt lat="45.380505" lon="10.5207167"><ele>132.0</ele><time>2026-04-27T15:05:14.17Z</time></trkpt><trkpt lat="45.380405" lon="10.5206433"><ele>132.0</ele><time>2026-04-27T15:05:16.169Z</time></trkpt><trkpt lat="45.380315" lon="10.52055"><ele>132.0</ele><time>2026-04-27T15:05:18.172Z</time></trkpt><trkpt lat="45.3802367" lon="10.5204533"><ele>132.0</ele><time>2026-04-27T15:05:20.18Z</time></trkpt><trkpt lat="45.380145" lon="10.5203467"><ele>132.0</ele><time>2026-04-27T15:05:22.185Z</time></trkpt><trkpt lat="45.380055" lon="10.5203017"><ele>132.0</ele><time>2026-04-27T15:05:24.175Z</time></trkpt><trkpt lat="45.3799567" lon="10.5202783"><ele>132.0</ele><time>2026-04-27T15:05:26.177Z</time></trkpt><trkpt lat="45.379845" lon="10.5203167"><ele>132.0</ele><time>2026-04-27T15:05:28.186Z</time></trkpt><trkpt lat="45.37973" lon="10.5203283"><ele>132.0</ele><time>2026-04-27T15:05:30.169Z</time></trkpt><trkpt lat="45.379665" lon="10.5203167"><ele>131.79999999999998</ele><time>2026-04-27T15:05:31.17Z</time></trkpt><trkpt lat="45.379545" lon="10.5202483"><ele>131.6</ele><time>2026-04-27T15:05:33.171Z</time></trkpt><trkpt lat="45.379445" lon="10.5201883"><ele>131.39999999999998</ele><time>2026-04-27T15:05:35.178Z</time></trkpt><trkpt lat="45.379365" lon="10.5201017"><ele>131.2</ele><time>2026-04-27T15:05:37.176Z</time></trkpt><trkpt lat="45.3792833" lon="10.520025"><ele>131.0</ele><time>2026-04-27T15:05:39.178Z</time></trkpt><trkpt lat="45.3792183" lon="10.5199883"><ele>131.0</ele><time>2026-04-27T15:05:41.187Z</time></trkpt><trkpt lat="45.3791967" lon="10.5199017"><ele>131.0</ele><time>2026-04-27T15:05:45.183Z</time></trkpt><trkpt lat="45.3791867" lon="10.5197933"><ele>131.0</ele><time>2026-04-27T15:05:50.167Z</time></trkpt><trkpt lat="45.3792167" lon="10.5197067"><ele>131.0</ele><time>2026-04-27T15:05:53.171Z</time></trkpt><trkpt lat="45.3792367" lon="10.5196183"><ele>131.0</ele><time>2026-04-27T15:05:57.173Z</time></trkpt><trkpt lat="45.3792467" lon="10.5194483"><ele>131.0</ele><time>2026-04-27T15:06:07.171Z</time></trkpt><trkpt lat="45.3792617" lon="10.51934"><ele>133.16666666666666</ele><time>2026-04-27T15:06:09.184Z</time></trkpt><trkpt lat="45.3792917" lon="10.5192267"><ele>135.33333333333331</ele><time>2026-04-27T15:06:11.173Z</time></trkpt><trkpt lat="45.3793333" lon="10.51914"><ele>137.5</ele><time>2026-04-27T15:06:14.175Z</time></trkpt><trkpt lat="45.3793567" lon="10.5190433"><ele>139.66666666666666</ele><time>2026-04-27T15:06:17.178Z</time></trkpt><trkpt lat="45.37942" lon="10.5189017"><ele>141.83333333333334</ele><time>2026-04-27T15:06:23.175Z</time></trkpt><trkpt lat="45.3794133" lon="10.5187767"><ele>144.0</ele><time>2026-04-27T15:06:26.176Z</time></trkpt><trkpt lat="45.3794133" lon="10.5186467"><ele>145.5</ele><time>2026-04-27T15:06:29.171Z</time></trkpt><trkpt lat="45.3794617" lon="10.51857"><ele>147.0</ele><time>2026-04-27T15:06:32.173Z</time></trkpt><trkpt lat="45.37951" lon="10.5184483"><ele>148.5</ele><time>2026-04-27T15:06:35.174Z</time></trkpt><trkpt lat="45.3795167" lon="10.518335"><ele>150.0</ele><time>2026-04-27T15:06:37.178Z</time></trkpt><trkpt lat="45.379575" lon="10.51826"><ele>151.5</ele><time>2026-04-27T15:06:40.169Z</time></trkpt><trkpt lat="45.3796433" lon="10.5181533"><ele>153.0</ele><time>2026-04-27T15:06:43.174Z</time></trkpt><trkpt lat="45.3797" lon="10.518085"><ele>153.0</ele><time>2026-04-27T15:06:46.176Z</time></trkpt><trkpt lat="45.3797533" lon="10.5180033"><ele>153.0</ele><time>2026-04-27T15:06:49.179Z</time></trkpt><trkpt lat="45.3798167" lon="10.51789"><ele>153.0</ele><time>2026-04-27T15:06:52.178Z</time></trkpt><trkpt lat="45.3799133" lon="10.5178183"><ele>153.0</ele><time>2026-04-27T15:06:55.181Z</time></trkpt><trkpt lat="45.3800133" lon="10.51774"><ele>153.0</ele><time>2026-04-27T15:06:57.178Z</time></trkpt><trkpt lat="45.3801083" lon="10.5176567"><ele>155.0</ele><time>2026-04-27T15:06:59.177Z</time></trkpt><trkpt lat="45.3801583" lon="10.5176"><ele>157.0</ele><time>2026-04-27T15:07:01.176Z</time></trkpt><trkpt lat="45.3802083" lon="10.5175433"><ele>159.0</ele><time>2026-04-27T15:07:03.173Z</time></trkpt><trkpt lat="45.380315" lon="10.517385"><ele>161.0</ele><time>2026-04-27T15:07:13.177Z</time></trkpt><trkpt lat="45.380405" lon="10.5172583"><ele>163.0</ele><time>2026-04-27T15:07:18.185Z</time></trkpt><trkpt lat="45.3804383" lon="10.5171567"><ele>163.16666666666669</ele><time>2026-04-27T15:07:22.177Z</time></trkpt><trkpt lat="45.3805217" lon="10.51707"><ele>163.33333333333334</ele><time>2026-04-27T15:07:26.189Z</time></trkpt><trkpt lat="45.380565" lon="10.5169717"><ele>163.5</ele><time>2026-04-27T15:07:31.178Z</time></trkpt><trkpt lat="45.3806117" lon="10.516895"><ele>163.66666666666666</ele><time>2026-04-27T15:07:34.178Z</time></trkpt><trkpt lat="45.3806617" lon="10.51683"><ele>163.83333333333331</ele><time>2026-04-27T15:07:38.169Z</time></trkpt><trkpt lat="45.38071" lon="10.5167483"><ele>164.0</ele><time>2026-04-27T15:07:41.176Z</time></trkpt><trkpt lat="45.380755" lon="10.5166433"><ele>164.0</ele><time>2026-04-27T15:07:44.174Z</time></trkpt><trkpt lat="45.3807933" lon="10.51655"><ele>164.0</ele><time>2026-04-27T15:07:47.177Z</time></trkpt><trkpt lat="45.3808367" lon="10.51647"><ele>164.0</ele><time>2026-04-27T15:07:50.174Z</time></trkpt><trkpt lat="45.3809217" lon="10.5163967"><ele>164.0</ele><time>2026-04-27T15:07:53.176Z</time></trkpt><trkpt lat="45.380995" lon="10.5162783"><ele>164.0</ele><time>2026-04-27T15:07:57.18Z</time></trkpt><trkpt lat="45.3810383" lon="10.5162033"><ele>164.0</ele><time>2026-04-27T15:07:59.173Z</time></trkpt><trkpt lat="45.3811" lon="10.5160833"><ele>165.5</ele><time>2026-04-27T15:08:02.181Z</time></trkpt><trkpt lat="45.381145" lon="10.5159783"><ele>167.0</ele><time>2026-04-27T15:08:04.172Z</time></trkpt><trkpt lat="45.3811483" lon="10.5158467"><ele>168.5</ele><time>2026-04-27T15:08:06.182Z</time></trkpt><trkpt lat="45.3811917" lon="10.515745"><ele>170.0</ele><time>2026-04-27T15:08:09.175Z</time></trkpt><trkpt lat="45.3812317" lon="10.5156717"><ele>171.5</ele><time>2026-04-27T15:08:12.175Z</time></trkpt><trkpt lat="45.3812817" lon="10.5156"><ele>173.0</ele><time>2026-04-27T15:08:15.172Z</time></trkpt><trkpt lat="45.38131" lon="10.5154683"><ele>173.0</ele><time>2026-04-27T15:08:19.183Z</time></trkpt><trkpt lat="45.381345" lon="10.515385"><ele>173.0</ele><time>2026-04-27T15:08:21.174Z</time></trkpt><trkpt lat="45.38139" lon="10.5152817"><ele>173.0</ele><time>2026-04-27T15:08:24.183Z</time></trkpt><trkpt lat="45.38144" lon="10.5151633"><ele>173.0</ele><time>2026-04-27T15:08:26.186Z</time></trkpt><trkpt lat="45.3815017" lon="10.5150467"><ele>173.0</ele><time>2026-04-27T15:08:29.174Z</time></trkpt><trkpt lat="45.3815417" lon="10.5149433"><ele>173.0</ele><time>2026-04-27T15:08:31.183Z</time></trkpt><trkpt lat="45.381595" lon="10.5148567"><ele>171.66666666666666</ele><time>2026-04-27T15:08:33.176Z</time></trkpt><trkpt lat="45.3816517" lon="10.5147867"><ele>170.33333333333331</ele><time>2026-04-27T15:08:35.174Z</time></trkpt><trkpt lat="45.3816983" lon="10.51471"><ele>169.0</ele><time>2026-04-27T15:08:36.183Z</time></trkpt><trkpt lat="45.3817583" lon="10.514635"><ele>167.66666666666666</ele><time>2026-04-27T15:08:38.177Z</time></trkpt><trkpt lat="45.38181" lon="10.5145567"><ele>166.33333333333334</ele><time>2026-04-27T15:08:40.176Z</time></trkpt><trkpt lat="45.3818867" lon="10.5145033"><ele>165.0</ele><time>2026-04-27T15:08:42.177Z</time></trkpt><trkpt lat="45.381945" lon="10.5144333"><ele>165.0</ele><time>2026-04-27T15:08:44.178Z</time></trkpt><trkpt lat="45.3820383" lon="10.5143617"><ele>165.0</ele><time>2026-04-27T15:08:46.173Z</time></trkpt><trkpt lat="45.3821033" lon="10.5142817"><ele>165.0</ele><time>2026-04-27T15:08:48.18Z</time></trkpt><trkpt lat="45.3821517" lon="10.5141983"><ele>165.0</ele><time>2026-04-27T15:08:50.179Z</time></trkpt><trkpt lat="45.3822183" lon="10.51412"><ele>165.0</ele><time>2026-04-27T15:08:52.171Z</time></trkpt><trkpt lat="45.3822733" lon="10.51406"><ele>165.0</ele><time>2026-04-27T15:08:54.172Z</time></trkpt><trkpt lat="45.38234" lon="10.5140117"><ele>164.6</ele><time>2026-04-27T15:08:56.177Z</time></trkpt><trkpt lat="45.3824283" lon="10.5139483"><ele>164.2</ele><time>2026-04-27T15:08:58.175Z</time></trkpt><trkpt lat="45.3825167" lon="10.51391"><ele>163.8</ele><time>2026-04-27T15:09:00.172Z</time></trkpt><trkpt lat="45.38262" lon="10.513895"><ele>163.4</ele><time>2026-04-27T15:09:02.179Z</time></trkpt><trkpt lat="45.3827233" lon="10.5138983"><ele>163.0</ele><time>2026-04-27T15:09:04.177Z</time></trkpt><trkpt lat="45.382815" lon="10.5139383"><ele>163.0</ele><time>2026-04-27T15:09:06.174Z</time></trkpt><trkpt lat="45.3828583" lon="10.51403"><ele>163.0</ele><time>2026-04-27T15:09:09.17Z</time></trkpt><trkpt lat="45.382915" lon="10.5141267"><ele>163.0</ele><time>2026-04-27T15:09:12.17Z</time></trkpt><trkpt lat="45.3829233" lon="10.514235"><ele>163.0</ele><time>2026-04-27T15:09:14.177Z</time></trkpt><trkpt lat="45.3829533" lon="10.514315"><ele>163.0</ele><time>2026-04-27T15:09:17.169Z</time></trkpt><trkpt lat="45.38299" lon="10.5144033"><ele>163.0</ele><time>2026-04-27T15:09:20.177Z</time></trkpt><trkpt lat="45.3830283" lon="10.514495"><ele>163.66666666666669</ele><time>2026-04-27T15:09:24.179Z</time></trkpt><trkpt lat="45.3831517" lon="10.51451"><ele>164.33333333333334</ele><time>2026-04-27T15:09:43.172Z</time></trkpt><trkpt lat="45.38322" lon="10.514425"><ele>165.0</ele><time>2026-04-27T15:09:46.17Z</time></trkpt><trkpt lat="45.3832833" lon="10.5143683"><ele>165.66666666666666</ele><time>2026-04-27T15:09:51.174Z</time></trkpt><trkpt lat="45.3833433" lon="10.5143083"><ele>166.33333333333331</ele><time>2026-04-27T15:09:53.173Z</time></trkpt><trkpt lat="45.383405" lon="10.5142517"><ele>167.0</ele><time>2026-04-27T15:09:56.179Z</time></trkpt><trkpt lat="45.3834833" lon="10.51418"><ele>167.0</ele><time>2026-04-27T15:09:58.177Z</time></trkpt><trkpt lat="45.3835617" lon="10.5141"><ele>167.0</ele><time>2026-04-27T15:10:00.174Z</time></trkpt><trkpt lat="45.3836233" lon="10.514035"><ele>167.0</ele><time>2026-04-27T15:10:02.174Z</time></trkpt><trkpt lat="45.3836933" lon="10.5139867"><ele>167.0</ele><time>2026-04-27T15:10:04.175Z</time></trkpt><trkpt lat="45.3837567" lon="10.5138733"><ele>167.0</ele><time>2026-04-27T15:10:06.173Z</time></trkpt><trkpt lat="45.3838217" lon="10.5138"><ele>167.0</ele><time>2026-04-27T15:10:08.181Z</time></trkpt><trkpt lat="45.3839083" lon="10.5137283"><ele>167.33333333333331</ele><time>2026-04-27T15:10:10.178Z</time></trkpt><trkpt lat="45.3839633" lon="10.5136817"><ele>167.66666666666666</ele><time>2026-04-27T15:10:11.177Z</time></trkpt><trkpt lat="45.38402" lon="10.513625"><ele>168.0</ele><time>2026-04-27T15:10:12.177Z</time></trkpt><trkpt lat="45.384085" lon="10.51353"><ele>168.33333333333334</ele><time>2026-04-27T15:10:14.179Z</time></trkpt><trkpt lat="45.38414" lon="10.5134817"><ele>168.66666666666669</ele><time>2026-04-27T15:10:18.18Z</time></trkpt><trkpt lat="45.38415" lon="10.5133517"><ele>169.0</ele><time>2026-04-27T15:10:27.17Z</time></trkpt><trkpt lat="45.384135" lon="10.5131633"><ele>169.0</ele><time>2026-04-27T15:10:38.173Z</time></trkpt><trkpt lat="45.3841333" lon="10.5130117"><ele>169.0</ele><time>2026-04-27T15:10:44.172Z</time></trkpt><trkpt lat="45.3841067" lon="10.5129"><ele>169.0</ele><time>2026-04-27T15:10:47.17Z</time></trkpt><trkpt lat="45.3840883" lon="10.5127833"><ele>169.0</ele><time>2026-04-27T15:10:50.176Z</time></trkpt><trkpt lat="45.38408" lon="10.5126917"><ele>169.0</ele><time>2026-04-27T15:10:52.171Z</time></trkpt><trkpt lat="45.384075" lon="10.5125967"><ele>169.0</ele><time>2026-04-27T15:10:54.177Z</time></trkpt><trkpt lat="45.3841" lon="10.5124967"><ele>169.66666666666669</ele><time>2026-04-27T15:10:56.18Z</time></trkpt><trkpt lat="45.3841183" lon="10.5123733"><ele>170.33333333333334</ele><time>2026-04-27T15:10:59.183Z</time></trkpt><trkpt lat="45.3841133" lon="10.512275"><ele>171.0</ele><time>2026-04-27T15:11:01.173Z</time></trkpt><trkpt lat="45.3841333" lon="10.5121633"><ele>171.66666666666666</ele><time>2026-04-27T15:11:04.173Z</time></trkpt><trkpt lat="45.3841633" lon="10.51208"><ele>172.33333333333331</ele><time>2026-04-27T15:11:07.178Z</time></trkpt><trkpt lat="45.38418" lon="10.5118967"><ele>173.0</ele><time>2026-04-27T15:11:13.179Z</time></trkpt><trkpt lat="45.38419" lon="10.5118033"><ele>174.0</ele><time>2026-04-27T15:11:15.174Z</time></trkpt><trkpt lat="45.384215" lon="10.5116867"><ele>175.0</ele><time>2026-04-27T15:11:18.177Z</time></trkpt><trkpt lat="45.384235" lon="10.5115933"><ele>176.0</ele><time>2026-04-27T15:11:21.169Z</time></trkpt><trkpt lat="45.3842617" lon="10.5115"><ele>177.0</ele><time>2026-04-27T15:11:24.174Z</time></trkpt><trkpt lat="45.384305" lon="10.5114167"><ele>178.0</ele><time>2026-04-27T15:11:26.169Z</time></trkpt><trkpt lat="45.38436" lon="10.5113567"><ele>179.0</ele><time>2026-04-27T15:11:28.174Z</time></trkpt><trkpt lat="45.3843633" lon="10.5112633"><ele>180.0</ele><time>2026-04-27T15:11:30.181Z</time></trkpt><trkpt lat="45.3844417" lon="10.5110517"><ele>180.8</ele><time>2026-04-27T15:11:40.178Z</time></trkpt><trkpt lat="45.38451" lon="10.5109383"><ele>181.6</ele><time>2026-04-27T15:11:44.17Z</time></trkpt><trkpt lat="45.3845633" lon="10.51086"><ele>182.39999999999998</ele><time>2026-04-27T15:11:47.173Z</time></trkpt><trkpt lat="45.3846383" lon="10.5107683"><ele>183.2</ele><time>2026-04-27T15:11:50.172Z</time></trkpt><trkpt lat="45.3847" lon="10.5106967"><ele>184.0</ele><time>2026-04-27T15:11:52.172Z</time></trkpt><trkpt lat="45.38484" lon="10.51052"><ele>184.5</ele><time>2026-04-27T15:12:00.174Z</time></trkpt><trkpt lat="45.384925" lon="10.5104583"><ele>185.0</ele><time>2026-04-27T15:12:02.173Z</time></trkpt><trkpt lat="45.384985" lon="10.5104133"><ele>185.5</ele><time>2026-04-27T15:12:04.174Z</time></trkpt><trkpt lat="45.3850617" lon="10.5103617"><ele>186.0</ele><time>2026-04-27T15:12:06.18Z</time></trkpt><trkpt lat="45.3851383" lon="10.5103083"><ele>186.5</ele><time>2026-04-27T15:12:09.171Z</time></trkpt><trkpt lat="45.385195" lon="10.5102417"><ele>187.0</ele><time>2026-04-27T15:12:12.17Z</time></trkpt><trkpt lat="45.3853167" lon="10.51018"><ele>187.0</ele><time>2026-04-27T15:12:20.173Z</time></trkpt><trkpt lat="45.3853833" lon="10.51022"><ele>187.0</ele><time>2026-04-27T15:12:28.166Z</time></trkpt><trkpt lat="45.38545" lon="10.5101917"><ele>187.0</ele><time>2026-04-27T15:12:31.174Z</time></trkpt><trkpt lat="45.3854967" lon="10.5101233"><ele>187.0</ele><time>2026-04-27T15:12:33.171Z</time></trkpt><trkpt lat="45.3855333" lon="10.5100417"><ele>187.0</ele><time>2026-04-27T15:12:35.175Z</time></trkpt><trkpt lat="45.3855917" lon="10.5099467"><ele>187.0</ele><time>2026-04-27T15:12:37.17Z</time></trkpt><trkpt lat="45.3856817" lon="10.5098883"><ele>184.0</ele><time>2026-04-27T15:12:39.174Z</time></trkpt><trkpt lat="45.38582" lon="10.5098033"><ele>181.0</ele><time>2026-04-27T15:12:47.184Z</time></trkpt><trkpt lat="45.38591" lon="10.50974"><ele>178.0</ele><time>2026-04-27T15:12:55.173Z</time></trkpt><trkpt lat="45.3859783" lon="10.509695"><ele>175.0</ele><time>2026-04-27T15:12:58.164Z</time></trkpt><trkpt lat="45.38606" lon="10.5096517"><ele>172.0</ele><time>2026-04-27T15:13:01.175Z</time></trkpt><trkpt lat="45.3861267" lon="10.5096167"><ele>170.6</ele><time>2026-04-27T15:13:05.172Z</time></trkpt><trkpt lat="45.3862067" lon="10.509555"><ele>169.2</ele><time>2026-04-27T15:13:07.188Z</time></trkpt><trkpt lat="45.3862967" lon="10.5095133"><ele>167.8</ele><time>2026-04-27T15:13:09.171Z</time></trkpt><trkpt lat="45.3863917" lon="10.5094783"><ele>166.4</ele><time>2026-04-27T15:13:11.175Z</time></trkpt><trkpt lat="45.3864717" lon="10.5094383"><ele>165.0</ele><time>2026-04-27T15:13:13.172Z</time></trkpt><trkpt lat="45.3865517" lon="10.5093933"><ele>165.0</ele><time>2026-04-27T15:13:15.171Z</time></trkpt><trkpt lat="45.3866467" lon="10.509345"><ele>165.0</ele><time>2026-04-27T15:13:17.173Z</time></trkpt><trkpt lat="45.3867517" lon="10.5092917"><ele>165.0</ele><time>2026-04-27T15:13:19.18Z</time></trkpt><trkpt lat="45.386825" lon="10.5092383"><ele>165.0</ele><time>2026-04-27T15:13:21.176Z</time></trkpt><trkpt lat="45.3869167" lon="10.5091867"><ele>165.0</ele><time>2026-04-27T15:13:23.18Z</time></trkpt><trkpt lat="45.387015" lon="10.5091367"><ele>165.0</ele><time>2026-04-27T15:13:25.179Z</time></trkpt><trkpt lat="45.3870817" lon="10.509125"><ele>165.0</ele><time>2026-04-27T15:13:26.171Z</time></trkpt><trkpt lat="45.387165" lon="10.5091317"><ele>165.0</ele><time>2026-04-27T15:13:27.173Z</time></trkpt><trkpt lat="45.387265" lon="10.5091617"><ele>165.0</ele><time>2026-04-27T15:13:29.178Z</time></trkpt><trkpt lat="45.3873783" lon="10.5091933"><ele>165.0</ele><time>2026-04-27T15:13:31.172Z</time></trkpt><trkpt lat="45.3874783" lon="10.509205"><ele>163.8</ele><time>2026-04-27T15:13:33.175Z</time></trkpt><trkpt lat="45.3875883" lon="10.509235"><ele>162.6</ele><time>2026-04-27T15:13:35.176Z</time></trkpt><trkpt lat="45.3877033" lon="10.5092433"><ele>161.4</ele><time>2026-04-27T15:13:37.176Z</time></trkpt><trkpt lat="45.3878117" lon="10.509255"><ele>160.2</ele><time>2026-04-27T15:13:39.177Z</time></trkpt><trkpt lat="45.3879133" lon="10.509275"><ele>159.0</ele><time>2026-04-27T15:13:41.176Z</time></trkpt><trkpt lat="45.3880117" lon="10.50929"><ele>159.0</ele><time>2026-04-27T15:13:43.175Z</time></trkpt><trkpt lat="45.3881167" lon="10.509285"><ele>159.0</ele><time>2026-04-27T15:13:45.174Z</time></trkpt><trkpt lat="45.388225" lon="10.509295"><ele>159.0</ele><time>2026-04-27T15:13:47.17Z</time></trkpt><trkpt lat="45.38832" lon="10.5092817"><ele>159.0</ele><time>2026-04-27T15:13:49.18Z</time></trkpt><trkpt lat="45.3884" lon="10.509235"><ele>159.0</ele><time>2026-04-27T15:13:51.171Z</time></trkpt><trkpt lat="45.3884783" lon="10.5091817"><ele>159.0</ele><time>2026-04-27T15:13:53.178Z</time></trkpt><trkpt lat="45.3885567" lon="10.50911"><ele>159.0</ele><time>2026-04-27T15:13:55.174Z</time></trkpt><trkpt lat="45.3886417" lon="10.5090267"><ele>159.0</ele><time>2026-04-27T15:13:57.17Z</time></trkpt><trkpt lat="45.38873" lon="10.50895"><ele>159.0</ele><time>2026-04-27T15:13:59.173Z</time></trkpt><trkpt lat="45.3888167" lon="10.50887"><ele>159.0</ele><time>2026-04-27T15:14:01.178Z</time></trkpt><trkpt lat="45.38889" lon="10.5087933"><ele>158.33333333333334</ele><time>2026-04-27T15:14:03.179Z</time></trkpt><trkpt lat="45.3889483" lon="10.5087567"><ele>157.66666666666666</ele><time>2026-04-27T15:14:04.174Z</time></trkpt><trkpt lat="45.3890483" lon="10.50868"><ele>157.0</ele><time>2026-04-27T15:14:06.187Z</time></trkpt><trkpt lat="45.3891433" lon="10.508605"><ele>156.33333333333331</ele><time>2026-04-27T15:14:08.181Z</time></trkpt><trkpt lat="45.3892083" lon="10.5085517"><ele>155.66666666666666</ele><time>2026-04-27T15:14:10.177Z</time></trkpt><trkpt lat="45.38928" lon="10.5085"><ele>155.0</ele><time>2026-04-27T15:14:12.175Z</time></trkpt><trkpt lat="45.389375" lon="10.508475"><ele>155.16666666666666</ele><time>2026-04-27T15:14:14.179Z</time></trkpt><trkpt lat="45.38945" lon="10.5084067"><ele>155.33333333333331</ele><time>2026-04-27T15:14:17.179Z</time></trkpt><trkpt lat="45.38951" lon="10.508305"><ele>155.5</ele><time>2026-04-27T15:14:21.175Z</time></trkpt><trkpt lat="45.3895867" lon="10.5082217"><ele>155.66666666666666</ele><time>2026-04-27T15:14:24.181Z</time></trkpt><trkpt lat="45.3896433" lon="10.5081783"><ele>155.83333333333334</ele><time>2026-04-27T15:14:26.184Z</time></trkpt><trkpt lat="45.38971" lon="10.5081367"><ele>156.0</ele><time>2026-04-27T15:14:28.177Z</time></trkpt><trkpt lat="45.3897683" lon="10.5081017"><ele>156.0</ele><time>2026-04-27T15:14:30.174Z</time></trkpt><trkpt lat="45.3898233" lon="10.508025"><ele>156.0</ele><time>2026-04-27T15:14:33.175Z</time></trkpt><trkpt lat="45.3898767" lon="10.5079717"><ele>156.0</ele><time>2026-04-27T15:14:35.171Z</time></trkpt><trkpt lat="45.3899433" lon="10.50792"><ele>156.0</ele><time>2026-04-27T15:14:37.178Z</time></trkpt><trkpt lat="45.3899983" lon="10.507855"><ele>156.0</ele><time>2026-04-27T15:14:39.175Z</time></trkpt><trkpt lat="45.3900617" lon="10.507795"><ele>156.0</ele><time>2026-04-27T15:14:41.17Z</time></trkpt><trkpt lat="45.390125" lon="10.5077333"><ele>156.0</ele><time>2026-04-27T15:14:43.168Z</time></trkpt><trkpt lat="45.3901767" lon="10.507665"><ele>155.14285714285714</ele><time>2026-04-27T15:14:45.171Z</time></trkpt><trkpt lat="45.3902317" lon="10.5076183"><ele>154.28571428571428</ele><time>2026-04-27T15:14:47.172Z</time></trkpt><trkpt lat="45.3902833" lon="10.5075583"><ele>153.42857142857142</ele><time>2026-04-27T15:14:50.178Z</time></trkpt><trkpt lat="45.3903233" lon="10.5074817"><ele>152.57142857142856</ele><time>2026-04-27T15:14:57.176Z</time></trkpt><trkpt lat="45.390395" lon="10.5074617"><ele>151.71428571428572</ele><time>2026-04-27T15:15:03.173Z</time></trkpt><trkpt lat="45.3904717" lon="10.507495"><ele>150.85714285714283</ele><time>2026-04-27T15:15:07.172Z</time></trkpt><trkpt lat="45.390545" lon="10.5075017"><ele>150.0</ele><time>2026-04-27T15:15:13.173Z</time></trkpt><trkpt lat="45.39061" lon="10.50747"><ele>150.0</ele><time>2026-04-27T15:15:16.172Z</time></trkpt><trkpt lat="45.3906517" lon="10.50739"><ele>150.0</ele><time>2026-04-27T15:15:20.18Z</time></trkpt><trkpt lat="45.3906683" lon="10.5072983"><ele>150.0</ele><time>2026-04-27T15:15:23.178Z</time></trkpt><trkpt lat="45.3907033" lon="10.5072183"><ele>150.0</ele><time>2026-04-27T15:15:26.179Z</time></trkpt><trkpt lat="45.3907517" lon="10.5071217"><ele>150.0</ele><time>2026-04-27T15:15:29.172Z</time></trkpt><trkpt lat="45.3907883" lon="10.5070117"><ele>150.0</ele><time>2026-04-27T15:15:32.177Z</time></trkpt><trkpt lat="45.3908067" lon="10.506895"><ele>150.5</ele><time>2026-04-27T15:15:35.177Z</time></trkpt><trkpt lat="45.39083" lon="10.506765"><ele>151.0</ele><time>2026-04-27T15:15:38.175Z</time></trkpt><trkpt lat="45.3908567" lon="10.5066433"><ele>151.5</ele><time>2026-04-27T15:15:41.18Z</time></trkpt><trkpt lat="45.3908867" lon="10.5065567"><ele>152.0</ele><time>2026-04-27T15:15:43.177Z</time></trkpt><trkpt lat="45.3909383" lon="10.5064883"><ele>152.5</ele><time>2026-04-27T15:15:45.174Z</time></trkpt><trkpt lat="45.3909967" lon="10.506395"><ele>153.0</ele><time>2026-04-27T15:15:48.178Z</time></trkpt><trkpt lat="45.3910467" lon="10.5063233"><ele>153.33333333333334</ele><time>2026-04-27T15:15:50.179Z</time></trkpt><trkpt lat="45.39109" lon="10.506235"><ele>153.66666666666666</ele><time>2026-04-27T15:15:52.173Z</time></trkpt><trkpt lat="45.391155" lon="10.506165"><ele>154.0</ele><time>2026-04-27T15:15:55.172Z</time></trkpt><trkpt lat="45.3912367" lon="10.50611"><ele>154.33333333333331</ele><time>2026-04-27T15:15:58.17Z</time></trkpt><trkpt lat="45.391285" lon="10.5060333"><ele>154.66666666666666</ele><time>2026-04-27T15:16:00.177Z</time></trkpt><trkpt lat="45.3913367" lon="10.5058933"><ele>155.0</ele><time>2026-04-27T15:16:03.174Z</time></trkpt><trkpt lat="45.3913567" lon="10.5057983"><ele>152.6</ele><time>2026-04-27T15:16:04.168Z</time></trkpt><trkpt lat="45.3913817" lon="10.50569"><ele>150.2</ele><time>2026-04-27T15:16:05.171Z</time></trkpt><trkpt lat="45.391405" lon="10.5055667"><ele>147.8</ele><time>2026-04-27T15:16:06.169Z</time></trkpt><trkpt lat="45.3914217" lon="10.5054583"><ele>145.4</ele><time>2026-04-27T15:16:07.178Z</time></trkpt><trkpt lat="45.3914533" lon="10.5053033"><ele>143.0</ele><time>2026-04-27T15:16:08.176Z</time></trkpt><trkpt lat="45.3915" lon="10.505155"><ele>142.5</ele><time>2026-04-27T15:16:09.167Z</time></trkpt><trkpt lat="45.3915433" lon="10.5049717"><ele>142.0</ele><time>2026-04-27T15:16:10.172Z</time></trkpt><trkpt lat="45.39159" lon="10.5048117"><ele>141.5</ele><time>2026-04-27T15:16:11.177Z</time></trkpt><trkpt lat="45.3916333" lon="10.5046383"><ele>141.0</ele><time>2026-04-27T15:16:12.173Z</time></trkpt><trkpt lat="45.3916683" lon="10.504435"><ele>140.25</ele><time>2026-04-27T15:16:13.177Z</time></trkpt><trkpt lat="45.3917" lon="10.5042567"><ele>139.5</ele><time>2026-04-27T15:16:14.179Z</time></trkpt><trkpt lat="45.3917417" lon="10.5040817"><ele>138.75</ele><time>2026-04-27T15:16:15.184Z</time></trkpt><trkpt lat="45.391765" lon="10.5039133"><ele>138.0</ele><time>2026-04-27T15:16:16.174Z</time></trkpt><trkpt lat="45.39178" lon="10.5037667"><ele>137.4</ele><time>2026-04-27T15:16:17.178Z</time></trkpt><trkpt lat="45.3917983" lon="10.50361"><ele>136.8</ele><time>2026-04-27T15:16:18.178Z</time></trkpt><trkpt lat="45.3918217" lon="10.50348"><ele>136.2</ele><time>2026-04-27T15:16:19.169Z</time></trkpt><trkpt lat="45.3918583" lon="10.5033683"><ele>135.6</ele><time>2026-04-27T15:16:20.177Z</time></trkpt><trkpt lat="45.3919133" lon="10.5032467"><ele>135.0</ele><time>2026-04-27T15:16:21.178Z</time></trkpt><trkpt lat="45.3919567" lon="10.5031367"><ele>135.0</ele><time>2026-04-27T15:16:22.174Z</time></trkpt><trkpt lat="45.3919933" lon="10.5030283"><ele>135.0</ele><time>2026-04-27T15:16:23.176Z</time></trkpt><trkpt lat="45.3920333" lon="10.5029217"><ele>135.0</ele><time>2026-04-27T15:16:24.175Z</time></trkpt><trkpt lat="45.3920767" lon="10.502825"><ele>135.0</ele><time>2026-04-27T15:16:25.172Z</time></trkpt><trkpt lat="45.3921367" lon="10.5027367"><ele>135.0</ele><time>2026-04-27T15:16:26.169Z</time></trkpt><trkpt lat="45.3922133" lon="10.50266"><ele>135.0</ele><time>2026-04-27T15:16:27.175Z</time></trkpt><trkpt lat="45.3922967" lon="10.5025983"><ele>132.8</ele><time>2026-04-27T15:16:28.178Z</time></trkpt><trkpt lat="45.392385" lon="10.50254"><ele>130.6</ele><time>2026-04-27T15:16:29.176Z</time></trkpt><trkpt lat="45.39247" lon="10.5024883"><ele>128.4</ele><time>2026-04-27T15:16:30.172Z</time></trkpt><trkpt lat="45.3925583" lon="10.5024383"><ele>126.2</ele><time>2026-04-27T15:16:31.171Z</time></trkpt><trkpt lat="45.3926467" lon="10.5023883"><ele>124.0</ele><time>2026-04-27T15:16:32.177Z</time></trkpt><trkpt lat="45.39274" lon="10.502335"><ele>124.00000000000001</ele><time>2026-04-27T15:16:33.178Z</time></trkpt><trkpt lat="45.3928167" lon="10.5022833"><ele>124.0</ele><time>2026-04-27T15:16:34.176Z</time></trkpt><trkpt lat="45.3928767" lon="10.5022317"><ele>124.0</ele><time>2026-04-27T15:16:35.173Z</time></trkpt><trkpt lat="45.39294" lon="10.5021733"><ele>124.0</ele><time>2026-04-27T15:16:36.181Z</time></trkpt><trkpt lat="45.3929967" lon="10.5021317"><ele>124.00000000000001</ele><time>2026-04-27T15:16:37.179Z</time></trkpt><trkpt lat="45.3930817" lon="10.5020667"><ele>124.0</ele><time>2026-04-27T15:16:38.182Z</time></trkpt><trkpt lat="45.3931717" lon="10.5020067"><ele>122.50000000000001</ele><time>2026-04-27T15:16:39.172Z</time></trkpt><trkpt lat="45.39325" lon="10.5019517"><ele>121.0</ele><time>2026-04-27T15:16:40.18Z</time></trkpt><trkpt lat="45.393325" lon="10.501905"><ele>119.5</ele><time>2026-04-27T15:16:41.171Z</time></trkpt><trkpt lat="45.39339" lon="10.5018617"><ele>118.0</ele><time>2026-04-27T15:16:42.179Z</time></trkpt><trkpt lat="45.3934833" lon="10.5018067"><ele>116.50000000000001</ele><time>2026-04-27T15:16:44.178Z</time></trkpt><trkpt lat="45.3934633" lon="10.5017067"><ele>115.0</ele><time>2026-04-27T15:16:51.17Z</time></trkpt><trkpt lat="45.393395" lon="10.5016717"><ele>115.00000000000001</ele><time>2026-04-27T15:16:53.174Z</time></trkpt><trkpt lat="45.3933383" lon="10.5016167"><ele>115.0</ele><time>2026-04-27T15:16:55.168Z</time></trkpt><trkpt lat="45.3932667" lon="10.50154"><ele>115.0</ele><time>2026-04-27T15:16:58.174Z</time></trkpt><trkpt lat="45.3931833" lon="10.5014783"><ele>115.0</ele><time>2026-04-27T15:17:01.181Z</time></trkpt><trkpt lat="45.3931267" lon="10.5014317"><ele>115.00000000000001</ele><time>2026-04-27T15:17:03.177Z</time></trkpt><trkpt lat="45.3930433" lon="10.5013733"><ele>115.0</ele><time>2026-04-27T15:17:06.18Z</time></trkpt><trkpt lat="45.3929667" lon="10.5013033"><ele>115.99999999999999</ele><time>2026-04-27T15:17:09.179Z</time></trkpt><trkpt lat="45.392905" lon="10.50125"><ele>117.0</ele><time>2026-04-27T15:17:11.176Z</time></trkpt><trkpt lat="45.3928517" lon="10.5011983"><ele>117.99999999999999</ele><time>2026-04-27T15:17:13.172Z</time></trkpt><trkpt lat="45.3928" lon="10.5011317"><ele>118.99999999999999</ele><time>2026-04-27T15:17:15.178Z</time></trkpt><trkpt lat="45.392735" lon="10.501025"><ele>120.0</ele><time>2026-04-27T15:17:18.179Z</time></trkpt><trkpt lat="45.3926967" lon="10.5009533"><ele>120.99999999999999</ele><time>2026-04-27T15:17:20.177Z</time></trkpt><trkpt lat="45.3926367" lon="10.5009167"><ele>121.99999999999999</ele><time>2026-04-27T15:17:23.172Z</time></trkpt><trkpt lat="45.3925733" lon="10.5009083"><ele>121.99999999999999</ele><time>2026-04-27T15:17:26.181Z</time></trkpt><trkpt lat="45.3924983" lon="10.5009083"><ele>122.0</ele><time>2026-04-27T15:17:30.182Z</time></trkpt><trkpt lat="45.392415" lon="10.500935"><ele>122.0</ele><time>2026-04-27T15:17:34.183Z</time></trkpt><trkpt lat="45.3923717" lon="10.5008667"><ele>122.0</ele><time>2026-04-27T15:17:40.177Z</time></trkpt><trkpt lat="45.3923183" lon="10.500805"><ele>121.99999999999999</ele><time>2026-04-27T15:17:44.169Z</time></trkpt><trkpt lat="45.3922783" lon="10.5007083"><ele>122.0</ele><time>2026-04-27T15:17:48.178Z</time></trkpt><trkpt lat="45.3922183" lon="10.500535"><ele>121.49999999999999</ele><time>2026-04-27T15:17:58.172Z</time></trkpt><trkpt lat="45.3922117" lon="10.5004083"><ele>121.0</ele><time>2026-04-27T15:18:03.172Z</time></trkpt><trkpt lat="45.3921917" lon="10.500305"><ele>120.5</ele><time>2026-04-27T15:18:06.172Z</time></trkpt><trkpt lat="45.3921833" lon="10.500195"><ele>120.0</ele><time>2026-04-27T15:18:10.175Z</time></trkpt><trkpt lat="45.392185" lon="10.5000483"><ele>119.49999999999999</ele><time>2026-04-27T15:18:15.17Z</time></trkpt><trkpt lat="45.392185" lon="10.4999367"><ele>119.0</ele><time>2026-04-27T15:18:18.183Z</time></trkpt><trkpt lat="45.3922033" lon="10.4998267"><ele>118.99999999999999</ele><time>2026-04-27T15:18:21.169Z</time></trkpt><trkpt lat="45.3921883" lon="10.4997133"><ele>119.0</ele><time>2026-04-27T15:18:23.176Z</time></trkpt><trkpt lat="45.392185" lon="10.499575"><ele>119.0</ele><time>2026-04-27T15:18:25.172Z</time></trkpt><trkpt lat="45.39219" lon="10.4994817"><ele>119.0</ele><time>2026-04-27T15:18:27.174Z</time></trkpt><trkpt lat="45.39223" lon="10.499395"><ele>118.99999999999999</ele><time>2026-04-27T15:18:30.18Z</time></trkpt><trkpt lat="45.3922917" lon="10.4993183"><ele>119.0</ele><time>2026-04-27T15:18:33.175Z</time></trkpt><trkpt lat="45.3923233" lon="10.4992017"><ele>120.99999999999999</ele><time>2026-04-27T15:18:36.171Z</time></trkpt><trkpt lat="45.392325" lon="10.49904"><ele>123.0</ele><time>2026-04-27T15:18:39.179Z</time></trkpt><trkpt lat="45.3923567" lon="10.4989483"><ele>125.0</ele><time>2026-04-27T15:18:42.163Z</time></trkpt><trkpt lat="45.392415" lon="10.498855"><ele>127.0</ele><time>2026-04-27T15:18:45.177Z</time></trkpt><trkpt lat="45.3924717" lon="10.4987883"><ele>129.0</ele><time>2026-04-27T15:18:47.171Z</time></trkpt><trkpt lat="45.392545" lon="10.49875"><ele>131.0</ele><time>2026-04-27T15:18:49.176Z</time></trkpt><trkpt lat="45.3925717" lon="10.4986683"><ele>131.0</ele><time>2026-04-27T15:18:53.17Z</time></trkpt><trkpt lat="45.392525" lon="10.4985983"><ele>131.0</ele><time>2026-04-27T15:18:57.174Z</time></trkpt><trkpt lat="45.39246" lon="10.4985317"><ele>131.0</ele><time>2026-04-27T15:19:01.169Z</time></trkpt><trkpt lat="45.3923967" lon="10.498475"><ele>131.0</ele><time>2026-04-27T15:19:04.171Z</time></trkpt><trkpt lat="45.39234" lon="10.4983717"><ele>131.0</ele><time>2026-04-27T15:19:07.168Z</time></trkpt><trkpt lat="45.392305" lon="10.4982717"><ele>131.0</ele><time>2026-04-27T15:19:10.176Z</time></trkpt><trkpt lat="45.392275" lon="10.49817"><ele>131.0</ele><time>2026-04-27T15:19:13.173Z</time></trkpt><trkpt lat="45.39226" lon="10.4980483"><ele>131.0</ele><time>2026-04-27T15:19:16.169Z</time></trkpt><trkpt lat="45.3922567" lon="10.49794"><ele>131.0</ele><time>2026-04-27T15:19:18.171Z</time></trkpt><trkpt lat="45.39225" lon="10.4978333"><ele>131.0</ele><time>2026-04-27T15:19:20.179Z</time></trkpt><trkpt lat="45.39223" lon="10.4977183"><ele>131.0</ele><time>2026-04-27T15:19:22.18Z</time></trkpt><trkpt lat="45.3921917" lon="10.4976417"><ele>131.0</ele><time>2026-04-27T15:19:24.17Z</time></trkpt><trkpt lat="45.392155" lon="10.497555"><ele>131.33333333333331</ele><time>2026-04-27T15:19:26.16Z</time></trkpt><trkpt lat="45.3921117" lon="10.497475"><ele>131.66666666666666</ele><time>2026-04-27T15:19:28.173Z</time></trkpt><trkpt lat="45.3920533" lon="10.4973967"><ele>132.0</ele><time>2026-04-27T15:19:30.174Z</time></trkpt><trkpt lat="45.391995" lon="10.4973067"><ele>132.33333333333334</ele><time>2026-04-27T15:19:32.175Z</time></trkpt><trkpt lat="45.3919417" lon="10.4972267"><ele>132.66666666666669</ele><time>2026-04-27T15:19:34.173Z</time></trkpt><trkpt lat="45.3918683" lon="10.4971583"><ele>133.0</ele><time>2026-04-27T15:19:37.174Z</time></trkpt><trkpt lat="45.391805" lon="10.497115"><ele>133.0</ele><time>2026-04-27T15:19:39.178Z</time></trkpt><trkpt lat="45.3917133" lon="10.4970933"><ele>133.0</ele><time>2026-04-27T15:19:41.17Z</time></trkpt><trkpt lat="45.3916167" lon="10.497085"><ele>133.0</ele><time>2026-04-27T15:19:43.176Z</time></trkpt><trkpt lat="45.391515" lon="10.4970567"><ele>133.0</ele><time>2026-04-27T15:19:45.171Z</time></trkpt><trkpt lat="45.3913967" lon="10.49704"><ele>133.0</ele><time>2026-04-27T15:19:47.171Z</time></trkpt><trkpt lat="45.3912767" lon="10.4970217"><ele>131.16666666666669</ele><time>2026-04-27T15:19:49.177Z</time></trkpt><trkpt lat="45.391165" lon="10.49701"><ele>129.33333333333334</ele><time>2026-04-27T15:19:51.18Z</time></trkpt><trkpt lat="45.3910683" lon="10.4970017"><ele>127.5</ele><time>2026-04-27T15:19:53.176Z</time></trkpt><trkpt lat="45.39102" lon="10.49694"><ele>125.66666666666666</ele><time>2026-04-27T15:19:58.177Z</time></trkpt><trkpt lat="45.3910867" lon="10.49693"><ele>123.83333333333333</ele><time>2026-04-27T15:20:02.178Z</time></trkpt><trkpt lat="45.3911783" lon="10.4969033"><ele>122.0</ele><time>2026-04-27T15:20:05.17Z</time></trkpt><trkpt lat="45.3912433" lon="10.496895"><ele>121.99999999999999</ele><time>2026-04-27T15:20:07.172Z</time></trkpt><trkpt lat="45.391305" lon="10.4968483"><ele>122.0</ele><time>2026-04-27T15:20:12.178Z</time></trkpt><trkpt lat="45.3913683" lon="10.4968133"><ele>122.0</ele><time>2026-04-27T15:20:18.183Z</time></trkpt><trkpt lat="45.3913983" lon="10.49672"><ele>122.0</ele><time>2026-04-27T15:20:23.171Z</time></trkpt><trkpt lat="45.3914133" lon="10.49661"><ele>121.99999999999999</ele><time>2026-04-27T15:20:26.182Z</time></trkpt><trkpt lat="45.39141" lon="10.4964733"><ele>122.0</ele><time>2026-04-27T15:20:29.169Z</time></trkpt><trkpt lat="45.3914267" lon="10.4963583"><ele>122.85714285714283</ele><time>2026-04-27T15:20:32.17Z</time></trkpt><trkpt lat="45.3914383" lon="10.4962417"><ele>123.71428571428571</ele><time>2026-04-27T15:20:34.184Z</time></trkpt><trkpt lat="45.3914467" lon="10.49615"><ele>124.57142857142856</ele><time>2026-04-27T15:20:36.177Z</time></trkpt><trkpt lat="45.3914467" lon="10.49605"><ele>125.42857142857142</ele><time>2026-04-27T15:20:39.17Z</time></trkpt><trkpt lat="45.39143" lon="10.4959517"><ele>126.28571428571428</ele><time>2026-04-27T15:20:43.179Z</time></trkpt><trkpt lat="45.3913783" lon="10.4958983"><ele>127.14285714285714</ele><time>2026-04-27T15:20:46.176Z</time></trkpt><trkpt lat="45.39132" lon="10.4958633"><ele>128.0</ele><time>2026-04-27T15:20:48.172Z</time></trkpt><trkpt lat="45.391255" lon="10.4957983"><ele>129.0</ele><time>2026-04-27T15:20:52.169Z</time></trkpt><trkpt lat="45.3911783" lon="10.4957433"><ele>130.0</ele><time>2026-04-27T15:20:55.169Z</time></trkpt><trkpt lat="45.3911217" lon="10.4957"><ele>131.0</ele><time>2026-04-27T15:20:57.17Z</time></trkpt><trkpt lat="45.3910367" lon="10.4956483"><ele>132.0</ele><time>2026-04-27T15:21:00.176Z</time></trkpt><trkpt lat="45.3909567" lon="10.495615"><ele>133.0</ele><time>2026-04-27T15:21:03.173Z</time></trkpt><trkpt lat="45.3908967" lon="10.4955867"><ele>134.0</ele><time>2026-04-27T15:21:05.173Z</time></trkpt><trkpt lat="45.3908333" lon="10.495555"><ele>134.0</ele><time>2026-04-27T15:21:07.172Z</time></trkpt><trkpt lat="45.3907683" lon="10.495575"><ele>134.0</ele><time>2026-04-27T15:21:09.173Z</time></trkpt><trkpt lat="45.390705" lon="10.4955867"><ele>134.0</ele><time>2026-04-27T15:21:11.177Z</time></trkpt><trkpt lat="45.3906317" lon="10.4956283"><ele>134.0</ele><time>2026-04-27T15:21:13.173Z</time></trkpt><trkpt lat="45.3905683" lon="10.4956417"><ele>134.0</ele><time>2026-04-27T15:21:15.17Z</time></trkpt><trkpt lat="45.3904833" lon="10.4956783"><ele>134.0</ele><time>2026-04-27T15:21:18.171Z</time></trkpt><trkpt lat="45.3904033" lon="10.495695"><ele>134.0</ele><time>2026-04-27T15:21:20.168Z</time></trkpt><trkpt lat="45.3903183" lon="10.4957467"><ele>134.16666666666666</ele><time>2026-04-27T15:21:22.168Z</time></trkpt><trkpt lat="45.3902417" lon="10.49576"><ele>134.33333333333331</ele><time>2026-04-27T15:21:24.168Z</time></trkpt><trkpt lat="45.3901633" lon="10.49576"><ele>134.5</ele><time>2026-04-27T15:21:26.176Z</time></trkpt><trkpt lat="45.390075" lon="10.49569"><ele>134.66666666666666</ele><time>2026-04-27T15:21:29.171Z</time></trkpt><trkpt lat="45.390025" lon="10.495625"><ele>134.83333333333334</ele><time>2026-04-27T15:21:33.167Z</time></trkpt><trkpt lat="45.390005" lon="10.49551"><ele>135.0</ele><time>2026-04-27T15:21:37.176Z</time></trkpt><trkpt lat="45.3899833" lon="10.4954183"><ele>135.0</ele><time>2026-04-27T15:21:41.178Z</time></trkpt><trkpt lat="45.38995" lon="10.495325"><ele>135.0</ele><time>2026-04-27T15:21:46.168Z</time></trkpt><trkpt lat="45.3898983" lon="10.4952633"><ele>135.0</ele><time>2026-04-27T15:21:50.183Z</time></trkpt><trkpt lat="45.3898783" lon="10.4951517"><ele>135.0</ele><time>2026-04-27T15:21:54.171Z</time></trkpt><trkpt lat="45.3899117" lon="10.4950467"><ele>135.0</ele><time>2026-04-27T15:21:57.178Z</time></trkpt><trkpt lat="45.3899267" lon="10.4949483"><ele>135.0</ele><time>2026-04-27T15:22:00.179Z</time></trkpt><trkpt lat="45.3899467" lon="10.494845"><ele>135.0</ele><time>2026-04-27T15:22:02.175Z</time></trkpt><trkpt lat="45.389985" lon="10.4947333"><ele>135.0</ele><time>2026-04-27T15:22:04.172Z</time></trkpt><trkpt lat="45.3900333" lon="10.4946217"><ele>135.0</ele><time>2026-04-27T15:22:06.173Z</time></trkpt><trkpt lat="45.3900883" lon="10.4945083"><ele>135.0</ele><time>2026-04-27T15:22:08.177Z</time></trkpt><trkpt lat="45.3901467" lon="10.4944233"><ele>135.0</ele><time>2026-04-27T15:22:10.178Z</time></trkpt><trkpt lat="45.3902017" lon="10.4943267"><ele>135.0</ele><time>2026-04-27T15:22:12.18Z</time></trkpt><trkpt lat="45.3902633" lon="10.4942467"><ele>135.0</ele><time>2026-04-27T15:22:14.184Z</time></trkpt><trkpt lat="45.390315" lon="10.49415"><ele>134.4</ele><time>2026-04-27T15:22:16.174Z</time></trkpt><trkpt lat="45.3903667" lon="10.494045"><ele>133.8</ele><time>2026-04-27T15:22:18.18Z</time></trkpt><trkpt lat="45.3904367" lon="10.4939417"><ele>133.2</ele><time>2026-04-27T15:22:20.178Z</time></trkpt><trkpt lat="45.3905017" lon="10.4938533"><ele>132.6</ele><time>2026-04-27T15:22:22.175Z</time></trkpt><trkpt lat="45.390585" lon="10.4937617"><ele>132.0</ele><time>2026-04-27T15:22:24.168Z</time></trkpt><trkpt lat="45.3906467" lon="10.4936667"><ele>132.0</ele><time>2026-04-27T15:22:26.183Z</time></trkpt><trkpt lat="45.3907083" lon="10.4935683"><ele>132.0</ele><time>2026-04-27T15:22:28.18Z</time></trkpt><trkpt lat="45.3907667" lon="10.4934767"><ele>132.0</ele><time>2026-04-27T15:22:30.179Z</time></trkpt><trkpt lat="45.390825" lon="10.4934"><ele>132.0</ele><time>2026-04-27T15:22:32.173Z</time></trkpt><trkpt lat="45.39088" lon="10.4933183"><ele>132.0</ele><time>2026-04-27T15:22:36.177Z</time></trkpt><trkpt lat="45.3909667" lon="10.4932283"><ele>132.0</ele><time>2026-04-27T15:22:45.166Z</time></trkpt><trkpt lat="45.3908983" lon="10.4932367"><ele>132.0</ele><time>2026-04-27T15:22:57.18Z</time></trkpt><trkpt lat="45.390835" lon="10.4932283"><ele>132.0</ele><time>2026-04-27T15:22:59.179Z</time></trkpt><trkpt lat="45.39075" lon="10.4932267"><ele>132.0</ele><time>2026-04-27T15:23:02.179Z</time></trkpt><trkpt lat="45.3906883" lon="10.4933033"><ele>132.0</ele><time>2026-04-27T15:23:06.17Z</time></trkpt><trkpt lat="45.39064" lon="10.4933783"><ele>132.0</ele><time>2026-04-27T15:23:10.169Z</time></trkpt><trkpt lat="45.3907117" lon="10.4934017"><ele>132.0</ele><time>2026-04-27T15:23:14.188Z</time></trkpt><trkpt lat="45.39077" lon="10.49334"><ele>132.0</ele><time>2026-04-27T15:23:17.177Z</time></trkpt><trkpt lat="45.3908333" lon="10.4932817"><ele>132.0</ele><time>2026-04-27T15:23:20.177Z</time></trkpt><trkpt lat="45.3909067" lon="10.49325"><ele>132.0</ele><time>2026-04-27T15:23:23.178Z</time></trkpt><trkpt lat="45.3909717" lon="10.493275"><ele>132.0</ele><time>2026-04-27T15:23:26.173Z</time></trkpt><trkpt lat="45.391025" lon="10.4933533"><ele>132.0</ele><time>2026-04-27T15:23:29.179Z</time></trkpt><trkpt lat="45.3910783" lon="10.4934267"><ele>132.0</ele><time>2026-04-27T15:23:32.173Z</time></trkpt><trkpt lat="45.3911417" lon="10.4934767"><ele>132.0</ele><time>2026-04-27T15:23:35.171Z</time></trkpt><trkpt lat="45.3911817" lon="10.4935483"><ele>132.0</ele><time>2026-04-27T15:23:38.183Z</time></trkpt><trkpt lat="45.3912083" lon="10.4936383"><ele>134.33333333333334</ele><time>2026-04-27T15:23:43.17Z</time></trkpt><trkpt lat="45.3912067" lon="10.4937567"><ele>136.66666666666666</ele><time>2026-04-27T15:23:47.181Z</time></trkpt><trkpt lat="45.3911867" lon="10.4938617"><ele>139.0</ele><time>2026-04-27T15:23:51.176Z</time></trkpt><trkpt lat="45.3911583" lon="10.493965"><ele>141.33333333333331</ele><time>2026-04-27T15:23:55.169Z</time></trkpt><trkpt lat="45.391125" lon="10.4940617"><ele>143.66666666666666</ele><time>2026-04-27T15:23:58.169Z</time></trkpt><trkpt lat="45.3910967" lon="10.4941533"><ele>146.0</ele><time>2026-04-27T15:24:02.175Z</time></trkpt><trkpt lat="45.3910317" lon="10.4943467"><ele>146.0</ele><time>2026-04-27T15:24:10.182Z</time></trkpt><trkpt lat="45.3910567" lon="10.4945667"><ele>146.0</ele><time>2026-04-27T15:24:25.174Z</time></trkpt><trkpt lat="45.3911" lon="10.4946383"><ele>146.0</ele><time>2026-04-27T15:24:30.178Z</time></trkpt><trkpt lat="45.3911817" lon="10.4946317"><ele>146.0</ele><time>2026-04-27T15:24:44.181Z</time></trkpt><trkpt lat="45.3913183" lon="10.4946133"><ele>146.0</ele><time>2026-04-27T15:24:53.175Z</time></trkpt><trkpt lat="45.3914183" lon="10.4946217"><ele>145.83333333333331</ele><time>2026-04-27T15:24:57.181Z</time></trkpt><trkpt lat="45.3914933" lon="10.4946317"><ele>145.66666666666666</ele><time>2026-04-27T15:25:01.169Z</time></trkpt><trkpt lat="45.3915817" lon="10.4946433"><ele>145.5</ele><time>2026-04-27T15:25:04.185Z</time></trkpt><trkpt lat="45.3916567" lon="10.4946817"><ele>145.33333333333334</ele><time>2026-04-27T15:25:07.17Z</time></trkpt><trkpt lat="45.3917383" lon="10.4947033"><ele>145.16666666666669</ele><time>2026-04-27T15:25:10.176Z</time></trkpt><trkpt lat="45.3918033" lon="10.4947183"><ele>145.0</ele><time>2026-04-27T15:25:12.18Z</time></trkpt><trkpt lat="45.3918783" lon="10.49475"><ele>145.0</ele><time>2026-04-27T15:25:15.182Z</time></trkpt><trkpt lat="45.391945" lon="10.494755"><ele>145.0</ele><time>2026-04-27T15:25:18.175Z</time></trkpt><trkpt lat="45.3920267" lon="10.4947633"><ele>145.0</ele><time>2026-04-27T15:25:21.178Z</time></trkpt><trkpt lat="45.3921233" lon="10.4947917"><ele>145.0</ele><time>2026-04-27T15:25:23.183Z</time></trkpt><trkpt lat="45.3921983" lon="10.4947933"><ele>145.0</ele><time>2026-04-27T15:25:25.178Z</time></trkpt><trkpt lat="45.392295" lon="10.4948067"><ele>145.0</ele><time>2026-04-27T15:25:28.175Z</time></trkpt><trkpt lat="45.3923717" lon="10.4948467"><ele>145.83333333333334</ele><time>2026-04-27T15:25:31.176Z</time></trkpt><trkpt lat="45.3924383" lon="10.4948433"><ele>146.66666666666669</ele><time>2026-04-27T15:25:34.186Z</time></trkpt><trkpt lat="45.3925033" lon="10.4947833"><ele>147.5</ele><time>2026-04-27T15:25:37.179Z</time></trkpt><trkpt lat="45.3925633" lon="10.4947467"><ele>148.33333333333334</ele><time>2026-04-27T15:25:40.181Z</time></trkpt><trkpt lat="45.3926733" lon="10.4946817"><ele>149.16666666666666</ele><time>2026-04-27T15:25:48.179Z</time></trkpt><trkpt lat="45.3927867" lon="10.4946517"><ele>150.0</ele><time>2026-04-27T15:25:57.167Z</time></trkpt><trkpt lat="45.392855" lon="10.494725"><ele>150.0</ele><time>2026-04-27T15:26:03.171Z</time></trkpt><trkpt lat="45.3928367" lon="10.4948333"><ele>150.0</ele><time>2026-04-27T15:26:07.182Z</time></trkpt><trkpt lat="45.3928933" lon="10.495"><ele>150.0</ele><time>2026-04-27T15:26:13.168Z</time></trkpt><trkpt lat="45.3929167" lon="10.4950967"><ele>150.0</ele><time>2026-04-27T15:26:16.172Z</time></trkpt><trkpt lat="45.3929183" lon="10.4952"><ele>150.0</ele><time>2026-04-27T15:26:18.173Z</time></trkpt><trkpt lat="45.3929217" lon="10.49529"><ele>150.0</ele><time>2026-04-27T15:26:20.177Z</time></trkpt><trkpt lat="45.3929367" lon="10.4954017"><ele>147.5</ele><time>2026-04-27T15:26:22.17Z</time></trkpt><trkpt lat="45.392975" lon="10.4954867"><ele>145.0</ele><time>2026-04-27T15:26:24.162Z</time></trkpt><trkpt lat="45.3930217" lon="10.4955667"><ele>142.5</ele><time>2026-04-27T15:26:27.176Z</time></trkpt><trkpt lat="45.3930167" lon="10.49567"><ele>140.0</ele><time>2026-04-27T15:26:31.181Z</time></trkpt><trkpt lat="45.393015" lon="10.4957717"><ele>137.5</ele><time>2026-04-27T15:26:33.177Z</time></trkpt><trkpt lat="45.39303" lon="10.4959283"><ele>135.0</ele><time>2026-04-27T15:26:35.176Z</time></trkpt><trkpt lat="45.3930417" lon="10.4960667"><ele>133.85714285714286</ele><time>2026-04-27T15:26:37.174Z</time></trkpt><trkpt lat="45.3930617" lon="10.4961833"><ele>132.7142857142857</ele><time>2026-04-27T15:26:39.173Z</time></trkpt><trkpt lat="45.3930917" lon="10.4962667"><ele>131.57142857142856</ele><time>2026-04-27T15:26:41.174Z</time></trkpt><trkpt lat="45.3931567" lon="10.49626"><ele>130.42857142857142</ele><time>2026-04-27T15:26:48.172Z</time></trkpt><trkpt lat="45.393195" lon="10.4963317"><ele>129.28571428571428</ele><time>2026-04-27T15:26:55.173Z</time></trkpt><trkpt lat="45.39324" lon="10.4964283"><ele>128.14285714285714</ele><time>2026-04-27T15:27:19.175Z</time></trkpt><trkpt lat="45.3932417" lon="10.4965333"><ele>127.0</ele><time>2026-04-27T15:27:26.176Z</time></trkpt><trkpt lat="45.393295" lon="10.4965967"><ele>126.0</ele><time>2026-04-27T15:27:30.173Z</time></trkpt><trkpt lat="45.3933533" lon="10.4968567"><ele>124.99999999999999</ele><time>2026-04-27T15:27:57.18Z</time></trkpt><trkpt lat="45.3934083" lon="10.496925"><ele>123.99999999999999</ele><time>2026-04-27T15:27:59.176Z</time></trkpt><trkpt lat="45.39347" lon="10.4969767"><ele>123.0</ele><time>2026-04-27T15:28:01.177Z</time></trkpt><trkpt lat="45.3935317" lon="10.4970133"><ele>122.0</ele><time>2026-04-27T15:28:03.171Z</time></trkpt><trkpt lat="45.393605" lon="10.497045"><ele>121.99999999999999</ele><time>2026-04-27T15:28:05.179Z</time></trkpt><trkpt lat="45.393695" lon="10.4970767"><ele>122.0</ele><time>2026-04-27T15:28:07.17Z</time></trkpt><trkpt lat="45.3937767" lon="10.49711"><ele>122.0</ele><time>2026-04-27T15:28:09.177Z</time></trkpt><trkpt lat="45.3938567" lon="10.4971383"><ele>122.0</ele><time>2026-04-27T15:28:11.172Z</time></trkpt><trkpt lat="45.3939367" lon="10.49717"><ele>121.99999999999999</ele><time>2026-04-27T15:28:13.174Z</time></trkpt><trkpt lat="45.3940117" lon="10.4972067"><ele>122.0</ele><time>2026-04-27T15:28:15.182Z</time></trkpt><trkpt lat="45.3940933" lon="10.497245"><ele>120.66666666666666</ele><time>2026-04-27T15:28:17.175Z</time></trkpt><trkpt lat="45.3941733" lon="10.497285"><ele>119.33333333333333</ele><time>2026-04-27T15:28:19.17Z</time></trkpt><trkpt lat="45.394255" lon="10.4973183"><ele>118.0</ele><time>2026-04-27T15:28:21.174Z</time></trkpt><trkpt lat="45.3943383" lon="10.4973533"><ele>116.66666666666666</ele><time>2026-04-27T15:28:23.178Z</time></trkpt><trkpt lat="45.3944217" lon="10.4973983"><ele>115.33333333333333</ele><time>2026-04-27T15:28:25.173Z</time></trkpt><trkpt lat="45.3945067" lon="10.4974467"><ele>114.0</ele><time>2026-04-27T15:28:27.176Z</time></trkpt><trkpt lat="45.3945883" lon="10.4974933"><ele>114.0</ele><time>2026-04-27T15:28:29.177Z</time></trkpt><trkpt lat="45.3946617" lon="10.49753"><ele>114.0</ele><time>2026-04-27T15:28:31.181Z</time></trkpt><trkpt lat="45.3947417" lon="10.497565"><ele>114.0</ele><time>2026-04-27T15:28:33.175Z</time></trkpt><trkpt lat="45.3948217" lon="10.4976"><ele>114.0</ele><time>2026-04-27T15:28:35.169Z</time></trkpt><trkpt lat="45.394895" lon="10.4976417"><ele>114.0</ele><time>2026-04-27T15:28:37.181Z</time></trkpt><trkpt lat="45.39497" lon="10.4976817"><ele>114.0</ele><time>2026-04-27T15:28:39.176Z</time></trkpt><trkpt lat="45.3950367" lon="10.497735"><ele>114.4</ele><time>2026-04-27T15:28:41.173Z</time></trkpt><trkpt lat="45.3951117" lon="10.497805"><ele>114.80000000000001</ele><time>2026-04-27T15:28:43.175Z</time></trkpt><trkpt lat="45.3952" lon="10.4978467"><ele>115.19999999999999</ele><time>2026-04-27T15:28:45.174Z</time></trkpt><trkpt lat="45.3953017" lon="10.4978467"><ele>115.6</ele><time>2026-04-27T15:28:47.178Z</time></trkpt><trkpt lat="45.3954" lon="10.4978767"><ele>116.0</ele><time>2026-04-27T15:28:49.179Z</time></trkpt><trkpt lat="45.3955033" lon="10.4979433"><ele>117.0</ele><time>2026-04-27T15:28:51.177Z</time></trkpt><trkpt lat="45.3956083" lon="10.4980183"><ele>118.0</ele><time>2026-04-27T15:28:53.172Z</time></trkpt><trkpt lat="45.3956667" lon="10.4980533"><ele>119.0</ele><time>2026-04-27T15:28:54.178Z</time></trkpt><trkpt lat="45.3957767" lon="10.498125"><ele>120.0</ele><time>2026-04-27T15:28:56.178Z</time></trkpt><trkpt lat="45.3958783" lon="10.498185"><ele>121.0</ele><time>2026-04-27T15:28:58.18Z</time></trkpt><trkpt lat="45.3959767" lon="10.498245"><ele>121.0</ele><time>2026-04-27T15:29:00.182Z</time></trkpt><trkpt lat="45.3960633" lon="10.49831"><ele>121.0</ele><time>2026-04-27T15:29:02.18Z</time></trkpt><trkpt lat="45.39616" lon="10.4984"><ele>121.0</ele><time>2026-04-27T15:29:04.174Z</time></trkpt><trkpt lat="45.396245" lon="10.4985117"><ele>121.0</ele><time>2026-04-27T15:29:06.179Z</time></trkpt><trkpt lat="45.3963417" lon="10.4986117"><ele>121.0</ele><time>2026-04-27T15:29:08.177Z</time></trkpt><trkpt lat="45.3964267" lon="10.4987233"><ele>122.4</ele><time>2026-04-27T15:29:10.171Z</time></trkpt><trkpt lat="45.3965183" lon="10.4988167"><ele>123.8</ele><time>2026-04-27T15:29:12.18Z</time></trkpt><trkpt lat="45.3966083" lon="10.4989033"><ele>125.20000000000002</ele><time>2026-04-27T15:29:14.18Z</time></trkpt><trkpt lat="45.3966783" lon="10.4989933"><ele>126.60000000000001</ele><time>2026-04-27T15:29:16.171Z</time></trkpt><trkpt lat="45.3967517" lon="10.4990833"><ele>128.0</ele><time>2026-04-27T15:29:18.181Z</time></trkpt><trkpt lat="45.3968317" lon="10.499175"><ele>128.0</ele><time>2026-04-27T15:29:20.177Z</time></trkpt><trkpt lat="45.3969" lon="10.4992567"><ele>128.0</ele><time>2026-04-27T15:29:22.174Z</time></trkpt><trkpt lat="45.3969783" lon="10.4993533"><ele>128.0</ele><time>2026-04-27T15:29:24.177Z</time></trkpt><trkpt lat="45.3970383" lon="10.499435"><ele>128.0</ele><time>2026-04-27T15:29:26.176Z</time></trkpt><trkpt lat="45.3971017" lon="10.4995333"><ele>128.0</ele><time>2026-04-27T15:29:28.179Z</time></trkpt><trkpt lat="45.397155" lon="10.4996317"><ele>129.16666666666666</ele><time>2026-04-27T15:29:30.172Z</time></trkpt><trkpt lat="45.3972167" lon="10.4997417"><ele>130.33333333333331</ele><time>2026-04-27T15:29:32.178Z</time></trkpt><trkpt lat="45.39728" lon="10.499825"><ele>131.5</ele><time>2026-04-27T15:29:34.173Z</time></trkpt><trkpt lat="45.3973483" lon="10.4999167"><ele>132.66666666666666</ele><time>2026-04-27T15:29:36.166Z</time></trkpt><trkpt lat="45.3974117" lon="10.4999783"><ele>133.83333333333334</ele><time>2026-04-27T15:29:38.173Z</time></trkpt><trkpt lat="45.39747" lon="10.50004"><ele>135.0</ele><time>2026-04-27T15:29:40.166Z</time></trkpt><trkpt lat="45.3975717" lon="10.5000983"><ele>135.0</ele><time>2026-04-27T15:29:42.177Z</time></trkpt><trkpt lat="45.3976483" lon="10.5001667"><ele>135.0</ele><time>2026-04-27T15:29:44.176Z</time></trkpt><trkpt lat="45.3977417" lon="10.50024"><ele>135.0</ele><time>2026-04-27T15:29:46.177Z</time></trkpt><trkpt lat="45.3978333" lon="10.5003267"><ele>135.0</ele><time>2026-04-27T15:29:48.168Z</time></trkpt><trkpt lat="45.3979483" lon="10.5004133"><ele>135.0</ele><time>2026-04-27T15:29:50.181Z</time></trkpt><trkpt lat="45.39807" lon="10.5005"><ele>135.0</ele><time>2026-04-27T15:29:52.17Z</time></trkpt><trkpt lat="45.3981633" lon="10.5005933"><ele>135.0</ele><time>2026-04-27T15:29:54.176Z</time></trkpt><trkpt lat="45.398255" lon="10.5007017"><ele>135.0</ele><time>2026-04-27T15:29:56.179Z</time></trkpt><trkpt lat="45.3983533" lon="10.5008467"><ele>135.0</ele><time>2026-04-27T15:29:58.17Z</time></trkpt><trkpt lat="45.3984083" lon="10.5009117"><ele>135.0</ele><time>2026-04-27T15:29:59.173Z</time></trkpt><trkpt lat="45.398465" lon="10.50097"><ele>135.0</ele><time>2026-04-27T15:30:00.171Z</time></trkpt><trkpt lat="45.3985217" lon="10.5010233"><ele>135.0</ele><time>2026-04-27T15:30:01.174Z</time></trkpt><trkpt lat="45.3985733" lon="10.501075"><ele>135.0</ele><time>2026-04-27T15:30:02.187Z</time></trkpt><trkpt lat="45.3986267" lon="10.5011233"><ele>135.0</ele><time>2026-04-27T15:30:03.174Z</time></trkpt><trkpt lat="45.398725" lon="10.5012133"><ele>135.0</ele><time>2026-04-27T15:30:05.176Z</time></trkpt><trkpt lat="45.398815" lon="10.5012983"><ele>135.0</ele><time>2026-04-27T15:30:07.171Z</time></trkpt><trkpt lat="45.398905" lon="10.5013933"><ele>133.4</ele><time>2026-04-27T15:30:09.174Z</time></trkpt><trkpt lat="45.39899" lon="10.501485"><ele>131.8</ele><time>2026-04-27T15:30:11.172Z</time></trkpt><trkpt lat="45.399075" lon="10.5015833"><ele>130.2</ele><time>2026-04-27T15:30:13.171Z</time></trkpt><trkpt lat="45.39913" lon="10.5016917"><ele>128.6</ele><time>2026-04-27T15:30:15.172Z</time></trkpt><trkpt lat="45.3991683" lon="10.5018117"><ele>127.0</ele><time>2026-04-27T15:30:17.178Z</time></trkpt><trkpt lat="45.3991967" lon="10.5018967"><ele>127.0</ele><time>2026-04-27T15:30:19.17Z</time></trkpt><trkpt lat="45.3992383" lon="10.501965"><ele>127.0</ele><time>2026-04-27T15:30:22.173Z</time></trkpt><trkpt lat="45.3992733" lon="10.502045"><ele>127.0</ele><time>2026-04-27T15:30:25.178Z</time></trkpt><trkpt lat="45.39935" lon="10.50209"><ele>127.0</ele><time>2026-04-27T15:30:53.169Z</time></trkpt><trkpt lat="45.3994083" lon="10.5021417"><ele>127.0</ele><time>2026-04-27T15:30:55.174Z</time></trkpt><trkpt lat="45.3994917" lon="10.502145"><ele>127.0</ele><time>2026-04-27T15:32:44.173Z</time></trkpt><trkpt lat="45.3995633" lon="10.5021383"><ele>127.0</ele><time>2026-04-27T15:32:48.169Z</time></trkpt><trkpt lat="45.3996283" lon="10.50218"><ele>125.8</ele><time>2026-04-27T15:32:51.174Z</time></trkpt><trkpt lat="45.3997183" lon="10.5022233"><ele>124.6</ele><time>2026-04-27T15:32:54.177Z</time></trkpt><trkpt lat="45.399795" lon="10.5022833"><ele>123.39999999999999</ele><time>2026-04-27T15:32:56.176Z</time></trkpt><trkpt lat="45.3998733" lon="10.5023633"><ele>122.19999999999999</ele><time>2026-04-27T15:32:58.172Z</time></trkpt><trkpt lat="45.3999633" lon="10.5024533"><ele>121.0</ele><time>2026-04-27T15:33:00.176Z</time></trkpt><trkpt lat="45.400055" lon="10.5025567"><ele>121.0</ele><time>2026-04-27T15:33:02.177Z</time></trkpt><trkpt lat="45.4001433" lon="10.5026683"><ele>121.0</ele><time>2026-04-27T15:33:04.176Z</time></trkpt><trkpt lat="45.400225" lon="10.5027733"><ele>121.0</ele><time>2026-04-27T15:33:06.177Z</time></trkpt><trkpt lat="45.4003133" lon="10.50287"><ele>121.0</ele><time>2026-04-27T15:33:08.182Z</time></trkpt><trkpt lat="45.400395" lon="10.502965"><ele>121.0</ele><time>2026-04-27T15:33:10.171Z</time></trkpt><trkpt lat="45.4004717" lon="10.5030633"><ele>121.4</ele><time>2026-04-27T15:33:12.179Z</time></trkpt><trkpt lat="45.4005567" lon="10.5031583"><ele>121.8</ele><time>2026-04-27T15:33:14.177Z</time></trkpt><trkpt lat="45.4006567" lon="10.5032567"><ele>122.20000000000002</ele><time>2026-04-27T15:33:16.17Z</time></trkpt><trkpt lat="45.400755" lon="10.5033583"><ele>122.60000000000001</ele><time>2026-04-27T15:33:18.169Z</time></trkpt><trkpt lat="45.4008117" lon="10.50341"><ele>123.0</ele><time>2026-04-27T15:33:19.172Z</time></trkpt><trkpt lat="45.400865" lon="10.5034633"><ele>123.0</ele><time>2026-04-27T15:33:20.174Z</time></trkpt><trkpt lat="45.4009617" lon="10.503565"><ele>123.0</ele><time>2026-04-27T15:33:22.179Z</time></trkpt><trkpt lat="45.401055" lon="10.5036617"><ele>123.0</ele><time>2026-04-27T15:33:24.176Z</time></trkpt><trkpt lat="45.401155" lon="10.5037667"><ele>123.0</ele><time>2026-04-27T15:33:26.179Z</time></trkpt><trkpt lat="45.40125" lon="10.5038667"><ele>123.75</ele><time>2026-04-27T15:33:28.174Z</time></trkpt><trkpt lat="45.401335" lon="10.5039667"><ele>124.5</ele><time>2026-04-27T15:33:30.175Z</time></trkpt><trkpt lat="45.4014233" lon="10.5040667"><ele>125.25</ele><time>2026-04-27T15:33:32.176Z</time></trkpt><trkpt lat="45.4015167" lon="10.504165"><ele>126.0</ele><time>2026-04-27T15:33:34.169Z</time></trkpt><trkpt lat="45.4016133" lon="10.504265"><ele>126.0</ele><time>2026-04-27T15:33:36.176Z</time></trkpt><trkpt lat="45.4017117" lon="10.504365"><ele>126.0</ele><time>2026-04-27T15:33:38.177Z</time></trkpt><trkpt lat="45.4018033" lon="10.504465"><ele>126.0</ele><time>2026-04-27T15:33:40.172Z</time></trkpt><trkpt lat="45.4018933" lon="10.5045733"><ele>126.0</ele><time>2026-04-27T15:33:42.181Z</time></trkpt><trkpt lat="45.401985" lon="10.5046817"><ele>125.75</ele><time>2026-04-27T15:33:44.178Z</time></trkpt><trkpt lat="45.4020717" lon="10.50479"><ele>125.5</ele><time>2026-04-27T15:33:46.172Z</time></trkpt><trkpt lat="45.4021533" lon="10.5049067"><ele>125.25</ele><time>2026-04-27T15:33:48.173Z</time></trkpt><trkpt lat="45.402235" lon="10.5050183"><ele>125.0</ele><time>2026-04-27T15:33:50.181Z</time></trkpt><trkpt lat="45.40231" lon="10.5051367"><ele>125.0</ele><time>2026-04-27T15:33:52.17Z</time></trkpt><trkpt lat="45.40239" lon="10.505255"><ele>125.0</ele><time>2026-04-27T15:33:54.177Z</time></trkpt><trkpt lat="45.4024667" lon="10.50537"><ele>125.0</ele><time>2026-04-27T15:33:56.179Z</time></trkpt><trkpt lat="45.4025467" lon="10.50549"><ele>125.0</ele><time>2026-04-27T15:33:58.17Z</time></trkpt><trkpt lat="45.402625" lon="10.50561"><ele>125.0</ele><time>2026-04-27T15:34:00.179Z</time></trkpt><trkpt lat="45.4027033" lon="10.50573"><ele>125.0</ele><time>2026-04-27T15:34:02.179Z</time></trkpt><trkpt lat="45.4027833" lon="10.5058517"><ele>125.0</ele><time>2026-04-27T15:34:04.18Z</time></trkpt><trkpt lat="45.4028633" lon="10.5059767"><ele>125.0</ele><time>2026-04-27T15:34:06.177Z</time></trkpt><trkpt lat="45.4029417" lon="10.5060983"><ele>126.5</ele><time>2026-04-27T15:34:08.182Z</time></trkpt><trkpt lat="45.4030217" lon="10.506225"><ele>128.0</ele><time>2026-04-27T15:34:10.178Z</time></trkpt><trkpt lat="45.4031017" lon="10.506345"><ele>129.5</ele><time>2026-04-27T15:34:12.178Z</time></trkpt><trkpt lat="45.4031817" lon="10.50647"><ele>131.0</ele><time>2026-04-27T15:34:14.179Z</time></trkpt><trkpt lat="45.403255" lon="10.50659"><ele>131.0</ele><time>2026-04-27T15:34:16.174Z</time></trkpt><trkpt lat="45.40333" lon="10.50671"><ele>131.0</ele><time>2026-04-27T15:34:18.189Z</time></trkpt><trkpt lat="45.4034067" lon="10.5068333"><ele>131.0</ele><time>2026-04-27T15:34:20.176Z</time></trkpt><trkpt lat="45.403485" lon="10.5069567"><ele>131.0</ele><time>2026-04-27T15:34:22.179Z</time></trkpt><trkpt lat="45.40356" lon="10.5070733"><ele>131.5</ele><time>2026-04-27T15:34:24.168Z</time></trkpt><trkpt lat="45.4036367" lon="10.507195"><ele>132.0</ele><time>2026-04-27T15:34:26.169Z</time></trkpt><trkpt lat="45.4037117" lon="10.50731"><ele>132.5</ele><time>2026-04-27T15:34:28.171Z</time></trkpt><trkpt lat="45.40379" lon="10.5074317"><ele>133.0</ele><time>2026-04-27T15:34:30.181Z</time></trkpt><trkpt lat="45.4038667" lon="10.507555"><ele>133.0</ele><time>2026-04-27T15:34:32.18Z</time></trkpt><trkpt lat="45.4039433" lon="10.50767"><ele>133.0</ele><time>2026-04-27T15:34:34.173Z</time></trkpt><trkpt lat="45.4040233" lon="10.5077817"><ele>133.0</ele><time>2026-04-27T15:34:36.176Z</time></trkpt><trkpt lat="45.4041017" lon="10.50789"><ele>133.0</ele><time>2026-04-27T15:34:38.176Z</time></trkpt><trkpt lat="45.4041833" lon="10.5079967"><ele>133.0</ele><time>2026-04-27T15:34:40.171Z</time></trkpt><trkpt lat="45.4042683" lon="10.5081033"><ele>133.0</ele><time>2026-04-27T15:34:42.176Z</time></trkpt><trkpt lat="45.4043567" lon="10.508205"><ele>133.0</ele><time>2026-04-27T15:34:44.178Z</time></trkpt><trkpt lat="45.4044433" lon="10.5082983"><ele>133.0</ele><time>2026-04-27T15:34:46.179Z</time></trkpt><trkpt lat="45.4045317" lon="10.5083867"><ele>133.0</ele><time>2026-04-27T15:34:48.176Z</time></trkpt><trkpt lat="45.4046283" lon="10.5084733"><ele>133.0</ele><time>2026-04-27T15:34:50.177Z</time></trkpt><trkpt lat="45.4047183" lon="10.508555"><ele>133.0</ele><time>2026-04-27T15:34:52.173Z</time></trkpt><trkpt lat="45.4048083" lon="10.5086283"><ele>133.0</ele><time>2026-04-27T15:34:54.179Z</time></trkpt><trkpt lat="45.4049033" lon="10.5086967"><ele>133.0</ele><time>2026-04-27T15:34:56.175Z</time></trkpt><trkpt lat="45.4050117" lon="10.508765"><ele>133.0</ele><time>2026-04-27T15:34:58.179Z</time></trkpt><trkpt lat="45.4051167" lon="10.5088333"><ele>133.0</ele><time>2026-04-27T15:35:00.181Z</time></trkpt><trkpt lat="45.40522" lon="10.5089"><ele>133.5</ele><time>2026-04-27T15:35:02.185Z</time></trkpt><trkpt lat="45.4053267" lon="10.5089583"><ele>134.0</ele><time>2026-04-27T15:35:04.175Z</time></trkpt><trkpt lat="45.40543" lon="10.5090233"><ele>134.5</ele><time>2026-04-27T15:35:06.19Z</time></trkpt><trkpt lat="45.4055317" lon="10.5090917"><ele>135.0</ele><time>2026-04-27T15:35:08.177Z</time></trkpt><trkpt lat="45.40564" lon="10.5091583"><ele>135.0</ele><time>2026-04-27T15:35:10.173Z</time></trkpt><trkpt lat="45.4057367" lon="10.5092117"><ele>135.0</ele><time>2026-04-27T15:35:12.181Z</time></trkpt><trkpt lat="45.4058183" lon="10.5092683"><ele>135.0</ele><time>2026-04-27T15:35:14.178Z</time></trkpt><trkpt lat="45.4059033" lon="10.5093317"><ele>135.0</ele><time>2026-04-27T15:35:16.17Z</time></trkpt><trkpt lat="45.4059933" lon="10.5093983"><ele>135.0</ele><time>2026-04-27T15:35:18.172Z</time></trkpt><trkpt lat="45.4060783" lon="10.5094567"><ele>135.0</ele><time>2026-04-27T15:35:20.186Z</time></trkpt><trkpt lat="45.4061567" lon="10.50951"><ele>135.0</ele><time>2026-04-27T15:35:22.175Z</time></trkpt><trkpt lat="45.4062417" lon="10.509565"><ele>135.0</ele><time>2026-04-27T15:35:24.173Z</time></trkpt><trkpt lat="45.406325" lon="10.5096183"><ele>135.0</ele><time>2026-04-27T15:35:26.175Z</time></trkpt><trkpt lat="45.4063717" lon="10.5097167"><ele>135.0</ele><time>2026-04-27T15:35:28.175Z</time></trkpt><trkpt lat="45.4064" lon="10.5098267"><ele>135.0</ele><time>2026-04-27T15:35:30.176Z</time></trkpt><trkpt lat="45.4063783" lon="10.5099183"><ele>134.8</ele><time>2026-04-27T15:35:32.18Z</time></trkpt><trkpt lat="45.4063467" lon="10.5100117"><ele>134.6</ele><time>2026-04-27T15:35:34.174Z</time></trkpt><trkpt lat="45.4063217" lon="10.5101267"><ele>134.4</ele><time>2026-04-27T15:35:36.179Z</time></trkpt><trkpt lat="45.4062783" lon="10.51026"><ele>134.2</ele><time>2026-04-27T15:35:38.178Z</time></trkpt><trkpt lat="45.4062317" lon="10.5103967"><ele>134.0</ele><time>2026-04-27T15:35:40.169Z</time></trkpt><trkpt lat="45.4061833" lon="10.510535"><ele>134.0</ele><time>2026-04-27T15:35:42.177Z</time></trkpt><trkpt lat="45.4061317" lon="10.5106683"><ele>134.0</ele><time>2026-04-27T15:35:44.176Z</time></trkpt><trkpt lat="45.40607" lon="10.510775"><ele>134.0</ele><time>2026-04-27T15:35:46.175Z</time></trkpt><trkpt lat="45.4059867" lon="10.510855"><ele>134.0</ele><time>2026-04-27T15:35:48.172Z</time></trkpt><trkpt lat="45.4058917" lon="10.5109383"><ele>134.0</ele><time>2026-04-27T15:35:50.175Z</time></trkpt><trkpt lat="45.40579" lon="10.5110283"><ele>134.0</ele><time>2026-04-27T15:35:52.176Z</time></trkpt><trkpt lat="45.4056917" lon="10.511115"><ele>134.0</ele><time>2026-04-27T15:35:54.177Z</time></trkpt><trkpt lat="45.4056133" lon="10.5112317"><ele>134.0</ele><time>2026-04-27T15:35:56.176Z</time></trkpt><trkpt lat="45.4055733" lon="10.5113683"><ele>134.0</ele><time>2026-04-27T15:35:58.171Z</time></trkpt><trkpt lat="45.4055617" lon="10.5115467"><ele>132.4</ele><time>2026-04-27T15:36:00.172Z</time></trkpt><trkpt lat="45.4055667" lon="10.5116417"><ele>130.8</ele><time>2026-04-27T15:36:01.174Z</time></trkpt><trkpt lat="45.405575" lon="10.5117317"><ele>129.2</ele><time>2026-04-27T15:36:02.178Z</time></trkpt><trkpt lat="45.4055983" lon="10.5118983"><ele>127.6</ele><time>2026-04-27T15:36:04.177Z</time></trkpt><trkpt lat="45.4056183" lon="10.512065"><ele>126.0</ele><time>2026-04-27T15:36:06.173Z</time></trkpt><trkpt lat="45.4056417" lon="10.5122267"><ele>126.0</ele><time>2026-04-27T15:36:08.182Z</time></trkpt><trkpt lat="45.4056783" lon="10.5123833"><ele>126.0</ele><time>2026-04-27T15:36:10.172Z</time></trkpt><trkpt lat="45.40572" lon="10.5125317"><ele>126.0</ele><time>2026-04-27T15:36:12.181Z</time></trkpt><trkpt lat="45.4057667" lon="10.51268"><ele>126.0</ele><time>2026-04-27T15:36:14.177Z</time></trkpt><trkpt lat="45.4058033" lon="10.5128367"><ele>125.6</ele><time>2026-04-27T15:36:16.17Z</time></trkpt><trkpt lat="45.4058" lon="10.5129917"><ele>125.19999999999999</ele><time>2026-04-27T15:36:18.172Z</time></trkpt><trkpt lat="45.4057517" lon="10.5131183"><ele>124.80000000000001</ele><time>2026-04-27T15:36:20.175Z</time></trkpt><trkpt lat="45.405675" lon="10.5132183"><ele>124.4</ele><time>2026-04-27T15:36:22.173Z</time></trkpt><trkpt lat="45.4055833" lon="10.5133117"><ele>124.0</ele><time>2026-04-27T15:36:24.179Z</time></trkpt><trkpt lat="45.405495" lon="10.51341"><ele>124.80000000000001</ele><time>2026-04-27T15:36:26.171Z</time></trkpt><trkpt lat="45.4054117" lon="10.513515"><ele>125.60000000000001</ele><time>2026-04-27T15:36:28.175Z</time></trkpt><trkpt lat="45.4053417" lon="10.5136417"><ele>126.4</ele><time>2026-04-27T15:36:30.175Z</time></trkpt><trkpt lat="45.4052867" lon="10.5137783"><ele>127.2</ele><time>2026-04-27T15:36:32.174Z</time></trkpt><trkpt lat="45.40524" lon="10.5139233"><ele>128.0</ele><time>2026-04-27T15:36:34.171Z</time></trkpt><trkpt lat="45.405185" lon="10.514055"><ele>128.0</ele><time>2026-04-27T15:36:36.183Z</time></trkpt><trkpt lat="45.4051233" lon="10.514185"><ele>128.0</ele><time>2026-04-27T15:36:38.176Z</time></trkpt><trkpt lat="45.4050717" lon="10.5143133"><ele>128.0</ele><time>2026-04-27T15:36:40.174Z</time></trkpt><trkpt lat="45.4050483" lon="10.5144517"><ele>128.0</ele><time>2026-04-27T15:36:42.178Z</time></trkpt><trkpt lat="45.4050617" lon="10.5145917"><ele>128.0</ele><time>2026-04-27T15:36:44.177Z</time></trkpt><trkpt lat="45.4051083" lon="10.51472"><ele>128.0</ele><time>2026-04-27T15:36:46.175Z</time></trkpt><trkpt lat="45.405155" lon="10.5148417"><ele>128.0</ele><time>2026-04-27T15:36:48.182Z</time></trkpt><trkpt lat="45.40519" lon="10.5149483"><ele>128.0</ele><time>2026-04-27T15:36:50.177Z</time></trkpt><trkpt lat="45.4052317" lon="10.51508"><ele>128.0</ele><time>2026-04-27T15:36:52.173Z</time></trkpt><trkpt lat="45.4052667" lon="10.5152283"><ele>128.0</ele><time>2026-04-27T15:36:54.177Z</time></trkpt><trkpt lat="45.4052833" lon="10.5153617"><ele>127.2</ele><time>2026-04-27T15:36:56.186Z</time></trkpt><trkpt lat="45.405285" lon="10.5155067"><ele>126.4</ele><time>2026-04-27T15:36:58.177Z</time></trkpt><trkpt lat="45.4052917" lon="10.515645"><ele>125.60000000000001</ele><time>2026-04-27T15:37:00.18Z</time></trkpt><trkpt lat="45.4053083" lon="10.515765"><ele>124.80000000000001</ele><time>2026-04-27T15:37:02.177Z</time></trkpt><trkpt lat="45.40534" lon="10.5159067"><ele>124.0</ele><time>2026-04-27T15:37:04.176Z</time></trkpt><trkpt lat="45.405375" lon="10.51605"><ele>124.0</ele><time>2026-04-27T15:37:06.179Z</time></trkpt><trkpt lat="45.4054217" lon="10.516175"><ele>124.0</ele><time>2026-04-27T15:37:08.177Z</time></trkpt><trkpt lat="45.4054667" lon="10.5162967"><ele>124.0</ele><time>2026-04-27T15:37:10.175Z</time></trkpt><trkpt lat="45.4055467" lon="10.516355"><ele>124.0</ele><time>2026-04-27T15:37:12.182Z</time></trkpt><trkpt lat="45.4056367" lon="10.5164183"><ele>124.0</ele><time>2026-04-27T15:37:14.178Z</time></trkpt><trkpt lat="45.4057283" lon="10.5164533"><ele>123.33333333333334</ele><time>2026-04-27T15:37:16.177Z</time></trkpt><trkpt lat="45.4058017" lon="10.5165033"><ele>122.66666666666667</ele><time>2026-04-27T15:37:18.183Z</time></trkpt><trkpt lat="45.4058917" lon="10.5164983"><ele>122.0</ele><time>2026-04-27T15:37:20.17Z</time></trkpt><trkpt lat="45.4059867" lon="10.5164767"><ele>121.33333333333334</ele><time>2026-04-27T15:37:22.176Z</time></trkpt><trkpt lat="45.4060583" lon="10.5164583"><ele>120.66666666666667</ele><time>2026-04-27T15:37:24.17Z</time></trkpt><trkpt lat="45.40612" lon="10.5164167"><ele>120.0</ele><time>2026-04-27T15:37:26.176Z</time></trkpt><trkpt lat="45.4061767" lon="10.5163667"><ele>120.0</ele><time>2026-04-27T15:37:28.17Z</time></trkpt><trkpt lat="45.40624" lon="10.516285"><ele>120.0</ele><time>2026-04-27T15:37:31.178Z</time></trkpt><trkpt lat="45.4062967" lon="10.5162133"><ele>120.0</ele><time>2026-04-27T15:37:33.17Z</time></trkpt><trkpt lat="45.4063267" lon="10.5161233"><ele>120.0</ele><time>2026-04-27T15:37:35.173Z</time></trkpt><trkpt lat="45.4063517" lon="10.5160267"><ele>120.0</ele><time>2026-04-27T15:37:37.178Z</time></trkpt><trkpt lat="45.4063917" lon="10.5159433"><ele>120.0</ele><time>2026-04-27T15:37:40.166Z</time></trkpt><trkpt lat="45.4064133" lon="10.5160417"><ele>120.0</ele><time>2026-04-27T15:37:45.177Z</time></trkpt><trkpt lat="45.4063667" lon="10.516155"><ele>120.0</ele><time>2026-04-27T15:37:48.17Z</time></trkpt><trkpt lat="45.40633" lon="10.516255"><ele>120.0</ele><time>2026-04-27T15:37:50.177Z</time></trkpt><trkpt lat="45.40627" lon="10.5163567"><ele>120.0</ele><time>2026-04-27T15:37:52.169Z</time></trkpt><trkpt lat="45.40618" lon="10.5164517"><ele>120.0</ele><time>2026-04-27T15:37:54.174Z</time></trkpt><trkpt lat="45.4060817" lon="10.51652"><ele>120.0</ele><time>2026-04-27T15:37:56.177Z</time></trkpt><trkpt lat="45.4060017" lon="10.516565"><ele>120.0</ele><time>2026-04-27T15:37:58.179Z</time></trkpt><trkpt lat="45.4059217" lon="10.5165917"><ele>120.0</ele><time>2026-04-27T15:38:00.172Z</time></trkpt><trkpt lat="45.4058383" lon="10.5166283"><ele>120.0</ele><time>2026-04-27T15:38:02.175Z</time></trkpt><trkpt lat="45.4057433" lon="10.5166817"><ele>120.0</ele><time>2026-04-27T15:38:04.172Z</time></trkpt><trkpt lat="45.4056467" lon="10.5167233"><ele>120.0</ele><time>2026-04-27T15:38:06.177Z</time></trkpt><trkpt lat="45.405545" lon="10.5167883"><ele>119.8</ele><time>2026-04-27T15:38:08.175Z</time></trkpt><trkpt lat="45.40545" lon="10.5168817"><ele>119.6</ele><time>2026-04-27T15:38:10.17Z</time></trkpt><trkpt lat="45.4053517" lon="10.516965"><ele>119.4</ele><time>2026-04-27T15:38:12.179Z</time></trkpt><trkpt lat="45.4052567" lon="10.5170333"><ele>119.2</ele><time>2026-04-27T15:38:14.178Z</time></trkpt><trkpt lat="45.4051617" lon="10.5171083"><ele>119.0</ele><time>2026-04-27T15:38:16.178Z</time></trkpt><trkpt lat="45.4050617" lon="10.51718"><ele>118.80000000000001</ele><time>2026-04-27T15:38:18.173Z</time></trkpt><trkpt lat="45.4049633" lon="10.5172483"><ele>118.60000000000001</ele><time>2026-04-27T15:38:20.173Z</time></trkpt><trkpt lat="45.404865" lon="10.51732"><ele>118.4</ele><time>2026-04-27T15:38:22.179Z</time></trkpt><trkpt lat="45.4047683" lon="10.5173867"><ele>118.2</ele><time>2026-04-27T15:38:24.176Z</time></trkpt><trkpt lat="45.40467" lon="10.517455"><ele>118.0</ele><time>2026-04-27T15:38:26.178Z</time></trkpt><trkpt lat="45.40457" lon="10.5175183"><ele>118.0</ele><time>2026-04-27T15:38:28.173Z</time></trkpt><trkpt lat="45.4044833" lon="10.517585"><ele>118.00000000000001</ele><time>2026-04-27T15:38:30.177Z</time></trkpt><trkpt lat="45.4044" lon="10.517655"><ele>118.00000000000001</ele><time>2026-04-27T15:38:32.168Z</time></trkpt><trkpt lat="45.4043017" lon="10.51771"><ele>118.0</ele><time>2026-04-27T15:38:34.17Z</time></trkpt><trkpt lat="45.404205" lon="10.517775"><ele>118.0</ele><time>2026-04-27T15:38:36.172Z</time></trkpt><trkpt lat="45.40411" lon="10.5178467"><ele>117.80000000000001</ele><time>2026-04-27T15:38:38.181Z</time></trkpt><trkpt lat="45.4040167" lon="10.5179133"><ele>117.60000000000001</ele><time>2026-04-27T15:38:40.172Z</time></trkpt><trkpt lat="45.40392" lon="10.5179817"><ele>117.39999999999999</ele><time>2026-04-27T15:38:42.176Z</time></trkpt><trkpt lat="45.403825" lon="10.5180433"><ele>117.19999999999999</ele><time>2026-04-27T15:38:44.177Z</time></trkpt><trkpt lat="45.4037233" lon="10.5181117"><ele>117.0</ele><time>2026-04-27T15:38:46.17Z</time></trkpt><trkpt lat="45.40362" lon="10.5181883"><ele>117.0</ele><time>2026-04-27T15:38:48.179Z</time></trkpt><trkpt lat="45.4035233" lon="10.5182533"><ele>116.99999999999999</ele><time>2026-04-27T15:38:50.18Z</time></trkpt><trkpt lat="45.4034417" lon="10.5183183"><ele>116.99999999999999</ele><time>2026-04-27T15:38:52.175Z</time></trkpt><trkpt lat="45.4033533" lon="10.518385"><ele>117.0</ele><time>2026-04-27T15:38:54.171Z</time></trkpt><trkpt lat="45.403255" lon="10.5184583"><ele>117.0</ele><time>2026-04-27T15:38:56.174Z</time></trkpt><trkpt lat="45.4031633" lon="10.518525"><ele>117.0</ele><time>2026-04-27T15:38:58.174Z</time></trkpt><trkpt lat="45.4030867" lon="10.5185833"><ele>117.0</ele><time>2026-04-27T15:39:00.176Z</time></trkpt><trkpt lat="45.40302" lon="10.5186217"><ele>117.0</ele><time>2026-04-27T15:39:02.179Z</time></trkpt><trkpt lat="45.402945" lon="10.5186583"><ele>117.0</ele><time>2026-04-27T15:39:04.176Z</time></trkpt><trkpt lat="45.4028567" lon="10.51872"><ele>117.0</ele><time>2026-04-27T15:39:06.176Z</time></trkpt><trkpt lat="45.402755" lon="10.5187867"><ele>117.0</ele><time>2026-04-27T15:39:08.178Z</time></trkpt><trkpt lat="45.40266" lon="10.518845"><ele>117.0</ele><time>2026-04-27T15:39:10.174Z</time></trkpt><trkpt lat="45.4025783" lon="10.5188983"><ele>116.99999999999999</ele><time>2026-04-27T15:39:12.173Z</time></trkpt><trkpt lat="45.4025033" lon="10.5189433"><ele>116.99999999999999</ele><time>2026-04-27T15:39:14.183Z</time></trkpt><trkpt lat="45.40242" lon="10.5189867"><ele>117.0</ele><time>2026-04-27T15:39:16.178Z</time></trkpt><trkpt lat="45.4023217" lon="10.5190467"><ele>117.0</ele><time>2026-04-27T15:39:18.174Z</time></trkpt><trkpt lat="45.4022183" lon="10.51911"><ele>116.8</ele><time>2026-04-27T15:39:20.178Z</time></trkpt><trkpt lat="45.4021267" lon="10.5191633"><ele>116.6</ele><time>2026-04-27T15:39:22.177Z</time></trkpt><trkpt lat="45.4020467" lon="10.5192217"><ele>116.39999999999999</ele><time>2026-04-27T15:39:24.186Z</time></trkpt><trkpt lat="45.40195" lon="10.51929"><ele>116.19999999999999</ele><time>2026-04-27T15:39:26.17Z</time></trkpt><trkpt lat="45.4018467" lon="10.5193533"><ele>116.0</ele><time>2026-04-27T15:39:28.172Z</time></trkpt><trkpt lat="45.4017533" lon="10.5194033"><ele>116.0</ele><time>2026-04-27T15:39:30.179Z</time></trkpt><trkpt lat="45.4016733" lon="10.5194533"><ele>116.0</ele><time>2026-04-27T15:39:32.177Z</time></trkpt><trkpt lat="45.401595" lon="10.5195"><ele>116.0</ele><time>2026-04-27T15:39:34.184Z</time></trkpt><trkpt lat="45.40151" lon="10.519545"><ele>116.0</ele><time>2026-04-27T15:39:36.167Z</time></trkpt><trkpt lat="45.40142" lon="10.51961"><ele>116.0</ele><time>2026-04-27T15:39:38.18Z</time></trkpt><trkpt lat="45.40133" lon="10.5196867"><ele>116.4</ele><time>2026-04-27T15:39:40.172Z</time></trkpt><trkpt lat="45.4012383" lon="10.5197633"><ele>116.8</ele><time>2026-04-27T15:39:42.173Z</time></trkpt><trkpt lat="45.4011467" lon="10.5198483"><ele>117.20000000000002</ele><time>2026-04-27T15:39:44.17Z</time></trkpt><trkpt lat="45.401055" lon="10.5199317"><ele>117.60000000000001</ele><time>2026-04-27T15:39:46.169Z</time></trkpt><trkpt lat="45.400965" lon="10.5200167"><ele>118.0</ele><time>2026-04-27T15:39:48.176Z</time></trkpt><trkpt lat="45.4008767" lon="10.5201017"><ele>118.0</ele><time>2026-04-27T15:39:50.181Z</time></trkpt><trkpt lat="45.40079" lon="10.5201817"><ele>118.00000000000001</ele><time>2026-04-27T15:39:52.179Z</time></trkpt><trkpt lat="45.4007067" lon="10.5202583"><ele>118.00000000000001</ele><time>2026-04-27T15:39:54.183Z</time></trkpt><trkpt lat="45.4006283" lon="10.5203333"><ele>118.0</ele><time>2026-04-27T15:39:56.177Z</time></trkpt><trkpt lat="45.4005567" lon="10.52039"><ele>118.0</ele><time>2026-04-27T15:39:58.169Z</time></trkpt><trkpt lat="45.40049" lon="10.5204517"><ele>118.4</ele><time>2026-04-27T15:40:00.179Z</time></trkpt><trkpt lat="45.4004117" lon="10.52051"><ele>118.80000000000001</ele><time>2026-04-27T15:40:02.182Z</time></trkpt><trkpt lat="45.4003317" lon="10.5205583"><ele>119.2</ele><time>2026-04-27T15:40:04.176Z</time></trkpt><trkpt lat="45.4002433" lon="10.5205967"><ele>119.6</ele><time>2026-04-27T15:40:06.176Z</time></trkpt><trkpt lat="45.40015" lon="10.5206283"><ele>120.0</ele><time>2026-04-27T15:40:08.173Z</time></trkpt><trkpt lat="45.4000517" lon="10.5206667"><ele>120.0</ele><time>2026-04-27T15:40:10.173Z</time></trkpt><trkpt lat="45.3999533" lon="10.5207133"><ele>120.0</ele><time>2026-04-27T15:40:12.172Z</time></trkpt><trkpt lat="45.399865" lon="10.520785"><ele>120.0</ele><time>2026-04-27T15:40:14.178Z</time></trkpt><trkpt lat="45.3997783" lon="10.520875"><ele>120.0</ele><time>2026-04-27T15:40:16.171Z</time></trkpt><trkpt lat="45.3996967" lon="10.5209733"><ele>120.0</ele><time>2026-04-27T15:40:18.176Z</time></trkpt><trkpt lat="45.399625" lon="10.521085"><ele>119.75</ele><time>2026-04-27T15:40:20.179Z</time></trkpt><trkpt lat="45.3995433" lon="10.5211983"><ele>119.5</ele><time>2026-04-27T15:40:22.175Z</time></trkpt><trkpt lat="45.399465" lon="10.5213133"><ele>119.25</ele><time>2026-04-27T15:40:24.178Z</time></trkpt><trkpt lat="45.399385" lon="10.5214283"><ele>119.0</ele><time>2026-04-27T15:40:26.18Z</time></trkpt><trkpt lat="45.3993067" lon="10.5215433"><ele>118.6</ele><time>2026-04-27T15:40:28.175Z</time></trkpt><trkpt lat="45.3992367" lon="10.5216583"><ele>118.2</ele><time>2026-04-27T15:40:30.174Z</time></trkpt><trkpt lat="45.3991617" lon="10.5217633"><ele>117.79999999999998</ele><time>2026-04-27T15:40:32.182Z</time></trkpt><trkpt lat="45.399085" lon="10.5218533"><ele>117.39999999999999</ele><time>2026-04-27T15:40:34.174Z</time></trkpt><trkpt lat="45.3990167" lon="10.5219283"><ele>117.0</ele><time>2026-04-27T15:40:36.178Z</time></trkpt><trkpt lat="45.3989517" lon="10.5219933"><ele>117.0</ele><time>2026-04-27T15:40:38.178Z</time></trkpt><trkpt lat="45.39888" lon="10.5220583"><ele>116.99999999999999</ele><time>2026-04-27T15:40:40.18Z</time></trkpt><trkpt lat="45.3987883" lon="10.522105"><ele>116.99999999999999</ele><time>2026-04-27T15:40:42.174Z</time></trkpt><trkpt lat="45.39869" lon="10.5221417"><ele>117.0</ele><time>2026-04-27T15:40:44.177Z</time></trkpt><trkpt lat="45.3985933" lon="10.5221567"><ele>117.0</ele><time>2026-04-27T15:40:46.173Z</time></trkpt><trkpt lat="45.39851" lon="10.5221667"><ele>117.16666666666667</ele><time>2026-04-27T15:40:48.169Z</time></trkpt><trkpt lat="45.3984417" lon="10.5221683"><ele>117.33333333333334</ele><time>2026-04-27T15:40:50.178Z</time></trkpt><trkpt lat="45.39836" lon="10.522175"><ele>117.5</ele><time>2026-04-27T15:40:52.178Z</time></trkpt><trkpt lat="45.3982717" lon="10.5221817"><ele>117.66666666666667</ele><time>2026-04-27T15:40:54.18Z</time></trkpt><trkpt lat="45.398185" lon="10.522185"><ele>117.83333333333334</ele><time>2026-04-27T15:40:56.181Z</time></trkpt><trkpt lat="45.3981" lon="10.52218"><ele>118.0</ele><time>2026-04-27T15:40:58.171Z</time></trkpt><trkpt lat="45.398015" lon="10.522175"><ele>118.00000000000001</ele><time>2026-04-27T15:41:00.169Z</time></trkpt><trkpt lat="45.3979383" lon="10.52218"><ele>118.0</ele><time>2026-04-27T15:41:02.18Z</time></trkpt><trkpt lat="45.397865" lon="10.5221817"><ele>118.0</ele><time>2026-04-27T15:41:04.171Z</time></trkpt><trkpt lat="45.3977917" lon="10.5221967"><ele>118.0</ele><time>2026-04-27T15:41:07.171Z</time></trkpt><trkpt lat="45.3977683" lon="10.5223133"><ele>118.00000000000001</ele><time>2026-04-27T15:41:10.178Z</time></trkpt><trkpt lat="45.3977667" lon="10.5224083"><ele>118.0</ele><time>2026-04-27T15:41:12.176Z</time></trkpt><trkpt lat="45.3977583" lon="10.5225133"><ele>118.0</ele><time>2026-04-27T15:41:14.178Z</time></trkpt><trkpt lat="45.3977533" lon="10.5226167"><ele>118.0</ele><time>2026-04-27T15:41:16.18Z</time></trkpt><trkpt lat="45.3977433" lon="10.5227183"><ele>118.0</ele><time>2026-04-27T15:41:18.17Z</time></trkpt><trkpt lat="45.39773" lon="10.5228133"><ele>118.0</ele><time>2026-04-27T15:41:20.17Z</time></trkpt><trkpt lat="45.397725" lon="10.522905"><ele>118.0</ele><time>2026-04-27T15:41:22.172Z</time></trkpt><trkpt lat="45.397715" lon="10.523005"><ele>118.0</ele><time>2026-04-27T15:41:24.176Z</time></trkpt><trkpt lat="45.397705" lon="10.5231033"><ele>118.0</ele><time>2026-04-27T15:41:26.18Z</time></trkpt><trkpt lat="45.397695" lon="10.5232167"><ele>118.2</ele><time>2026-04-27T15:41:28.168Z</time></trkpt><trkpt lat="45.3976917" lon="10.5233367"><ele>118.4</ele><time>2026-04-27T15:41:30.173Z</time></trkpt><trkpt lat="45.3976867" lon="10.52347"><ele>118.60000000000001</ele><time>2026-04-27T15:41:32.18Z</time></trkpt><trkpt lat="45.39769" lon="10.5235983"><ele>118.80000000000001</ele><time>2026-04-27T15:41:34.177Z</time></trkpt><trkpt lat="45.397685" lon="10.5237367"><ele>119.0</ele><time>2026-04-27T15:41:36.175Z</time></trkpt><trkpt lat="45.397685" lon="10.52387"><ele>119.0</ele><time>2026-04-27T15:41:38.179Z</time></trkpt><trkpt lat="45.3976817" lon="10.5240117"><ele>119.0</ele><time>2026-04-27T15:41:40.172Z</time></trkpt><trkpt lat="45.3976783" lon="10.52415"><ele>119.0</ele><time>2026-04-27T15:41:42.182Z</time></trkpt><trkpt lat="45.3976733" lon="10.5242933"><ele>119.0</ele><time>2026-04-27T15:41:44.178Z</time></trkpt><trkpt lat="45.3976683" lon="10.5244267"><ele>119.0</ele><time>2026-04-27T15:41:46.181Z</time></trkpt><trkpt lat="45.39766" lon="10.524555"><ele>119.0</ele><time>2026-04-27T15:41:48.175Z</time></trkpt><trkpt lat="45.3976433" lon="10.5246817"><ele>119.0</ele><time>2026-04-27T15:41:50.179Z</time></trkpt><trkpt lat="45.3976183" lon="10.52481"><ele>119.0</ele><time>2026-04-27T15:41:52.169Z</time></trkpt><trkpt lat="45.397585" lon="10.5249367"><ele>119.0</ele><time>2026-04-27T15:41:54.172Z</time></trkpt><trkpt lat="45.39755" lon="10.5250683"><ele>119.0</ele><time>2026-04-27T15:41:56.179Z</time></trkpt><trkpt lat="45.39751" lon="10.5251967"><ele>119.0</ele><time>2026-04-27T15:41:58.175Z</time></trkpt><trkpt lat="45.3974733" lon="10.5253217"><ele>119.0</ele><time>2026-04-27T15:42:00.175Z</time></trkpt><trkpt lat="45.397435" lon="10.5254483"><ele>119.0</ele><time>2026-04-27T15:42:02.181Z</time></trkpt><trkpt lat="45.3974033" lon="10.5255667"><ele>119.0</ele><time>2026-04-27T15:42:04.172Z</time></trkpt><trkpt lat="45.397375" lon="10.5256833"><ele>119.0</ele><time>2026-04-27T15:42:06.175Z</time></trkpt><trkpt lat="45.3973483" lon="10.5257967"><ele>118.99999999999999</ele><time>2026-04-27T15:42:08.175Z</time></trkpt><trkpt lat="45.3973117" lon="10.5259067"><ele>119.0</ele><time>2026-04-27T15:42:10.169Z</time></trkpt><trkpt lat="45.39728" lon="10.526025"><ele>119.0</ele><time>2026-04-27T15:42:12.184Z</time></trkpt><trkpt lat="45.39725" lon="10.526145"><ele>119.0</ele><time>2026-04-27T15:42:14.178Z</time></trkpt><trkpt lat="45.3972267" lon="10.52626"><ele>118.99999999999999</ele><time>2026-04-27T15:42:16.179Z</time></trkpt><trkpt lat="45.3971983" lon="10.5263533"><ele>119.0</ele><time>2026-04-27T15:42:18.172Z</time></trkpt><trkpt lat="45.3971817" lon="10.52646"><ele>119.33333333333333</ele><time>2026-04-27T15:42:20.18Z</time></trkpt><trkpt lat="45.3971933" lon="10.5265667"><ele>119.66666666666666</ele><time>2026-04-27T15:42:22.18Z</time></trkpt><trkpt lat="45.3972683" lon="10.5266367"><ele>120.0</ele><time>2026-04-27T15:42:25.171Z</time></trkpt><trkpt lat="45.3973333" lon="10.5266683"><ele>120.33333333333334</ele><time>2026-04-27T15:42:27.176Z</time></trkpt><trkpt lat="45.397405" lon="10.526695"><ele>120.66666666666667</ele><time>2026-04-27T15:42:29.174Z</time></trkpt><trkpt lat="45.397485" lon="10.5267383"><ele>121.0</ele><time>2026-04-27T15:42:31.177Z</time></trkpt><trkpt lat="45.39756" lon="10.5267917"><ele>121.00000000000001</ele><time>2026-04-27T15:42:33.173Z</time></trkpt><trkpt lat="45.3976433" lon="10.5268233"><ele>121.0</ele><time>2026-04-27T15:42:35.172Z</time></trkpt><trkpt lat="45.3977283" lon="10.5268633"><ele>121.0</ele><time>2026-04-27T15:42:37.17Z</time></trkpt><trkpt lat="45.3978133" lon="10.5268917"><ele>121.0</ele><time>2026-04-27T15:42:39.177Z</time></trkpt><trkpt lat="45.3978967" lon="10.5269233"><ele>121.00000000000001</ele><time>2026-04-27T15:42:41.175Z</time></trkpt><trkpt lat="45.3979817" lon="10.5269533"><ele>121.0</ele><time>2026-04-27T15:42:43.176Z</time></trkpt><trkpt lat="45.39806" lon="10.5269917"><ele>121.83333333333334</ele><time>2026-04-27T15:42:45.177Z</time></trkpt><trkpt lat="45.3981433" lon="10.5270583"><ele>122.66666666666667</ele><time>2026-04-27T15:42:47.172Z</time></trkpt><trkpt lat="45.39821" lon="10.5271467"><ele>123.5</ele><time>2026-04-27T15:42:49.178Z</time></trkpt><trkpt lat="45.3982567" lon="10.52722"><ele>124.33333333333334</ele><time>2026-04-27T15:42:51.173Z</time></trkpt><trkpt lat="45.3982967" lon="10.5273033"><ele>125.16666666666667</ele><time>2026-04-27T15:42:53.171Z</time></trkpt><trkpt lat="45.3983367" lon="10.527395"><ele>126.0</ele><time>2026-04-27T15:42:55.177Z</time></trkpt><trkpt lat="45.3983783" lon="10.5275017"><ele>126.5</ele><time>2026-04-27T15:42:57.176Z</time></trkpt><trkpt lat="45.3984317" lon="10.5276017"><ele>127.0</ele><time>2026-04-27T15:42:59.175Z</time></trkpt><trkpt lat="45.3984883" lon="10.5276967"><ele>127.5</ele><time>2026-04-27T15:43:01.178Z</time></trkpt><trkpt lat="45.3985567" lon="10.527775"><ele>128.0</ele><time>2026-04-27T15:43:03.17Z</time></trkpt><trkpt lat="45.398635" lon="10.5278333"><ele>128.5</ele><time>2026-04-27T15:43:05.172Z</time></trkpt><trkpt lat="45.39872" lon="10.52786"><ele>129.0</ele><time>2026-04-27T15:43:07.177Z</time></trkpt><trkpt lat="45.3988083" lon="10.5278783"><ele>130.0</ele><time>2026-04-27T15:43:09.174Z</time></trkpt><trkpt lat="45.3989" lon="10.5278767"><ele>131.0</ele><time>2026-04-27T15:43:11.172Z</time></trkpt><trkpt lat="45.398985" lon="10.52788"><ele>132.0</ele><time>2026-04-27T15:43:13.168Z</time></trkpt><trkpt lat="45.3990783" lon="10.5278817"><ele>133.0</ele><time>2026-04-27T15:43:15.172Z</time></trkpt><trkpt lat="45.39917" lon="10.5278883"><ele>134.0</ele><time>2026-04-27T15:43:17.179Z</time></trkpt><trkpt lat="45.3992633" lon="10.5278917"><ele>134.0</ele><time>2026-04-27T15:43:19.173Z</time></trkpt><trkpt lat="45.3993567" lon="10.5278933"><ele>134.0</ele><time>2026-04-27T15:43:21.171Z</time></trkpt><trkpt lat="45.3994533" lon="10.5278933"><ele>134.0</ele><time>2026-04-27T15:43:23.176Z</time></trkpt><trkpt lat="45.39955" lon="10.5279067"><ele>134.0</ele><time>2026-04-27T15:43:25.171Z</time></trkpt><trkpt lat="45.399645" lon="10.527925"><ele>134.0</ele><time>2026-04-27T15:43:27.175Z</time></trkpt><trkpt lat="45.399745" lon="10.5279433"><ele>135.16666666666666</ele><time>2026-04-27T15:43:29.171Z</time></trkpt><trkpt lat="45.399835" lon="10.5279633"><ele>136.33333333333331</ele><time>2026-04-27T15:43:31.177Z</time></trkpt><trkpt lat="45.3999017" lon="10.5279783"><ele>137.5</ele><time>2026-04-27T15:43:33.189Z</time></trkpt><trkpt lat="45.39996" lon="10.5280317"><ele>138.66666666666666</ele><time>2026-04-27T15:43:36.175Z</time></trkpt><trkpt lat="45.3999617" lon="10.5281217"><ele>139.83333333333334</ele><time>2026-04-27T15:43:39.172Z</time></trkpt><trkpt lat="45.39994" lon="10.5282317"><ele>141.0</ele><time>2026-04-27T15:43:42.177Z</time></trkpt><trkpt lat="45.3999217" lon="10.5283483"><ele>141.0</ele><time>2026-04-27T15:43:45.171Z</time></trkpt><trkpt lat="45.3998967" lon="10.52846"><ele>141.0</ele><time>2026-04-27T15:43:48.171Z</time></trkpt><trkpt lat="45.3998733" lon="10.5285767"><ele>141.0</ele><time>2026-04-27T15:43:51.164Z</time></trkpt><trkpt lat="45.3998433" lon="10.5286867"><ele>141.0</ele><time>2026-04-27T15:43:54.176Z</time></trkpt><trkpt lat="45.3998033" lon="10.5288017"><ele>141.0</ele><time>2026-04-27T15:43:57.171Z</time></trkpt><trkpt lat="45.3997867" lon="10.5288917"><ele>141.0</ele><time>2026-04-27T15:44:00.16Z</time></trkpt><trkpt lat="45.399775" lon="10.529"><ele>140.66666666666666</ele><time>2026-04-27T15:44:03.175Z</time></trkpt><trkpt lat="45.3997717" lon="10.52909"><ele>140.33333333333334</ele><time>2026-04-27T15:44:06.176Z</time></trkpt><trkpt lat="45.399765" lon="10.529195"><ele>140.0</ele><time>2026-04-27T15:44:10.172Z</time></trkpt><trkpt lat="45.3997433" lon="10.5293083"><ele>139.66666666666669</ele><time>2026-04-27T15:44:13.177Z</time></trkpt><trkpt lat="45.3997433" lon="10.5294433"><ele>139.33333333333334</ele><time>2026-04-27T15:44:16.169Z</time></trkpt><trkpt lat="45.3997483" lon="10.5295817"><ele>139.0</ele><time>2026-04-27T15:44:19.173Z</time></trkpt><trkpt lat="45.3997517" lon="10.5296967"><ele>138.71428571428572</ele><time>2026-04-27T15:44:21.171Z</time></trkpt><trkpt lat="45.39975" lon="10.5298033"><ele>138.42857142857144</ele><time>2026-04-27T15:44:23.176Z</time></trkpt><trkpt lat="45.39975" lon="10.529895"><ele>138.14285714285717</ele><time>2026-04-27T15:44:25.171Z</time></trkpt><trkpt lat="45.3997483" lon="10.5300033"><ele>137.85714285714286</ele><time>2026-04-27T15:44:27.175Z</time></trkpt><trkpt lat="45.39976" lon="10.5301167"><ele>137.57142857142858</ele><time>2026-04-27T15:44:30.175Z</time></trkpt><trkpt lat="45.3997717" lon="10.5302067"><ele>137.2857142857143</ele><time>2026-04-27T15:44:32.176Z</time></trkpt><trkpt lat="45.3997883" lon="10.5303133"><ele>137.0</ele><time>2026-04-27T15:44:34.175Z</time></trkpt><trkpt lat="45.3998167" lon="10.5304133"><ele>137.0</ele><time>2026-04-27T15:44:36.181Z</time></trkpt><trkpt lat="45.3998883" lon="10.5304433"><ele>137.0</ele><time>2026-04-27T15:44:39.177Z</time></trkpt><trkpt lat="45.399955" lon="10.5304167"><ele>137.0</ele><time>2026-04-27T15:44:41.176Z</time></trkpt><trkpt lat="45.4000183" lon="10.5303717"><ele>137.0</ele><time>2026-04-27T15:44:43.17Z</time></trkpt><trkpt lat="45.4000917" lon="10.53029"><ele>137.0</ele><time>2026-04-27T15:44:46.174Z</time></trkpt><trkpt lat="45.400145" lon="10.5302383"><ele>137.0</ele><time>2026-04-27T15:44:48.176Z</time></trkpt><trkpt lat="45.4002183" lon="10.5301783"><ele>137.0</ele><time>2026-04-27T15:44:50.164Z</time></trkpt><trkpt lat="45.40029" lon="10.5301217"><ele>137.0</ele><time>2026-04-27T15:44:52.178Z</time></trkpt><trkpt lat="45.4003633" lon="10.53006"><ele>137.0</ele><time>2026-04-27T15:44:54.173Z</time></trkpt><trkpt lat="45.4004533" lon="10.5299733"><ele>137.0</ele><time>2026-04-27T15:44:56.178Z</time></trkpt><trkpt lat="45.4005317" lon="10.5299"><ele>137.0</ele><time>2026-04-27T15:44:58.175Z</time></trkpt><trkpt lat="45.4006067" lon="10.5298467"><ele>136.66666666666666</ele><time>2026-04-27T15:45:00.18Z</time></trkpt><trkpt lat="45.4006717" lon="10.52984"><ele>136.33333333333331</ele><time>2026-04-27T15:45:02.179Z</time></trkpt><trkpt lat="45.4007133" lon="10.52992"><ele>136.0</ele><time>2026-04-27T15:45:05.171Z</time></trkpt><trkpt lat="45.4007383" lon="10.5300383"><ele>135.66666666666666</ele><time>2026-04-27T15:45:08.177Z</time></trkpt><trkpt lat="45.4007617" lon="10.53016"><ele>135.33333333333334</ele><time>2026-04-27T15:45:11.172Z</time></trkpt><trkpt lat="45.4007817" lon="10.53026"><ele>135.0</ele><time>2026-04-27T15:45:13.173Z</time></trkpt><trkpt lat="45.400815" lon="10.5303733"><ele>134.83333333333334</ele><time>2026-04-27T15:45:15.17Z</time></trkpt><trkpt lat="45.400855" lon="10.530485"><ele>134.66666666666666</ele><time>2026-04-27T15:45:17.168Z</time></trkpt><trkpt lat="45.4009017" lon="10.530595"><ele>134.5</ele><time>2026-04-27T15:45:19.166Z</time></trkpt><trkpt lat="45.4009417" lon="10.5306983"><ele>134.33333333333331</ele><time>2026-04-27T15:45:22.175Z</time></trkpt><trkpt lat="45.4009717" lon="10.5308133"><ele>134.16666666666666</ele><time>2026-04-27T15:45:25.176Z</time></trkpt><trkpt lat="45.40101" lon="10.53093"><ele>134.0</ele><time>2026-04-27T15:45:28.176Z</time></trkpt><trkpt lat="45.4010367" lon="10.5310433"><ele>134.0</ele><time>2026-04-27T15:45:31.167Z</time></trkpt><trkpt lat="45.40106" lon="10.53117"><ele>134.0</ele><time>2026-04-27T15:45:34.179Z</time></trkpt><trkpt lat="45.40107" lon="10.5312917"><ele>134.0</ele><time>2026-04-27T15:45:37.171Z</time></trkpt><trkpt lat="45.4010767" lon="10.5313833"><ele>134.0</ele><time>2026-04-27T15:45:39.173Z</time></trkpt><trkpt lat="45.40108" lon="10.5314783"><ele>134.0</ele><time>2026-04-27T15:45:41.177Z</time></trkpt><trkpt lat="45.4010733" lon="10.5315833"><ele>134.0</ele><time>2026-04-27T15:45:43.171Z</time></trkpt><trkpt lat="45.40107" lon="10.53169"><ele>133.5</ele><time>2026-04-27T15:45:45.182Z</time></trkpt><trkpt lat="45.4010817" lon="10.5317883"><ele>133.0</ele><time>2026-04-27T15:45:47.179Z</time></trkpt><trkpt lat="45.4010983" lon="10.5318767"><ele>132.5</ele><time>2026-04-27T15:45:50.184Z</time></trkpt><trkpt lat="45.401105" lon="10.5319933"><ele>132.0</ele><time>2026-04-27T15:45:54.18Z</time></trkpt><trkpt lat="45.4011467" lon="10.5320883"><ele>131.5</ele><time>2026-04-27T15:45:58.168Z</time></trkpt><trkpt lat="45.4012117" lon="10.5321383"><ele>131.0</ele><time>2026-04-27T15:46:01.175Z</time></trkpt><trkpt lat="45.4012767" lon="10.5322117"><ele>130.33333333333331</ele><time>2026-04-27T15:46:04.168Z</time></trkpt><trkpt lat="45.4013417" lon="10.5322917"><ele>129.66666666666666</ele><time>2026-04-27T15:46:07.173Z</time></trkpt><trkpt lat="45.4014017" lon="10.5323567"><ele>129.0</ele><time>2026-04-27T15:46:10.174Z</time></trkpt><trkpt lat="45.40147" lon="10.5324033"><ele>128.33333333333334</ele><time>2026-04-27T15:46:13.174Z</time></trkpt><trkpt lat="45.40155" lon="10.5324517"><ele>127.66666666666667</ele><time>2026-04-27T15:46:16.17Z</time></trkpt><trkpt lat="45.4016233" lon="10.532505"><ele>127.0</ele><time>2026-04-27T15:46:19.177Z</time></trkpt><trkpt lat="45.4016833" lon="10.5325467"><ele>127.00000000000001</ele><time>2026-04-27T15:46:22.17Z</time></trkpt><trkpt lat="45.4017483" lon="10.5325867"><ele>127.0</ele><time>2026-04-27T15:46:25.17Z</time></trkpt><trkpt lat="45.401825" lon="10.5326383"><ele>127.0</ele><time>2026-04-27T15:46:28.17Z</time></trkpt><trkpt lat="45.401915" lon="10.5326783"><ele>127.0</ele><time>2026-04-27T15:46:31.176Z</time></trkpt><trkpt lat="45.4019783" lon="10.5327033"><ele>127.00000000000001</ele><time>2026-04-27T15:46:33.174Z</time></trkpt><trkpt lat="45.4020617" lon="10.532735"><ele>127.0</ele><time>2026-04-27T15:46:36.178Z</time></trkpt><trkpt lat="45.4021283" lon="10.5327517"><ele>126.83333333333334</ele><time>2026-04-27T15:46:38.175Z</time></trkpt><trkpt lat="45.4021983" lon="10.53277"><ele>126.66666666666667</ele><time>2026-04-27T15:46:40.175Z</time></trkpt><trkpt lat="45.4022883" lon="10.53279"><ele>126.5</ele><time>2026-04-27T15:46:42.175Z</time></trkpt><trkpt lat="45.40236" lon="10.5327883"><ele>126.33333333333334</ele><time>2026-04-27T15:46:44.18Z</time></trkpt><trkpt lat="45.4024417" lon="10.5328"><ele>126.16666666666667</ele><time>2026-04-27T15:46:48.18Z</time></trkpt><trkpt lat="45.4025083" lon="10.5328633"><ele>126.0</ele><time>2026-04-27T15:46:52.171Z</time></trkpt><trkpt lat="45.4025517" lon="10.532955"><ele>125.71428571428572</ele><time>2026-04-27T15:46:56.173Z</time></trkpt><trkpt lat="45.4025867" lon="10.53303"><ele>125.42857142857143</ele><time>2026-04-27T15:46:59.177Z</time></trkpt><trkpt lat="45.4026333" lon="10.5331067"><ele>125.14285714285714</ele><time>2026-04-27T15:47:02.178Z</time></trkpt><trkpt lat="45.402685" lon="10.5331833"><ele>124.85714285714286</ele><time>2026-04-27T15:47:05.176Z</time></trkpt><trkpt lat="45.4027267" lon="10.5332733"><ele>124.57142857142858</ele><time>2026-04-27T15:47:08.178Z</time></trkpt><trkpt lat="45.4027483" lon="10.53336"><ele>124.28571428571429</ele><time>2026-04-27T15:47:12.171Z</time></trkpt><trkpt lat="45.4027983" lon="10.533425"><ele>124.0</ele><time>2026-04-27T15:47:16.177Z</time></trkpt><trkpt lat="45.4028683" lon="10.5335317"><ele>124.00000000000001</ele><time>2026-04-27T15:47:20.565Z</time></trkpt><trkpt lat="45.4029267" lon="10.5335917"><ele>124.0</ele><time>2026-04-27T15:47:24.271Z</time></trkpt><trkpt lat="45.4029917" lon="10.533675"><ele>124.0</ele><time>2026-04-27T15:47:28.277Z</time></trkpt><trkpt lat="45.4030483" lon="10.5337267"><ele>124.0</ele><time>2026-04-27T15:47:31.273Z</time></trkpt><trkpt lat="45.4031017" lon="10.5337817"><ele>124.00000000000001</ele><time>2026-04-27T15:47:34.284Z</time></trkpt><trkpt lat="45.4031567" lon="10.5338567"><ele>124.0</ele><time>2026-04-27T15:47:37.271Z</time></trkpt><trkpt lat="45.403225" lon="10.5339333"><ele>123.50000000000001</ele><time>2026-04-27T15:47:41.273Z</time></trkpt><trkpt lat="45.4032883" lon="10.534"><ele>123.0</ele><time>2026-04-27T15:47:44.272Z</time></trkpt><trkpt lat="45.4033433" lon="10.5340533"><ele>122.5</ele><time>2026-04-27T15:47:47.274Z</time></trkpt><trkpt lat="45.4034067" lon="10.5341117"><ele>122.0</ele><time>2026-04-27T15:47:50.272Z</time></trkpt><trkpt lat="45.403475" lon="10.5341417"><ele>121.50000000000001</ele><time>2026-04-27T15:47:53.272Z</time></trkpt><trkpt lat="45.403555" lon="10.5341783"><ele>121.0</ele><time>2026-04-27T15:47:56.278Z</time></trkpt><trkpt lat="45.403635" lon="10.5342183"><ele>121.00000000000001</ele><time>2026-04-27T15:47:59.274Z</time></trkpt><trkpt lat="45.4037217" lon="10.5342467"><ele>121.0</ele><time>2026-04-27T15:48:02.275Z</time></trkpt><trkpt lat="45.4037983" lon="10.53429"><ele>121.0</ele><time>2026-04-27T15:48:05.268Z</time></trkpt><trkpt lat="45.4038767" lon="10.5343183"><ele>121.0</ele><time>2026-04-27T15:48:08.278Z</time></trkpt><trkpt lat="45.4039633" lon="10.5343583"><ele>121.00000000000001</ele><time>2026-04-27T15:48:11.27Z</time></trkpt><trkpt lat="45.4040233" lon="10.53439"><ele>121.0</ele><time>2026-04-27T15:48:13.273Z</time></trkpt><trkpt lat="45.4040867" lon="10.5344233"><ele>120.50000000000001</ele><time>2026-04-27T15:48:15.277Z</time></trkpt><trkpt lat="45.4041467" lon="10.5344517"><ele>120.0</ele><time>2026-04-27T15:48:17.275Z</time></trkpt><trkpt lat="45.4042283" lon="10.5345"><ele>119.5</ele><time>2026-04-27T15:48:20.277Z</time></trkpt><trkpt lat="45.4043083" lon="10.53454"><ele>119.0</ele><time>2026-04-27T15:48:23.267Z</time></trkpt><trkpt lat="45.404385" lon="10.5345667"><ele>118.50000000000001</ele><time>2026-04-27T15:48:26.273Z</time></trkpt><trkpt lat="45.4044667" lon="10.5345967"><ele>118.0</ele><time>2026-04-27T15:48:29.268Z</time></trkpt><trkpt lat="45.404555" lon="10.5346467"><ele>117.83333333333334</ele><time>2026-04-27T15:48:32.275Z</time></trkpt><trkpt lat="45.4046367" lon="10.5346683"><ele>117.66666666666667</ele><time>2026-04-27T15:48:35.275Z</time></trkpt><trkpt lat="45.4047" lon="10.5346967"><ele>117.5</ele><time>2026-04-27T15:48:38.27Z</time></trkpt><trkpt lat="45.4047867" lon="10.5347283"><ele>117.33333333333334</ele><time>2026-04-27T15:48:41.264Z</time></trkpt><trkpt lat="45.4048683" lon="10.5347517"><ele>117.16666666666667</ele><time>2026-04-27T15:48:44.277Z</time></trkpt><trkpt lat="45.4049433" lon="10.5347917"><ele>117.0</ele><time>2026-04-27T15:48:47.272Z</time></trkpt><trkpt lat="45.4050233" lon="10.5348283"><ele>116.33333333333333</ele><time>2026-04-27T15:48:50.268Z</time></trkpt><trkpt lat="45.4051033" lon="10.534855"><ele>115.66666666666666</ele><time>2026-04-27T15:48:53.267Z</time></trkpt><trkpt lat="45.40519" lon="10.534895"><ele>115.0</ele><time>2026-04-27T15:48:56.267Z</time></trkpt><trkpt lat="45.4052617" lon="10.5349283"><ele>114.33333333333333</ele><time>2026-04-27T15:48:59.267Z</time></trkpt><trkpt lat="45.405335" lon="10.5349667"><ele>113.66666666666666</ele><time>2026-04-27T15:49:02.266Z</time></trkpt><trkpt lat="45.4054133" lon="10.53501"><ele>113.0</ele><time>2026-04-27T15:49:05.268Z</time></trkpt><trkpt lat="45.4054883" lon="10.5350317"><ele>112.85714285714286</ele><time>2026-04-27T15:49:08.273Z</time></trkpt><trkpt lat="45.4055533" lon="10.5350517"><ele>112.71428571428571</ele><time>2026-04-27T15:49:11.263Z</time></trkpt><trkpt lat="45.4056233" lon="10.535065"><ele>112.57142857142857</ele><time>2026-04-27T15:49:14.276Z</time></trkpt><trkpt lat="45.4057067" lon="10.5350567"><ele>112.42857142857143</ele><time>2026-04-27T15:49:18.27Z</time></trkpt><trkpt lat="45.40577" lon="10.5351083"><ele>112.28571428571428</ele><time>2026-04-27T15:49:21.275Z</time></trkpt><trkpt lat="45.4058367" lon="10.5351533"><ele>112.14285714285714</ele><time>2026-04-27T15:49:24.272Z</time></trkpt><trkpt lat="45.405905" lon="10.5351983"><ele>112.0</ele><time>2026-04-27T15:49:27.268Z</time></trkpt><trkpt lat="45.4059683" lon="10.535235"><ele>112.0</ele><time>2026-04-27T15:49:30.274Z</time></trkpt><trkpt lat="45.4060317" lon="10.5352667"><ele>112.0</ele><time>2026-04-27T15:49:33.267Z</time></trkpt><trkpt lat="45.4060983" lon="10.5353017"><ele>112.0</ele><time>2026-04-27T15:49:36.266Z</time></trkpt><trkpt lat="45.4061583" lon="10.5353483"><ele>112.0</ele><time>2026-04-27T15:49:39.271Z</time></trkpt><trkpt lat="45.4062217" lon="10.5353783"><ele>112.0</ele><time>2026-04-27T15:49:43.272Z</time></trkpt><trkpt lat="45.4062867" lon="10.535355"><ele>112.0</ele><time>2026-04-27T15:49:47.271Z</time></trkpt><trkpt lat="45.4063433" lon="10.5352867"><ele>112.0</ele><time>2026-04-27T15:49:51.274Z</time></trkpt><trkpt lat="45.4064033" lon="10.5352567"><ele>111.71428571428571</ele><time>2026-04-27T15:49:54.277Z</time></trkpt><trkpt lat="45.4064633" lon="10.535205"><ele>111.42857142857143</ele><time>2026-04-27T15:49:57.277Z</time></trkpt><trkpt lat="45.4065167" lon="10.5351367"><ele>111.14285714285714</ele><time>2026-04-27T15:50:00.272Z</time></trkpt><trkpt lat="45.4065717" lon="10.5350633"><ele>110.85714285714286</ele><time>2026-04-27T15:50:03.268Z</time></trkpt><trkpt lat="45.406635" lon="10.5349967"><ele>110.57142857142857</ele><time>2026-04-27T15:50:06.276Z</time></trkpt><trkpt lat="45.406705" lon="10.5350067"><ele>110.28571428571428</ele><time>2026-04-27T15:50:10.271Z</time></trkpt><trkpt lat="45.4067333" lon="10.5350883"><ele>110.0</ele><time>2026-04-27T15:50:14.272Z</time></trkpt><trkpt lat="45.406765" lon="10.5352017"><ele>109.99999999999999</ele><time>2026-04-27T15:50:18.276Z</time></trkpt><trkpt lat="45.4067967" lon="10.5353033"><ele>110.0</ele><time>2026-04-27T15:50:21.275Z</time></trkpt><trkpt lat="45.4068133" lon="10.5353933"><ele>110.0</ele><time>2026-04-27T15:50:24.267Z</time></trkpt><trkpt lat="45.4068367" lon="10.53548"><ele>110.0</ele><time>2026-04-27T15:50:27.267Z</time></trkpt><trkpt lat="45.40686" lon="10.5355733"><ele>110.0</ele><time>2026-04-27T15:50:30.275Z</time></trkpt><trkpt lat="45.40689" lon="10.5356833"><ele>109.99999999999999</ele><time>2026-04-27T15:50:33.275Z</time></trkpt><trkpt lat="45.406915" lon="10.53578"><ele>110.0</ele><time>2026-04-27T15:50:36.276Z</time></trkpt><trkpt lat="45.4069367" lon="10.5358717"><ele>109.99999999999999</ele><time>2026-04-27T15:50:39.27Z</time></trkpt><trkpt lat="45.406965" lon="10.5359583"><ele>110.0</ele><time>2026-04-27T15:50:42.262Z</time></trkpt><trkpt lat="45.4069933" lon="10.536055"><ele>110.0</ele><time>2026-04-27T15:50:45.27Z</time></trkpt><trkpt lat="45.4070233" lon="10.53615"><ele>110.0</ele><time>2026-04-27T15:50:48.269Z</time></trkpt><trkpt lat="45.407065" lon="10.5362983"><ele>109.99999999999999</ele><time>2026-04-27T15:51:07.273Z</time></trkpt><trkpt lat="45.407095" lon="10.5363817"><ele>110.0</ele><time>2026-04-27T15:51:13.268Z</time></trkpt><trkpt lat="45.4071367" lon="10.5364667"><ele>110.14285714285714</ele><time>2026-04-27T15:51:20.268Z</time></trkpt><trkpt lat="45.4071687" lon="10.5365549"><ele>110.28571428571428</ele><time>2026-04-27T15:51:27.27Z</time></trkpt><trkpt lat="45.4071981" lon="10.5366396"><ele>110.42857142857142</ele><time>2026-04-27T15:51:32.276Z</time></trkpt><trkpt lat="45.4072268" lon="10.536735"><ele>110.57142857142857</ele><time>2026-04-27T15:51:38.272Z</time></trkpt><trkpt lat="45.4072551" lon="10.5368298"><ele>110.71428571428572</ele><time>2026-04-27T15:51:45.267Z</time></trkpt><trkpt lat="45.4072863" lon="10.5369179"><ele>110.85714285714285</ele><time>2026-04-27T15:51:51.28Z</time></trkpt><trkpt lat="45.4073163" lon="10.5370079"><ele>111.0</ele><time>2026-04-27T15:51:57.267Z</time></trkpt><trkpt lat="45.4073371" lon="10.5370936"><ele>111.42857142857142</ele><time>2026-04-27T15:52:03.282Z</time></trkpt><trkpt lat="45.4073569" lon="10.5371914"><ele>111.85714285714286</ele><time>2026-04-27T15:52:09.268Z</time></trkpt><trkpt lat="45.4073785" lon="10.5372835"><ele>112.28571428571428</ele><time>2026-04-27T15:52:15.268Z</time></trkpt><trkpt lat="45.4074047" lon="10.5373819"><ele>112.71428571428571</ele><time>2026-04-27T15:52:21.27Z</time></trkpt><trkpt lat="45.407428" lon="10.5374727"><ele>113.14285714285714</ele><time>2026-04-27T15:52:27.273Z</time></trkpt><trkpt lat="45.4074499" lon="10.5375605"><ele>113.57142857142857</ele><time>2026-04-27T15:52:33.27Z</time></trkpt><trkpt lat="45.4074758" lon="10.5376473"><ele>114.0</ele><time>2026-04-27T15:52:39.269Z</time></trkpt><trkpt lat="45.4075021" lon="10.5377404"><ele>114.0</ele><time>2026-04-27T15:52:46.266Z</time></trkpt><trkpt lat="45.4075466" lon="10.5378383"><ele>114.0</ele><time>2026-04-27T15:52:58.268Z</time></trkpt><trkpt lat="45.4076377" lon="10.5378703"><ele>114.0</ele><time>2026-04-27T15:53:06.268Z</time></trkpt><trkpt lat="45.4077247" lon="10.5378364"><ele>114.0</ele><time>2026-04-27T15:53:18.27Z</time></trkpt><trkpt lat="45.4077936" lon="10.5377939"><ele>114.0</ele><time>2026-04-27T15:53:21.274Z</time></trkpt><trkpt lat="45.4078584" lon="10.5377559"><ele>114.0</ele><time>2026-04-27T15:53:24.269Z</time></trkpt><trkpt lat="45.4079229" lon="10.5377156"><ele>114.33333333333333</ele><time>2026-04-27T15:53:27.269Z</time></trkpt><trkpt lat="45.4080017" lon="10.5376731"><ele>114.66666666666666</ele><time>2026-04-27T15:53:30.275Z</time></trkpt><trkpt lat="45.40808" lon="10.5376383"><ele>115.0</ele><time>2026-04-27T15:53:33.27Z</time></trkpt><trkpt lat="45.408155" lon="10.5375833"><ele>115.33333333333333</ele><time>2026-04-27T15:53:36.268Z</time></trkpt><trkpt lat="45.4082283" lon="10.5375283"><ele>115.66666666666666</ele><time>2026-04-27T15:53:39.267Z</time></trkpt><trkpt lat="45.4082917" lon="10.53749"><ele>116.0</ele><time>2026-04-27T15:53:41.27Z</time></trkpt><trkpt lat="45.408375" lon="10.53744"><ele>116.0</ele><time>2026-04-27T15:53:44.275Z</time></trkpt><trkpt lat="45.4084367" lon="10.537405"><ele>116.0</ele><time>2026-04-27T15:53:46.273Z</time></trkpt><trkpt lat="45.40852" lon="10.537365"><ele>116.0</ele><time>2026-04-27T15:53:49.268Z</time></trkpt><trkpt lat="45.4085883" lon="10.5373217"><ele>116.0</ele><time>2026-04-27T15:53:52.27Z</time></trkpt><trkpt lat="45.4086917" lon="10.5372883"><ele>116.0</ele><time>2026-04-27T15:54:04.267Z</time></trkpt><trkpt lat="45.4087567" lon="10.5374417"><ele>115.99999999999999</ele><time>2026-04-27T15:54:23.275Z</time></trkpt><trkpt lat="45.4087583" lon="10.53754"><ele>116.0</ele><time>2026-04-27T15:54:30.266Z</time></trkpt><trkpt lat="45.4087656" lon="10.5376507"><ele>116.0</ele><time>2026-04-27T15:54:39.269Z</time></trkpt><trkpt lat="45.4087494" lon="10.5378064"><ele>116.0</ele><time>2026-04-27T15:54:54.274Z</time></trkpt><trkpt lat="45.4087382" lon="10.5379062"><ele>115.99999999999999</ele><time>2026-04-27T15:54:56.291Z</time></trkpt><trkpt lat="45.4087342" lon="10.5379991"><ele>116.0</ele><time>2026-04-27T15:55:01.264Z</time></trkpt><trkpt lat="45.4087449" lon="10.5380932"><ele>116.42857142857144</ele><time>2026-04-27T15:55:08.276Z</time></trkpt><trkpt lat="45.4087559" lon="10.5381907"><ele>116.85714285714286</ele><time>2026-04-27T15:55:15.273Z</time></trkpt><trkpt lat="45.4087614" lon="10.5382834"><ele>117.28571428571429</ele><time>2026-04-27T15:55:20.264Z</time></trkpt><trkpt lat="45.4087663" lon="10.5383819"><ele>117.71428571428572</ele><time>2026-04-27T15:55:31.269Z</time></trkpt><trkpt lat="45.4087723" lon="10.5384772"><ele>118.14285714285714</ele><time>2026-04-27T15:55:36.268Z</time></trkpt><trkpt lat="45.4087706" lon="10.5385773"><ele>118.57142857142857</ele><time>2026-04-27T15:55:43.27Z</time></trkpt><trkpt lat="45.4087701" lon="10.538674"><ele>119.0</ele><time>2026-04-27T15:55:48.271Z</time></trkpt><trkpt lat="45.4087718" lon="10.5387735"><ele>119.33333333333333</ele><time>2026-04-27T15:55:54.275Z</time></trkpt><trkpt lat="45.4087771" lon="10.5388651"><ele>119.66666666666666</ele><time>2026-04-27T15:55:59.273Z</time></trkpt><trkpt lat="45.4087851" lon="10.5389712"><ele>120.0</ele><time>2026-04-27T15:56:05.27Z</time></trkpt><trkpt lat="45.4088159" lon="10.5390589"><ele>120.33333333333334</ele><time>2026-04-27T15:56:11.266Z</time></trkpt><trkpt lat="45.4088196" lon="10.539161"><ele>120.66666666666667</ele><time>2026-04-27T15:56:27.278Z</time></trkpt><trkpt lat="45.4088409" lon="10.5393354"><ele>121.0</ele><time>2026-04-27T15:57:00.279Z</time></trkpt><trkpt lat="45.4098405" lon="10.5408117"><ele>127.0</ele><time>2026-04-27T15:57:23.269Z</time></trkpt><trkpt lat="45.4097786" lon="10.5407786"><ele>133.0</ele><time>2026-04-27T15:57:26.262Z</time></trkpt><trkpt lat="45.4094125" lon="10.5400475"><ele>133.0</ele><time>2026-04-27T15:58:37.268Z</time></trkpt><trkpt lat="45.4091798" lon="10.5398053"><ele>133.0</ele><time>2026-04-27T15:58:40.265Z</time></trkpt><trkpt lat="45.4091965" lon="10.539895"><ele>133.0</ele><time>2026-04-27T15:58:45.265Z</time></trkpt><trkpt lat="45.4092327" lon="10.5399982"><ele>133.0</ele><time>2026-04-27T15:58:49.265Z</time></trkpt><trkpt lat="45.4092701" lon="10.5401026"><ele>133.0</ele><time>2026-04-27T15:58:52.267Z</time></trkpt><trkpt lat="45.4092283" lon="10.54017"><ele>133.0</ele><time>2026-04-27T16:00:14.011Z</time></trkpt><trkpt lat="45.4090524" lon="10.5395948"><ele>133.0</ele><time>2026-04-27T16:01:08.261Z</time></trkpt><trkpt lat="45.4088734" lon="10.5395596"><ele>133.0</ele><time>2026-04-27T16:01:14.268Z</time></trkpt><trkpt lat="45.408766" lon="10.5396021"><ele>124.0</ele><time>2026-04-27T16:01:18.252Z</time></trkpt><trkpt lat="45.4087304" lon="10.5395045"><ele>121.0</ele><time>2026-04-27T16:01:20.278Z</time></trkpt></trkseg></trk></gpx>